ftp/pub/palmer/observations_modified/2016/November/AR161122_BASE.txt

Download

Sample DateTime	Unit Id	WS Avg 2min	WD Avg 2min	WGS 10min	WGD 10min	Air Temp	Rel Humidity	Dew Point	Pyranometer	Quantum	Air Pressure	Snow Level	Rainfall	PW Current	Visibility	CBase 1	CBase 2	CBase 3	Vert Vis
2016/11/22 00:00:00	BASE	2.51	297	3.91	285	-1.1	87	-3.0	125	281	999.0	NA	0.0000		9999	1250	0	0	0
2016/11/22 00:01:00	BASE	2.52	289	3.91	285	-1.1	88	-2.9	134	297	999.0	NA	0.0000		9999	1210	0	0	0
2016/11/22 00:02:00	BASE	2.56	283	3.91	285	-1.1	88	-2.9	128	287	999.0	NA	0.0000		9999	1310	0	0	0
2016/11/22 00:03:00	BASE	2.21	296	3.91	285	-1.1	87	-3.0	141	309	999.0	NA	0.0000		9999	1120	0	0	0
2016/11/22 00:04:00	BASE	1.93	313	3.91	285	-1.2	87	-3.0	150	319	999.0	NA	0.0000		9999	1250	23160	0	0
2016/11/22 00:05:00	BASE	1.98	316	3.45	301	-1.2	87	-3.0	145	311	999.0	NA	0.0000		9999	1350	0	0	0
2016/11/22 00:06:00	BASE	2.02	316	3.45	301	-1.2	87	-3.0	145	308	999.0	NA	0.0000		9999	1250	0	0	0
2016/11/22 00:07:00	BASE	2.00	316	3.45	301	-1.1	87	-3.0	126	276	999.0	NA	0.0000		9999	1280	0	0	0
2016/11/22 00:08:00	BASE	2.06	309	3.45	301	-1.1	87	-2.9	113	254	999.0	NA	0.0000		9999	1120	0	0	0
2016/11/22 00:09:00	BASE	1.94	318	3.45	301	-1.1	87	-2.9	101	231	999.0	NA	0.0000		9999	1050	0	0	0
2016/11/22 00:10:00	BASE	2.06	335	3.45	301	-1.0	87	-2.9	95	218	999.0	NA	0.0000		9999	1080	0	0	0
2016/11/22 00:11:00	BASE	2.28	322	3.45	301	-1.1	87	-2.9	94	213	999.0	NA	0.0000		9999	1020	0	0	0
2016/11/22 00:12:00	BASE	2.27	301	3.24	295	-1.1	87	-3.0	119	253	999.0	NA	0.0000		9999	1150	0	0	0
2016/11/22 00:13:01	BASE	2.01	304	2.88	314	-1.1	87	-3.0	118	250	999.0	NA	0.0000		9999	1150	0	0	0
2016/11/22 00:14:00	BASE	1.79	312	2.88	314	-1.1	87	-3.0	119	250	999.0	NA	0.0000		9999	1250	0	0	0
2016/11/22 00:15:00	BASE	1.67	320	2.88	314	-1.2	87	-3.0	106	226	999.0	NA	0.0000		9999	1210	0	0	0
2016/11/22 00:16:00	BASE	1.61	330	2.88	314	-1.2	87	-3.0	90	199	999.0	NA	0.0000		9999	1150	0	0	0
2016/11/22 00:17:00	BASE	1.89	331	2.88	314	-1.2	87	-3.0	72	169	999.0	NA	0.0000		9999	1180	0	0	0
2016/11/22 00:18:00	BASE	1.96	333	2.88	314	-1.2	88	-3.0	65	161	999.0	NA	0.0000		9999	1120	0	0	0
2016/11/22 00:19:00	BASE	1.69	339	2.88	314	-1.3	87	-3.1	76	181	999.0	NA	0.0000		9999	1080	0	0	0
2016/11/22 00:20:00	BASE	1.50	346	2.78	290	-1.3	87	-3.1	89	199	999.0	NA	0.0000		9999	1080	0	0	0
2016/11/22 00:21:00	BASE	1.50	333	2.78	290	-1.2	87	-3.1	87	193	999.0	NA	0.0000		9999	1150	0	0	0
2016/11/22 00:22:00	BASE	1.55	323	2.42	301	-1.2	87	-3.1	72	167	999.0	NA	0.0000		9999	1020	0	0	0
2016/11/22 00:23:00	BASE	1.66	331	2.42	301	-1.2	87	-3.1	54	137	999.0	NA	0.0000		9999	1050	0	0	0
2016/11/22 00:24:00	BASE	1.92	332	2.42	301	-1.1	87	-3.0	49	128	999.0	NA	0.0000		9999	1120	0	0	0
2016/11/22 00:25:00	BASE	1.71	331	2.42	301	-1.1	87	-3.0	46	121	999.0	NA	0.0000		9999	1080	0	0	0
2016/11/22 00:26:00	BASE	1.51	343	2.78	350	-1.2	87	-3.0	41	111	999.0	NA	0.0000		9999	1050	0	0	0
2016/11/22 00:27:00	BASE	2.21	347	3.04	341	-1.2	87	-3.0	38	104	999.0	NA	0.0000		9999	1050	0	0	0
2016/11/22 00:28:00	BASE	2.43	329	3.04	321	-1.2	87	-3.0	37	103	999.1	NA	0.0000		9999	1050	0	0	0
2016/11/22 00:29:00	BASE	2.05	311	3.04	321	-1.2	87	-3.1	43	111	999.1	NA	0.0000		9999	1050	0	0	0
2016/11/22 00:30:00	BASE	2.24	304	3.04	321	-1.2	87	-3.1	53	125	999.1	NA	0.0000		9999	980	0	0	0
2016/11/22 00:31:00	BASE	2.43	291	3.04	321	-1.1	87	-3.1	49	120	999.1	NA	0.0000		9999	980	0	0	0
2016/11/22 00:32:00	BASE	1.86	300	3.04	321	-1.1	87	-3.1	52	124	999.1	NA	0.0000		9999	980	0	0	0
2016/11/22 00:33:00	BASE	1.82	309	3.40	280	-1.1	87	-3.1	61	136	999.1	NA	0.0000		9999	980	0	0	0
2016/11/22 00:34:00	BASE	2.75	299	4.22	284	-1.2	87	-3.1	62	136	999.1	NA	0.0000		9999	1050	0	0	0
2016/11/22 00:35:00	BASE	2.69	292	4.22	284	-1.2	87	-3.1	62	134	999.1	NA	0.0000		9999	1050	0	0	0
2016/11/22 00:36:00	BASE	1.90	285	4.22	284	-1.2	87	-3.1	58	128	999.1	NA	0.0000		9999	1020	0	0	0
2016/11/22 00:37:00	BASE	1.73	300	4.22	284	-1.2	87	-3.1	54	120	999.1	NA	0.0000		9999	1020	0	0	0
2016/11/22 00:38:00	BASE	1.69	323	4.22	284	-1.2	87	-3.1	52	116	999.1	NA	0.0000		9999	1020	0	0	0
2016/11/22 00:39:00	BASE	2.01	326	4.22	284	-1.3	87	-3.1	49	111	999.1	NA	0.0000		9999	1050	0	0	0
2016/11/22 00:40:00	BASE	2.35	325	4.22	284	-1.3	87	-3.1	47	106	999.1	NA	0.0000		9999	980	0	0	0
2016/11/22 00:41:00	BASE	2.62	319	4.22	284	-1.3	87	-3.1	47	104	999.1	NA	0.0000		9999	1020	0	0	0
2016/11/22 00:42:00	BASE	2.29	303	4.22	284	-1.3	87	-3.1	48	105	999.1	NA	0.0000		9999	1050	0	0	0
2016/11/22 00:43:00	BASE	1.51	302	4.22	284	-1.3	87	-3.1	52	109	999.1	NA	0.0000		9999	1050	0	0	0
2016/11/22 00:44:00	BASE	1.52	311	3.45	307	-1.3	87	-3.1	54	110	999.2	NA	0.0000		9999	1020	0	0	0
2016/11/22 00:45:00	BASE	1.81	318	3.45	307	-1.2	87	-3.1	52	107	999.2	NA	0.0000		9999	1050	0	0	0
2016/11/22 00:46:00	BASE	1.62	326	3.45	307	-1.3	87	-3.1	52	105	999.2	NA	0.0000		9999	1020	0	0	0
2016/11/22 00:47:00	BASE	1.34	327	3.45	307	-1.3	87	-3.1	52	105	999.2	NA	0.0000		9999	950	0	0	0
2016/11/22 00:48:00	BASE	1.86	319	3.45	307	-1.3	87	-3.1	52	104	999.2	NA	0.0000		9999	980	0	0	0
2016/11/22 00:49:00	BASE	2.52	314	3.45	307	-1.3	87	-3.1	51	100	999.2	NA	0.0000		9999	1020	0	0	0
2016/11/22 00:50:00	BASE	2.38	308	3.45	307	-1.3	87	-3.2	47	94	999.2	NA	0.0000		9999	1080	0	0	0
2016/11/22 00:51:00	BASE	1.89	307	3.09	309	-1.3	87	-3.2	44	89	999.1	NA	0.0000		9999	1020	0	0	0
2016/11/22 00:52:00	BASE	1.90	314	3.09	309	-1.3	87	-3.2	39	82	999.1	NA	0.0000		9999	980	0	0	0
2016/11/22 00:53:00	BASE	2.25	322	3.19	323	-1.4	87	-3.2	36	77	999.1	NA	0.0000		9999	950	0	0	0
2016/11/22 00:54:00	BASE	2.79	325	3.65	318	-1.4	87	-3.2	34	73	999.1	NA	0.0000		9999	950	0	0	0
2016/11/22 00:55:00	BASE	2.81	326	3.65	318	-1.4	87	-3.2	31	68	999.1	NA	0.0000		9999	920	0	0	0
2016/11/22 00:56:00	BASE	2.40	329	3.65	318	-1.3	88	-3.1	30	66	999.1	NA	0.0000		9999	950	0	0	0
2016/11/22 00:57:00	BASE	2.36	326	3.65	318	-1.3	88	-3.0	32	67	999.1	NA	0.0000		9999	920	0	0	0
2016/11/22 00:58:00	BASE	2.62	325	3.65	318	-1.3	88	-3.0	31	65	999.1	NA	0.0000		9999	980	0	0	0
2016/11/22 00:59:00	BASE	2.77	326	3.65	318	-1.3	88	-3.0	30	63	999.1	NA	0.0000		9999	920	0	0	0
2016/11/22 01:00:00	BASE	2.56	321	3.65	318	-1.3	88	-3.0	31	63	999.1	NA	0.0000		9999	950	0	0	0
2016/11/22 01:01:00	BASE	2.57	313	3.65	318	-1.3	88	-3.0	29	60	999.1	NA	0.0000		9999	920	0	0	0
2016/11/22 01:02:00	BASE	2.85	307	3.65	318	-1.3	88	-3.1	28	58	999.1	NA	0.0000		9999	1020	0	0	0
2016/11/22 01:03:00	BASE	2.41	308	3.65	318	-1.3	88	-3.1	28	57	999.1	NA	0.0000		9999	1020	0	0	0
2016/11/22 01:04:00	BASE	1.91	315	3.60	326	-1.4	88	-3.1	27	55	999.1	NA	0.0000		9999	980	0	0	0
2016/11/22 01:05:00	BASE	1.85	322	3.60	326	-1.3	88	-3.1	26	53	999.1	NA	0.0000		9999	1080	0	0	0
2016/11/22 01:06:00	BASE	1.90	331	3.60	326	-1.4	88	-3.1	23	48	999.1	NA	0.0000		9999	920	0	0	0
2016/11/22 01:07:00	BASE	2.37	328	3.60	326	-1.3	88	-3.1	20	44	999.1	NA	0.0000		9999	920	0	0	0
2016/11/22 01:08:00	BASE	2.18	327	3.40	310	-1.3	88	-3.1	18	41	999.1	NA	0.0000		9999	920	0	0	0
2016/11/22 01:09:00	BASE	1.76	345	3.40	310	-1.3	88	-3.1	17	39	999.1	NA	0.0000		9999	950	0	0	0
2016/11/22 01:10:00	BASE	2.17	344	3.40	310	-1.3	88	-3.1	18	39	999.1	NA	0.0000		9999	920	0	0	0
2016/11/22 01:11:00	BASE	2.62	331	3.40	310	-1.3	88	-3.1	18	38	999.1	NA	0.0000		9999	950	0	0	0
2016/11/22 01:12:00	BASE	2.59	322	3.24	298	-1.4	88	-3.1	18	38	999.1	NA	0.0000		9999	890	0	0	0
2016/11/22 01:13:00	BASE	2.11	318	3.24	298	-1.4	88	-3.1	19	39	999.1	NA	0.0000		9999	950	0	0	0
2016/11/22 01:14:00	BASE	2.04	320	3.24	298	-1.4	88	-3.1	20	38	999.1	NA	0.0000		9999	950	0	0	0
2016/11/22 01:15:00	BASE	2.19	318	3.24	298	-1.4	88	-3.1	18	36	999.1	NA	0.0000		9999	950	0	0	0
2016/11/22 01:16:00	BASE	2.30	319	3.24	298	-1.4	88	-3.0	15	33	999.1	NA	0.0000		9999	1050	0	0	0
2016/11/22 01:17:00	BASE	2.53	315	3.24	298	-1.4	88	-3.0	12	30	999.2	NA	0.0000		9999	980	0	0	0
2016/11/22 01:18:00	BASE	2.61	306	3.24	298	-1.4	88	-3.1	12	29	999.2	NA	0.0000		9999	920	0	0	0
2016/11/22 01:19:00	BASE	2.60	307	3.24	298	-1.4	88	-3.1	13	29	999.2	NA	0.0000		9999	950	0	0	0
2016/11/22 01:20:00	BASE	2.46	319	3.24	298	-1.4	88	-3.1	14	29	999.2	NA	0.0000		9999	950	0	0	0
2016/11/22 01:21:00	BASE	2.28	313	3.24	298	-1.4	88	-3.1	13	28	999.2	NA	0.0000		9999	920	0	0	0
2016/11/22 01:22:00	BASE	1.93	304	3.24	298	-1.4	88	-3.1	11	26	999.2	NA	0.0000		9999	980	0	0	0
2016/11/22 01:23:00	BASE	2.02	309	3.24	298	-1.4	88	-3.1	9	24	999.2	NA	0.0000		9999	920	0	0	0
2016/11/22 01:24:00	BASE	1.96	310	3.24	298	-1.4	88	-3.1	9	23	999.2	NA	0.0000		9999	920	0	0	0
2016/11/22 01:25:00	BASE	1.54	296	3.24	298	-1.4	88	-3.1	9	23	999.3	NA	0.0000		9999	920	0	0	0
2016/11/22 01:26:00	BASE	1.68	294	3.24	298	-1.4	88	-3.2	9	22	999.4	NA	0.0000		9999	920	0	0	0
2016/11/22 01:27:00	BASE	1.95	308	3.09	307	-1.5	88	-3.2	8	21	999.3	NA	0.0000		9999	890	0	0	0
2016/11/22 01:28:00	BASE	2.05	302	3.04	319	-1.4	88	-3.2	8	20	999.3	NA	0.0000		9999	920	0	0	0
2016/11/22 01:29:00	BASE	1.91	311	2.78	293	-1.4	88	-3.2	8	20	999.2	NA	0.0000		9999	890	0	0	0
2016/11/22 01:30:00	BASE	2.51	306	4.06	279	-1.5	88	-3.1	9	21	999.3	NA	0.0000		9999	920	0	0	0
2016/11/22 01:31:00	BASE	2.78	281	4.06	279	-1.4	88	-3.1	9	21	999.4	NA	0.0000		9999	890	0	0	0
2016/11/22 01:32:00	BASE	2.17	276	4.06	279	-1.4	88	-3.1	8	20	999.4	NA	0.0000		9999	890	0	0	0
2016/11/22 01:33:00	BASE	2.47	287	4.12	283	-1.4	88	-3.1	8	19	999.4	NA	0.0000		9999	920	0	0	0
2016/11/22 01:34:00	BASE	2.52	294	4.12	283	-1.4	88	-3.1	7	18	999.4	NA	0.0000		9999	920	0	0	0
2016/11/22 01:35:00	BASE	2.03	295	4.12	283	-1.4	88	-3.1	7	17	999.4	NA	0.0000		9999	890	0	0	0
2016/11/22 01:36:00	BASE	1.75	293	4.12	283	-1.4	88	-3.1	6	16	999.4	NA	0.0000		9999	890	0	0	0
2016/11/22 01:37:00	BASE	2.02	304	4.12	283	-1.4	88	-3.2	6	16	999.4	NA	0.0000		9999	890	1310	0	0
2016/11/22 01:38:00	BASE	2.45	320	4.12	283	-1.4	88	-3.1	5	15	999.4	NA	0.0000		9999	890	0	0	0
2016/11/22 01:39:00	BASE	2.40	309	4.12	283	-1.5	88	-3.2	5	14	999.4	NA	0.0000		9999	890	0	0	0
2016/11/22 01:40:00	BASE	2.06	299	4.12	283	-1.5	88	-3.2	4	14	999.4	NA	0.0000		9999	920	0	0	0
2016/11/22 01:41:00	BASE	2.24	302	4.12	283	-1.5	88	-3.1	4	13	999.4	NA	0.0000		9999	890	0	0	0
2016/11/22 01:42:00	BASE	2.84	300	4.12	283	-1.5	88	-3.2	4	12	999.4	NA	0.0000		9999	890	0	0	0
2016/11/22 01:43:00	BASE	2.54	311	3.86	278	-1.5	88	-3.2	4	12	999.4	NA	0.0000		9999	920	0	0	0
2016/11/22 01:44:00	BASE	2.41	317	3.29	285	-1.5	89	-3.2	3	11	999.4	NA	0.0000		9999	890	0	0	0
2016/11/22 01:45:00	BASE	2.40	308	3.29	285	-1.5	89	-3.1	3	11	999.5	NA	0.0000		9999	850	0	0	0
2016/11/22 01:46:00	BASE	2.34	307	3.29	285	-1.5	89	-3.1	3	11	999.5	NA	0.0000		9999	890	0	0	0
2016/11/22 01:47:00	BASE	2.41	308	3.29	285	-1.5	89	-3.1	3	10	999.5	NA	0.0000		9999	920	0	0	0
2016/11/22 01:48:00	BASE	2.26	311	3.29	285	-1.5	89	-3.0	3	10	999.5	NA	0.0000		9999	850	0	0	0
2016/11/22 01:49:00	BASE	2.47	318	3.55	310	-1.5	89	-3.0	3	9	999.5	NA	0.0000		9999	850	0	0	0
2016/11/22 01:50:00	BASE	2.60	312	3.55	310	-1.5	89	-3.1	3	9	999.5	NA	0.0000		9999	890	0	0	0
2016/11/22 01:51:00	BASE	2.51	292	3.55	310	-1.5	89	-3.1	3	9	999.5	NA	0.0000		9999	820	0	0	0
2016/11/22 01:52:00	BASE	2.53	280	3.55	310	-1.5	89	-3.1	3	8	999.5	NA	0.0000		9999	820	0	0	0
2016/11/22 01:53:00	BASE	2.39	291	3.55	310	-1.5	89	-3.1	2	8	999.5	NA	0.0000		9999	980	0	0	0
2016/11/22 01:54:00	BASE	2.50	307	3.55	310	-1.5	89	-3.1	2	8	999.5	NA	0.0000		9999	1250	0	0	0
2016/11/22 01:55:00	BASE	2.94	311	3.60	301	-1.5	89	-3.1	2	8	999.5	NA	0.0000		9999	850	0	0	0
2016/11/22 01:56:00	BASE	2.87	303	3.60	301	-1.5	89	-3.1	2	7	999.5	NA	0.0000		9999	850	0	0	0
2016/11/22 01:57:00	BASE	2.16	299	3.60	301	-1.5	89	-3.1	2	7	999.5	NA	0.0000		9999	890	1280	0	0
2016/11/22 01:58:00	BASE	1.53	302	3.60	301	-1.5	89	-3.1	2	7	999.5	NA	0.0000		9999	850	1380	0	0
2016/11/22 01:59:00	BASE	1.70	297	3.60	301	-1.5	89	-3.1	2	7	999.5	NA	0.0000		9999	850	1380	0	0
2016/11/22 02:00:00	BASE	1.76	281	3.60	301	-1.5	89	-3.0	2	7	999.5	NA	0.0000		9999	980	0	0	0
2016/11/22 02:01:00	BASE	1.95	273	3.60	301	-1.5	89	-3.0	2	7	999.5	NA	0.0000		9999	920	1380	0	0
2016/11/22 02:02:00	BASE	2.05	277	3.60	301	-1.5	89	-3.1	2	7	999.5	NA	0.0000		9999	950	0	0	0
2016/11/22 02:03:00	BASE	1.83	290	3.60	301	-1.5	89	-3.1	2	7	999.5	NA	0.0000		9999	980	1350	0	0
2016/11/22 02:04:00	BASE	2.00	301	3.60	301	-1.5	89	-3.1	2	7	999.5	NA	0.0000		9999	950	1380	0	0
2016/11/22 02:05:00	BASE	1.82	297	3.24	313	-1.6	89	-3.1	2	7	999.5	NA	0.0000		9999	950	1380	0	0
2016/11/22 02:06:00	BASE	1.72	299	3.09	284	-1.6	89	-3.2	2	6	999.5	NA	0.0000		9999	890	1380	0	0
2016/11/22 02:07:00	BASE	2.19	292	3.09	284	-1.6	89	-3.1	2	6	999.5	NA	0.0000		9999	920	1380	0	0
2016/11/22 02:08:00	BASE	2.41	281	3.09	284	-1.6	89	-3.1	2	6	999.6	NA	0.0000		9999	1380	0	0	0
2016/11/22 02:09:00	BASE	2.08	285	3.09	284	-1.6	90	-3.1	2	6	999.6	NA	0.0000		9999	1380	0	0	0
2016/11/22 02:10:00	BASE	1.99	296	3.09	284	-1.6	90	-3.1	2	6	999.6	NA	0.0000		9999	920	0	0	0
2016/11/22 02:11:00	BASE	2.12	302	2.78	279	-1.6	90	-3.1	2	5	999.6	NA	0.0000		9999	1410	0	0	0
2016/11/22 02:12:00	BASE	2.06	298	2.78	279	-1.7	90	-3.1	2	5	999.6	NA	0.0000		9999	1440	0	0	0
2016/11/22 02:13:00	BASE	2.03	294	2.78	279	-1.7	90	-3.1	2	5	999.6	NA	0.0000		9999	1410	0	0	0
2016/11/22 02:14:00	BASE	2.08	292	2.78	279	-1.7	90	-3.2	2	4	999.6	NA	0.0000		9999	1480	0	0	0
2016/11/22 02:15:00	BASE	1.98	282	2.78	279	-1.8	90	-3.2	2	4	999.6	NA	0.0000		9999	1510	0	0	0
2016/11/22 02:16:00	BASE	1.85	276	2.78	279	-1.8	90	-3.2	2	4	999.6	NA	0.0000		9999	1410	0	0	0
2016/11/22 02:17:00	BASE	1.49	281	2.68	290	-1.8	90	-3.2	2	4	999.6	NA	0.0000		9999	1410	0	0	0
2016/11/22 02:18:00	BASE	1.17	285	2.68	290	-1.8	90	-3.2	1	4	999.6	NA	0.0000		9999	1410	0	0	0
2016/11/22 02:19:00	BASE	1.37	302	2.68	290	-1.8	90	-3.2	1	4	999.6	NA	0.0000		9999	1380	0	0	0
2016/11/22 02:20:00	BASE	1.62	327	2.68	290	-1.8	90	-3.2	1	4	999.6	NA	0.0000		9999	1380	0	0	0
2016/11/22 02:21:00	BASE	1.89	327	2.68	290	-1.8	90	-3.2	1	4	999.6	NA	0.0000		9999	1380	0	0	0
2016/11/22 02:22:00	BASE	2.01	320	2.68	290	-1.7	90	-3.1	1	3	999.6	NA	0.0000		9999	950	1380	0	0
2016/11/22 02:23:00	BASE	2.29	316	2.88	308	-1.7	90	-3.1	1	3	999.7	NA	0.0000		9999	920	0	0	0
2016/11/22 02:24:00	BASE	2.38	310	2.88	308	-1.7	90	-3.1	1	3	999.7	NA	0.0000		9999	1380	0	0	0
2016/11/22 02:25:00	BASE	2.39	310	2.98	302	-1.7	90	-3.1	1	3	999.7	NA	0.0000		9999	820	1380	0	0
2016/11/22 02:26:00	BASE	2.56	304	3.09	298	-1.7	90	-3.2	1	3	999.7	NA	0.0000		9999	980	0	0	0
2016/11/22 02:27:00	BASE	2.40	307	3.09	298	-1.8	90	-3.2	1	3	999.7	NA	0.0000		9999	890	0	0	0
2016/11/22 02:28:00	BASE	2.68	306	3.55	295	-1.8	90	-3.2	1	3	999.7	NA	0.0000		9999	1310	0	0	0
2016/11/22 02:29:00	BASE	2.72	298	3.55	295	-1.8	90	-3.2	1	2	999.7	NA	0.0000		9999	1310	0	0	0
2016/11/22 02:30:00	BASE	2.38	293	3.55	295	-1.8	90	-3.2	1	2	999.7	NA	0.0000		9999	1350	0	0	0
2016/11/22 02:31:00	BASE	2.71	289	3.55	295	-1.8	90	-3.2	1	2	999.7	NA	0.0000		9999	1380	0	0	0
2016/11/22 02:32:00	BASE	2.39	282	3.55	295	-1.8	90	-3.2	1	2	999.7	NA	0.0000		9999	1350	0	0	0
2016/11/22 02:33:00	BASE	2.23	284	3.55	295	-1.8	90	-3.2	1	2	999.7	NA	0.0000		9999	1350	0	0	0
2016/11/22 02:34:00	BASE	2.75	284	3.55	295	-1.8	90	-3.2	1	2	999.7	NA	0.0000		9999	1350	0	0	0
2016/11/22 02:35:00	BASE	2.28	278	3.55	295	-1.8	90	-3.2	1	2	999.7	NA	0.0000		9999	1380	0	0	0
2016/11/22 02:36:00	BASE	2.23	287	3.55	295	-1.8	90	-3.2	1	2	999.7	NA	0.0000		9999	1350	0	0	0
2016/11/22 02:37:00	BASE	2.71	295	3.55	295	-1.8	90	-3.2	1	2	999.7	NA	0.0000		9999	1380	0	0	0
2016/11/22 02:38:00	BASE	2.69	301	3.50	291	-1.8	90	-3.2	1	2	999.7	NA	0.0000		9999	1440	0	0	0
2016/11/22 02:39:00	BASE	2.39	303	3.50	291	-1.8	90	-3.2	1	2	999.7	NA	0.0000		9999	1540	0	0	0
2016/11/22 02:40:00	BASE	2.01	302	3.50	291	-1.8	90	-3.2	1	2	999.7	NA	0.0000		9999	850	1540	0	0
2016/11/22 02:41:00	BASE	2.03	306	3.50	291	-1.8	90	-3.2	1	2	999.7	NA	0.0000		9999	1480	0	0	0
2016/11/22 02:42:00	BASE	1.80	310	3.50	291	-1.8	90	-3.3	1	2	999.7	NA	0.0000		9999	890	1480	0	0
2016/11/22 02:43:00	BASE	1.63	319	3.50	291	-1.9	90	-3.3	1	2	999.7	NA	0.0000		9999	820	1480	0	0
2016/11/22 02:44:00	BASE	2.08	327	3.50	291	-1.9	90	-3.2	1	2	999.7	NA	0.0000		9999	820	0	0	0
2016/11/22 02:45:00	BASE	2.09	320	3.50	291	-1.9	90	-3.2	1	2	999.7	NA	0.0000		9999	750	0	0	0
2016/11/22 02:46:00	BASE	1.86	305	3.50	291	-1.9	91	-3.2	1	2	999.8	NA	0.0000		9999	750	0	0	0
2016/11/22 02:47:00	BASE	1.54	293	2.88	318	-1.9	91	-3.2	1	1	999.8	NA	0.0000		9999	750	1540	0	0
2016/11/22 02:48:00	BASE	1.48	310	2.88	318	-1.9	91	-3.1	1	1	999.8	NA	0.0000		9999	920	0	0	0
2016/11/22 02:49:00	BASE	2.15	324	3.29	306	-1.9	91	-3.1	1	1	999.8	NA	0.0000		9999	790	0	0	0
2016/11/22 02:50:00	BASE	2.55	319	3.29	306	-1.9	91	-3.1	1	1	999.8	NA	0.0000		9999	820	0	0	0
2016/11/22 02:51:00	BASE	2.54	318	3.45	318	-1.9	91	-3.1	1	1	999.8	NA	0.0000		9999	750	0	0	0
2016/11/22 02:52:00	BASE	2.08	302	3.45	318	-1.9	91	-3.1	1	1	999.8	NA	0.0000		9999	790	0	0	0
2016/11/22 02:53:00	BASE	1.92	289	3.45	318	-1.9	91	-3.1	0	1	999.8	NA	0.0000		9999	790	0	0	0
2016/11/22 02:54:00	BASE	2.23	296	3.45	318	-1.9	91	-3.1	0	1	999.8	NA	0.0000		9999	750	0	0	0
2016/11/22 02:55:00	BASE	2.25	302	3.45	318	-1.9	91	-3.1	0	1	999.9	NA	0.0000		9999	750	0	0	0
2016/11/22 02:56:00	BASE	2.25	307	3.45	318	-1.8	91	-3.1	0	1	999.9	NA	0.0000		9999	820	1410	0	0
2016/11/22 02:57:00	BASE	2.31	307	3.45	297	-1.8	91	-3.1	0	1	999.9	NA	0.0000		9999	920	1440	0	0
2016/11/22 02:58:00	BASE	2.26	306	3.45	297	-1.8	91	-3.1	0	1	999.9	NA	0.0000		9999	890	1480	0	0
2016/11/22 02:59:00	BASE	1.90	304	3.45	297	-1.8	91	-3.1	0	1	999.9	NA	0.0000		9999	790	1510	0	0
2016/11/22 03:00:00	BASE	1.75	297	3.45	297	-1.8	91	-3.1	0	1	999.9	NA	0.0000		9999	750	1510	0	0
2016/11/22 03:01:00	BASE	2.02	286	3.45	297	-1.8	91	-3.1	0	1	1000.0	NA	0.0000		9999	820	1440	0	0
2016/11/22 03:02:00	BASE	2.56	279	3.50	274	-1.8	91	-3.1	0	1	1000.0	NA	0.0000		9999	1410	0	0	0
2016/11/22 03:03:00	BASE	2.55	280	3.50	274	-1.9	91	-3.1	0	1	1000.1	NA	0.0000		9999	790	1480	0	0
2016/11/22 03:04:00	BASE	2.05	276	3.50	274	-1.9	91	-3.1	0	1	1000.1	NA	0.0000		9999	750	1540	0	0
2016/11/22 03:05:00	BASE	1.62	275	3.50	274	-1.9	91	-3.1	0	1	1000.1	NA	0.0000		9999	1510	0	0	0
2016/11/22 03:06:00	BASE	1.68	279	3.50	274	-1.9	91	-3.2	0	1	1000.1	NA	0.0000		9999	1570	0	0	0
2016/11/22 03:07:00	BASE	1.80	291	3.50	274	-1.9	91	-3.2	0	1	1000.1	NA	0.0000		9999	1610	0	0	0
2016/11/22 03:08:00	BASE	2.19	307	3.70	307	-1.9	91	-3.2	0	1	1000.1	NA	0.0000		9999	1570	0	0	0
2016/11/22 03:09:00	BASE	2.84	306	3.70	307	-1.9	91	-3.2	0	1	1000.1	NA	0.0000		9999	1410	0	0	0
2016/11/22 03:10:00	BASE	2.51	302	3.70	307	-1.9	91	-3.2	0	0	1000.1	NA	0.0000		9999	1510	0	0	0
2016/11/22 03:11:00	BASE	2.18	307	3.70	307	-1.9	91	-3.2	0	0	1000.1	NA	0.0000		9999	1570	0	0	0
2016/11/22 03:12:00	BASE	2.25	304	3.70	307	-1.9	91	-3.2	0	0	1000.1	NA	0.0000		9999	1510	0	0	0
2016/11/22 03:13:00	BASE	2.34	303	3.70	307	-1.9	91	-3.2	0	0	1000.1	NA	0.0000		9999	1540	0	0	0
2016/11/22 03:14:00	BASE	2.53	309	3.70	307	-1.9	91	-3.2	0	0	1000.1	NA	0.0000		9999	1540	0	0	0
2016/11/22 03:15:00	BASE	2.52	316	3.70	307	-1.9	91	-3.1	0	0	1000.1	NA	0.0000		9999	1440	0	0	0
2016/11/22 03:16:00	BASE	2.15	318	3.70	307	-1.9	91	-3.1	0	0	1000.1	NA	0.0000		9999	1540	0	0	0
2016/11/22 03:17:00	BASE	2.07	316	3.70	307	-1.9	91	-3.2	0	0	1000.1	NA	0.0000		9999	1540	0	0	0
2016/11/22 03:18:00	BASE	2.16	319	3.45	300	-1.9	91	-3.1	0	0	1000.1	NA	0.0000		9999	1480	0	0	0
2016/11/22 03:19:00	BASE	2.23	315	3.19	312	-1.9	91	-3.1	0	0	1000.1	NA	0.0000		9999	1510	0	0	0
2016/11/22 03:20:00	BASE	2.02	302	3.19	312	-1.8	91	-3.1	0	0	1000.1	NA	0.0000		9999	1510	0	0	0
2016/11/22 03:21:00	BASE	1.81	307	3.19	312	-1.8	91	-3.1	0	0	1000.1	NA	0.0000		9999	1410	0	0	0
2016/11/22 03:22:00	BASE	1.98	315	3.19	312	-1.8	91	-3.1	0	0	1000.1	NA	0.0000		9999	1410	0	0	0
2016/11/22 03:23:00	BASE	1.91	326	3.19	312	-1.9	91	-3.1	0	0	1000.1	NA	0.0000		9999	820	1380	0	0
2016/11/22 03:24:00	BASE	1.99	331	3.19	312	-1.9	91	-3.1	0	0	1000.1	NA	0.0000		9999	820	1410	0	0
2016/11/22 03:25:00	BASE	2.21	328	2.98	321	-1.9	91	-3.1	0	0	1000.2	NA	0.0000		9999	850	1510	0	0
2016/11/22 03:26:00	BASE	2.46	333	3.34	329	-1.8	91	-3.1	0	0	1000.2	NA	0.0000		9999	790	1480	0	0
2016/11/22 03:27:00	BASE	2.28	333	3.34	329	-1.8	91	-3.1	0	0	1000.2	NA	0.0000		9999	820	1540	0	0
2016/11/22 03:28:00	BASE	1.95	331	3.34	329	-1.8	91	-3.1	0	0	1000.2	NA	0.0000		9999	820	1480	0	0
2016/11/22 03:29:00	BASE	2.11	332	3.34	329	-1.8	91	-3.0	0	0	1000.2	NA	0.0000		9999	820	1510	0	0
2016/11/22 03:30:00	BASE	2.12	325	3.34	329	-1.7	91	-3.0	0	0	1000.2	NA	0.0000		9999	1480	0	0	0
2016/11/22 03:31:00	BASE	1.64	319	3.34	329	-1.7	91	-3.0	0	0	1000.2	NA	0.0000		9999	1440	0	0	0
2016/11/22 03:32:00	BASE	1.68	325	3.34	329	-1.7	91	-2.9	0	0	1000.2	NA	0.0000		9999	790	1480	0	0
2016/11/22 03:33:00	BASE	1.95	315	3.34	329	-1.7	91	-3.0	0	0	1000.2	NA	0.0000		9999	1480	0	0	0
2016/11/22 03:34:00	BASE	0.92	320	3.34	329	-1.8	91	-3.0	0	0	1000.2	NA	0.0000		9999	790	1440	0	0
2016/11/22 03:35:00	BASE	0.57	335	3.34	329	-1.8	91	-3.0	0	0	1000.2	NA	0.0000		9999	750	1510	0	0
2016/11/22 03:36:00	BASE	1.40	335	2.78	336	-1.8	91	-3.0	0	0	1000.2	NA	0.0000		9999	750	1540	0	0
2016/11/22 03:37:00	BASE	1.92	334	2.88	313	-1.8	91	-3.1	0	0	1000.2	NA	0.0000		9999	720	0	0	0
2016/11/22 03:38:00	BASE	1.94	329	2.88	313	-1.8	91	-3.1	0	0	1000.2	NA	0.0000		9999	720	1640	0	0
2016/11/22 03:39:00	BASE	1.47	325	2.88	313	-1.8	91	-3.1	0	0	1000.2	NA	0.0000		9999	720	1570	0	0
2016/11/22 03:40:00	BASE	0.77	324	2.88	313	-1.8	91	-3.1	0	0	1000.2	NA	0.0000		9999	720	1480	0	0
2016/11/22 03:41:00	BASE	0.78	333	2.88	313	-1.8	91	-3.1	0	0	1000.3	NA	0.0000		9999	720	1540	0	0
2016/11/22 03:42:00	BASE	1.53	319	2.88	313	-1.8	91	-3.1	0	0	1000.3	NA	0.0000		9999	690	0	0	0
2016/11/22 03:43:00	BASE	1.76	307	2.88	313	-1.8	91	-3.1	0	0	1000.3	NA	0.0000		9999	720	0	0	0
2016/11/22 03:44:00	BASE	1.70	315	2.88	313	-1.8	91	-3.0	0	0	1000.3	NA	0.0000		9999	750	0	0	0
2016/11/22 03:45:00	BASE	1.60	316	2.88	313	-1.8	91	-3.0	0	0	1000.3	NA	0.0000		9999	720	0	0	0
2016/11/22 03:46:00	BASE	1.64	323	2.88	313	-1.8	91	-3.0	0	0	1000.3	NA	0.0000		9999	720	0	0	0
2016/11/22 03:47:00	BASE	1.83	302	2.42	284	-1.8	91	-3.0	0	0	1000.3	NA	0.0000		9999	790	1510	0	0
2016/11/22 03:48:00	BASE	1.45	298	2.42	284	-1.8	91	-3.0	0	0	1000.3	NA	0.0000		9999	750	0	0	0
2016/11/22 03:49:00	BASE	1.28	335	2.42	284	-1.8	91	-3.0	0	0	1000.3	NA	0.0000		9999	720	1440	0	0
2016/11/22 03:50:00	BASE	1.68	338	2.42	284	-1.8	91	-3.0	0	0	1000.3	NA	0.0000		9999	690	1610	0	0
2016/11/22 03:51:00	BASE	1.36	345	2.42	284	-1.8	91	-3.1	0	0	1000.3	NA	0.0000		9999	750	0	0	0
2016/11/22 03:52:00	BASE	1.33	347	2.42	284	-1.8	91	-3.1	0	0	1000.3	NA	0.0000		9999	720	1610	0	0
2016/11/22 03:53:00	BASE	1.68	331	2.42	284	-1.8	91	-3.0	0	0	1000.4	NA	0.0000		9999	720	1510	0	0
2016/11/22 03:54:00	BASE	1.71	326	2.42	284	-1.8	91	-3.0	0	0	1000.4	NA	0.0000		9999	720	1540	0	0
2016/11/22 03:55:00	BASE	1.90	324	2.42	284	-1.8	92	-3.0	0	0	1000.4	NA	0.0000		9999	720	0	0	0
2016/11/22 03:56:00	BASE	1.74	298	2.42	284	-1.8	92	-2.9	0	0	1000.4	NA	0.0000		9999	720	0	0	0
2016/11/22 03:57:00	BASE	1.06	287	2.31	321	-1.8	92	-2.9	0	0	1000.4	NA	0.0000		9999	750	0	0	0
2016/11/22 03:58:00	BASE	0.68	307	2.31	321	-1.7	92	-2.9	0	0	1000.4	NA	0.0000		9999	720	0	0	0
2016/11/22 03:59:00	BASE	0.53	302	2.31	321	-1.7	92	-2.9	0	0	1000.4	NA	0.0000		9999	720	1610	0	0
2016/11/22 04:00:00	BASE	1.05	296	2.31	321	-1.7	92	-2.9	0	0	1000.4	NA	0.0000		9999	750	1380	0	0
2016/11/22 04:01:00	BASE	1.57	300	2.31	321	-1.7	92	-2.8	0	0	1000.4	NA	0.0000		9999	720	1440	0	0
2016/11/22 04:02:00	BASE	1.43	302	2.31	321	-1.7	92	-2.8	0	0	1000.5	NA	0.0000		9999	750	1480	0	0
2016/11/22 04:03:00	BASE	1.81	298	2.47	299	-1.7	92	-2.8	0	0	1000.5	NA	0.0000		9999	850	0	0	0
2016/11/22 04:04:00	BASE	2.22	296	2.57	302	-1.6	92	-2.8	0	0	1000.5	NA	0.0000		9999	1080	1640	0	0
2016/11/22 04:05:00	BASE	2.14	309	2.57	302	-1.6	92	-2.8	0	0	1000.5	NA	0.0000		9999	850	1440	0	0
2016/11/22 04:06:00	BASE	1.93	306	2.57	302	-1.6	92	-2.7	0	0	1000.5	NA	0.0000		9999	1440	0	0	0
2016/11/22 04:07:00	BASE	2.10	286	2.62	283	-1.6	92	-2.7	0	0	1000.5	NA	0.0000		9999	1440	0	0	0
2016/11/22 04:08:00	BASE	2.42	277	2.93	282	-1.6	92	-2.8	0	0	1000.5	NA	0.0000		9999	950	1410	0	0
2016/11/22 04:09:00	BASE	2.30	280	2.93	282	-1.6	92	-2.8	0	0	1000.5	NA	0.0000		9999	820	1440	0	0
2016/11/22 04:10:00	BASE	2.47	280	3.09	269	-1.6	92	-2.8	0	0	1000.5	NA	0.0000		9999	750	1480	0	0
2016/11/22 04:11:00	BASE	2.53	283	3.09	269	-1.6	92	-2.8	0	0	1000.6	NA	0.0000		9999	750	1280	0	0
2016/11/22 04:12:00	BASE	1.98	287	3.09	269	-1.7	92	-2.8	0	0	1000.6	NA	0.0000		9999	790	1480	0	0
2016/11/22 04:13:00	BASE	1.91	290	3.09	269	-1.7	92	-2.8	0	0	1000.6	NA	0.0000		9999	850	1380	0	0
2016/11/22 04:14:00	BASE	2.01	295	3.09	269	-1.6	92	-2.8	0	0	1000.6	NA	0.0000		9999	750	0	0	0
2016/11/22 04:15:00	BASE	1.84	288	3.09	269	-1.6	92	-2.8	0	0	1000.6	NA	0.0000		9999	690	1540	0	0
2016/11/22 04:16:00	BASE	1.88	279	3.09	269	-1.6	92	-2.8	0	0	1000.6	NA	0.0000		9999	850	1440	0	0
2016/11/22 04:17:00	BASE	2.28	277	3.09	269	-1.6	92	-2.8	0	0	1000.6	NA	0.0000		9999	750	1480	0	0
2016/11/22 04:18:00	BASE	2.23	279	3.09	269	-1.6	92	-2.8	0	0	1000.6	NA	0.0000		9999	1380	0	0	0
2016/11/22 04:19:00	BASE	1.98	279	3.09	269	-1.6	92	-2.8	0	0	1000.5	NA	0.0000		9999	720	1510	0	0
2016/11/22 04:20:00	BASE	2.00	276	2.68	278	-1.6	92	-2.8	0	0	1000.5	NA	0.0000		9999	1610	0	0	0
2016/11/22 04:21:00	BASE	1.85	265	2.68	278	-1.6	91	-2.9	0	0	1000.5	NA	0.0000		9999	1710	0	0	0
2016/11/22 04:22:00	BASE	1.58	252	2.68	278	-1.7	91	-2.9	0	0	1000.6	NA	0.0000		9999	950	0	0	0
2016/11/22 04:23:00	BASE	1.34	266	2.68	278	-1.7	91	-2.9	0	0	1000.6	NA	0.0000		9999	980	1610	0	0
2016/11/22 04:24:00	BASE	1.76	284	2.68	263	-1.7	91	-2.9	0	0	1000.6	NA	0.0000		9999	890	1510	0	0
2016/11/22 04:25:00	BASE	2.19	282	2.98	298	-1.7	91	-2.9	0	0	1000.5	NA	0.0000		9999	820	1440	0	0
2016/11/22 04:26:00	BASE	1.85	294	2.98	298	-1.6	91	-2.9	0	0	1000.5	NA	0.0000		9999	820	1570	0	0
2016/11/22 04:27:00	BASE	1.69	303	2.98	298	-1.6	91	-2.9	0	0	1000.6	NA	0.0000		9999	820	1540	0	0
2016/11/22 04:28:00	BASE	1.27	299	2.98	298	-1.6	91	-2.9	0	0	1000.6	NA	0.0000		9999	720	1510	0	0
2016/11/22 04:29:00	BASE	1.03	310	2.98	298	-1.6	91	-2.8	0	0	1000.6	NA	0.0000		9999	790	1570	0	0
2016/11/22 04:30:00	BASE	0.88	319	2.98	298	-1.6	91	-2.9	0	0	1000.6	NA	0.0000		9999	790	1410	0	0
2016/11/22 04:31:00	BASE	0.98	306	2.98	298	-1.6	91	-2.9	0	0	1000.6	NA	0.0000		9999	720	1540	0	0
2016/11/22 04:32:01	BASE	1.58	298	2.98	298	-1.6	91	-2.8	0	0	1000.6	NA	0.0000		9999	790	1540	0	0
2016/11/22 04:33:01	BASE	1.33	285	2.98	298	-1.6	91	-2.9	0	0	1000.6	NA	0.0000		9999	890	1410	0	0
2016/11/22 04:34:01	BASE	1.12	278	2.98	298	-1.6	91	-2.8	0	0	1000.6	NA	0.0000		9999	1410	0	0	0
2016/11/22 04:35:01	BASE	1.13	290	2.21	280	-1.6	91	-2.9	0	0	1000.6	NA	0.0000		9999	920	1510	0	0
2016/11/22 04:36:01	BASE	0.87	305	2.21	280	-1.6	91	-2.9	0	0	1000.6	NA	0.0000		9999	850	1210	0	0
2016/11/22 04:37:01	BASE	0.78	314	2.06	338	-1.6	91	-2.9	0	0	1000.6	NA	0.0000		9999	890	0	0	0
2016/11/22 04:38:01	BASE	1.23	296	2.06	338	-1.6	91	-2.8	0	0	1000.7	NA	0.0000		9999	850	1540	0	0
2016/11/22 04:39:01	BASE	1.39	280	2.01	292	-1.6	91	-2.9	0	0	1000.7	NA	0.0000		9999	750	1570	0	0
2016/11/22 04:40:01	BASE	1.26	283	2.01	292	-1.6	91	-2.9	0	0	1000.7	NA	0.0000		9999	750	1350	0	0
2016/11/22 04:41:01	BASE	1.58	292	2.01	292	-1.6	91	-2.9	0	0	1000.7	NA	0.0000		9999	820	0	0	0
2016/11/22 04:42:01	BASE	1.71	300	1.90	298	-1.7	91	-2.9	0	0	1000.7	NA	0.0000		9999	1570	0	0	0
2016/11/22 04:43:01	BASE	1.57	304	1.90	298	-1.7	91	-2.9	0	0	1000.7	NA	0.0000		9999	1410	0	0	0
2016/11/22 04:44:01	BASE	1.53	300	2.06	296	-1.6	91	-2.9	0	0	1000.7	NA	0.0000		9999	1380	0	0	0
2016/11/22 04:45:01	BASE	1.35	295	2.06	296	-1.7	91	-2.9	0	0	1000.7	NA	0.0000		9999	850	1570	0	0
2016/11/22 04:46:01	BASE	1.22	296	2.06	296	-1.7	91	-3.0	0	0	1000.7	NA	0.0000		9999	850	1570	0	0
2016/11/22 04:47:01	BASE	0.69	298	2.06	296	-1.7	91	-3.0	0	0	1000.7	NA	0.0000		9999	1440	0	0	0
2016/11/22 04:48:01	BASE	0.14	297	2.06	296	-1.7	91	-3.0	0	0	1000.7	NA	0.0000		9999	820	1570	0	0
2016/11/22 04:49:01	BASE	0.44	293	2.06	296	-1.7	91	-3.0	0	0	1000.7	NA	0.0000		9999	1610	0	0	0
2016/11/22 04:50:01	BASE	0.95	291	2.06	296	-1.8	91	-3.0	0	0	1000.7	NA	0.0000		9999	1510	0	0	0
2016/11/22 04:51:01	BASE	1.08	292	2.06	296	-1.7	91	-3.0	0	0	1000.7	NA	0.0000		9999	1440	0	0	0
2016/11/22 04:52:01	BASE	0.90	297	2.06	296	-1.7	91	-3.0	0	0	1000.7	NA	0.0000		9999	1640	0	0	0
2016/11/22 04:53:01	BASE	1.18	307	2.06	296	-1.7	91	-3.0	0	0	1000.7	NA	0.0000		9999	1480	0	0	0
2016/11/22 04:54:01	BASE	1.13	319	1.75	308	-1.7	91	-3.0	0	0	1000.7	NA	0.0000		9999	920	1350	0	0
2016/11/22 04:55:01	BASE	0.45	331	1.75	308	-1.7	91	-3.0	0	0	1000.7	NA	0.0000		9999	820	1640	0	0
2016/11/22 04:56:01	BASE	0.64	323	1.75	308	-1.7	91	-3.0	0	0	1000.7	NA	0.0000		9999	790	0	0	0
2016/11/22 04:57:01	BASE	0.74	311	1.75	308	-1.7	91	-3.0	0	0	1000.7	NA	0.0000		9999	750	0	0	0
2016/11/22 04:58:01	BASE	0.42	306	1.75	308	-1.7	91	-3.0	0	0	1000.8	NA	0.0000		9999	790	1540	0	0
2016/11/22 04:59:01	BASE	0.43	299	1.75	308	-1.7	91	-3.0	0	0	1000.7	NA	0.0000		9999	820	1570	0	0
2016/11/22 05:00:01	BASE	0.74	308	1.75	308	-1.6	91	-2.9	0	0	1000.7	NA	0.0000		9999	1510	0	0	0
2016/11/22 05:01:01	BASE	0.63	331	1.75	308	-1.6	91	-2.9	0	0	1000.7	NA	0.0000		9999	1480	0	0	0
2016/11/22 05:02:01	BASE	0.34	336	1.75	308	-1.6	91	-2.9	0	0	1000.7	NA	0.0000		9999	1540	0	0	0
2016/11/22 05:03:01	BASE	0.25	326	1.59	314	-1.6	91	-2.9	0	0	1000.7	NA	0.0000		9999	850	1440	0	0
2016/11/22 05:04:01	BASE	0.00	320	1.54	308	-1.7	91	-2.9	0	0	1000.6	NA	0.0000		9999	820	1540	0	0
2016/11/22 05:05:01	BASE	0.00	310	1.54	308	-1.7	91	-2.9	0	1	1000.6	NA	0.0000		9999	820	1440	0	0
2016/11/22 05:06:01	BASE	0.00	315	1.44	299	-1.7	91	-2.9	0	1	1000.6	NA	0.0000		9999	1380	0	0	0
2016/11/22 05:07:01	BASE	0.00	354	1.44	299	-1.6	91	-2.9	0	1	1000.6	NA	0.0000		9999	850	1510	0	0
2016/11/22 05:08:01	BASE	0.00	13	1.44	299	-1.6	91	-2.9	0	1	1000.6	NA	0.0000		9999	820	1510	0	0
2016/11/22 05:09:01	BASE	0.00	3	1.44	299	-1.6	91	-2.9	0	1	1000.6	NA	0.0000		9999	920	1670	0	0
2016/11/22 05:10:01	BASE	0.00	332	1.39	346	-1.6	91	-2.9	0	1	1000.7	NA	0.0000		9999	850	0	0	0
2016/11/22 05:11:01	BASE	0.32	307	1.39	346	-1.6	91	-2.9	0	1	1000.7	NA	0.0000		9999	790	0	0	0
2016/11/22 05:12:01	BASE	0.60	299	1.29	289	-1.6	91	-2.9	0	1	1000.7	NA	0.0000		9999	750	0	0	0
2016/11/22 05:13:01	BASE	0.85	288	1.39	280	-1.6	91	-2.9	0	1	1000.7	NA	0.0000		9999	750	0	0	0
2016/11/22 05:14:01	BASE	1.15	286	1.39	280	-1.6	91	-2.9	0	1	1000.7	NA	0.0000		9999	750	0	0	0
2016/11/22 05:15:01	BASE	0.86	290	1.39	280	-1.6	91	-2.9	0	1	1000.7	NA	0.0000		9999	850	1540	0	0
2016/11/22 05:16:01	BASE	0.28	296	1.39	280	-1.7	91	-3.0	0	1	1000.7	NA	0.0000		9999	820	1670	0	0
2016/11/22 05:17:01	BASE	0.09	291	1.39	280	-1.7	91	-3.0	0	1	1000.7	NA	0.0000		9999	750	1740	0	0
2016/11/22 05:18:01	BASE	0.62	279	1.54	280	-1.7	91	-3.0	0	1	1000.7	NA	0.0000		9999	750	0	0	0
2016/11/22 05:19:01	BASE	1.19	277	1.70	278	-1.7	91	-3.0	0	1	1000.7	NA	0.0000		9999	890	0	0	0
2016/11/22 05:20:01	BASE	1.29	279	1.70	278	-1.7	91	-2.9	0	1	1000.7	NA	0.0000		9999	890	0	0	0
2016/11/22 05:21:01	BASE	1.16	284	1.70	278	-1.6	91	-2.9	0	1	1000.7	NA	0.0000		9999	820	0	0	0
2016/11/22 05:22:01	BASE	0.64	285	1.70	278	-1.6	91	-2.9	0	1	1000.7	NA	0.0000		9999	820	0	0	0
2016/11/22 05:23:01	BASE	0.20	285	1.70	278	-1.6	91	-2.9	0	1	1000.7	NA	0.0000		9999	850	1610	0	0
2016/11/22 05:24:01	BASE	0.43	291	1.70	278	-1.7	91	-3.0	1	1	1000.7	NA	0.0000		9999	850	1640	0	0
2016/11/22 05:25:01	BASE	0.39	293	1.70	278	-1.7	91	-3.0	0	1	1000.8	NA	0.0000		9999	790	1670	0	0
2016/11/22 05:26:01	BASE	0.31	299	1.70	278	-1.7	91	-3.0	0	1	1000.7	NA	0.0000		9999	890	1710	0	0
2016/11/22 05:27:01	BASE	0.31	312	1.70	278	-1.7	91	-3.0	1	1	1000.8	NA	0.0000		9999	820	0	0	0
2016/11/22 05:28:01	BASE	0.55	323	1.75	322	-1.7	91	-3.0	1	1	1000.8	NA	0.0000		9999	790	0	0	0
2016/11/22 05:29:01	BASE	1.10	308	1.90	289	-1.7	91	-3.0	1	1	1000.8	NA	0.0000		9999	820	0	0	0
2016/11/22 05:30:01	BASE	1.43	281	2.16	274	-1.7	91	-3.0	1	1	1000.8	NA	0.0000		9999	790	1250	0	0
2016/11/22 05:31:01	BASE	1.14	270	2.16	274	-1.7	90	-3.1	1	1	1000.8	NA	0.0000		9999	950	0	0	0
2016/11/22 05:32:01	BASE	0.31	261	2.16	274	-1.7	91	-3.0	1	1	1000.8	NA	0.0000		9999	890	0	0	0
2016/11/22 05:33:01	BASE	0.28	271	2.16	274	-1.7	91	-3.0	1	1	1000.8	NA	0.0000		9999	850	0	0	0
2016/11/22 05:34:01	BASE	0.79	291	2.16	274	-1.7	90	-3.1	1	2	1000.8	NA	0.0000		9999	820	1540	0	0
2016/11/22 05:35:01	BASE	1.18	297	2.16	274	-1.7	91	-3.1	1	2	1000.8	NA	0.0000		9999	790	0	0	0
2016/11/22 05:36:01	BASE	1.68	288	2.78	268	-1.7	91	-3.0	1	2	1000.8	NA	0.0000		9999	790	0	0	0
2016/11/22 05:37:01	BASE	2.38	265	3.09	247	-1.7	91	-3.0	1	2	1000.7	NA	0.0000		9999	720	0	0	0
2016/11/22 05:38:01	BASE	2.42	249	3.09	247	-1.7	91	-3.0	1	2	1000.7	NA	0.0000		9999	720	0	0	0
2016/11/22 05:39:01	BASE	2.23	235	3.09	247	-1.7	91	-3.0	1	2	1000.7	NA	0.0000		9999	820	1410	0	0
2016/11/22 05:40:00	BASE	2.34	218	3.09	247	-1.8	91	-3.1	1	2	1000.7	NA	0.0000		9999	1410	0	0	0
2016/11/22 05:41:00	BASE	1.98	207	3.09	247	-1.8	91	-3.1	1	2	1000.6	NA	0.0000		9999	1350	0	0	0
2016/11/22 05:42:00	BASE	1.56	209	3.09	247	-1.8	91	-3.1	1	2	1000.5	NA	0.0000		9999	850	1410	0	0
2016/11/22 05:43:00	BASE	1.62	233	3.09	247	-1.8	91	-3.1	1	3	1000.5	NA	0.0000		9999	820	0	0	0
2016/11/22 05:44:00	BASE	1.18	257	3.09	247	-1.8	91	-3.1	1	3	1000.6	NA	0.0000		9999	790	1510	0	0
2016/11/22 05:45:00	BASE	M	M	3.09	247	-1.8	91	-3.1	1	3	M	NA	0.0000		M	720	0	0	0
2016/11/22 05:46:00	BASE	M	M	3.09	247	-1.8	91	-3.1	1	3	1000.7	NA	0.0000		9999	750	0	0	0
2016/11/22 05:47:00	BASE	1.41	208	2.62	204	-1.8	91	-3.1	1	3	1000.7	NA	0.0000		9999	750	1440	0	0
2016/11/22 05:48:00	BASE	1.16	219	2.62	204	-1.8	91	-3.1	1	3	1000.7	NA	0.0000		9999	750	1380	0	0
2016/11/22 05:49:00	BASE	0.81	223	2.62	204	-1.8	91	-3.1	1	3	1000.7	NA	0.0000		9999	750	0	0	0
2016/11/22 05:51:01	BASE	0.39	211	2.06	252	-1.8	91	-3.1	1	3	1000.7	NA	0.0000		9999	1050	1540	0	0
2016/11/22 05:52:01	BASE	M	M	2.06	252	-1.8	91	-3.1	1	3	M	NA	0.0000		M	1050	1540	0	0
2016/11/22 05:53:00	BASE	M	M	M	M	-1.8	91	-3.1	1	4	M	NA	0.0000		M	1410	0	0	0
2016/11/22 05:54:00	BASE	M	M	M	M	-1.8	91	-3.1	1	4	1000.7	NA	0.0000		9999	1180	0	0	0
2016/11/22 05:55:00	BASE	0.62	227	M	M	-1.8	91	-3.1	1	4	1000.7	NA	0.0000		9999	920	1410	0	0
2016/11/22 05:56:00	BASE	0.00	234	2.01	210	-1.8	91	-3.1	1	4	1000.7	NA	0.0000		9999	1410	0	0	0
2016/11/22 05:57:00	BASE	0.00	263	1.65	201	-1.8	91	-3.0	1	4	1000.7	NA	0.0000		9999	1380	0	0	0
2016/11/22 05:58:00	BASE	0.00	272	1.59	226	-1.8	91	-3.0	1	4	1000.7	NA	0.0000		9999	820	1380	0	0
2016/11/22 05:59:00	BASE	0.00	268	1.59	226	-1.8	91	-3.0	1	5	1000.7	NA	0.0000		9999	820	0	0	0
2016/11/22 06:00:00	BASE	0.00	273	1.34	226	-1.7	91	-3.0	1	5	1000.7	NA	0.0000		9999	790	0	0	0
2016/11/22 06:01:00	BASE	0.00	259	1.34	226	-1.7	91	-3.0	1	5	1000.7	NA	0.0000		9999	750	0	0	0
2016/11/22 06:02:00	BASE	0.04	249	1.34	226	-1.7	91	-3.0	2	5	1000.7	NA	0.0000		9999	720	0	0	0
2016/11/22 06:03:00	BASE	0.72	239	1.49	221	-1.7	91	-3.0	2	6	1000.7	NA	0.0000		9999	850	0	0	0
2016/11/22 06:04:00	BASE	0.72	218	1.49	221	-1.8	91	-3.0	2	6	1000.6	NA	0.0000		9999	820	0	0	0
2016/11/22 06:05:00	BASE	0.04	214	1.49	221	-1.8	91	-3.1	2	6	1000.5	NA	0.0000		9999	820	1310	0	0
2016/11/22 06:06:00	BASE	0.39	220	1.49	221	-1.8	91	-3.1	2	6	1000.5	NA	0.0000		9999	1310	0	0	0
2016/11/22 06:07:00	BASE	0.39	226	1.49	221	-1.9	91	-3.2	2	7	1000.5	NA	0.0000		9999	1350	0	0	0
2016/11/22 06:08:00	BASE	0.00	228	1.49	221	-1.9	91	-3.2	2	7	1000.4	NA	0.0000		9999	1350	0	0	0
2016/11/22 06:09:00	BASE	0.31	228	1.65	229	-1.9	91	-3.2	2	7	1000.4	NA	0.0000		9999	1380	0	0	0
2016/11/22 06:10:00	BASE	0.84	224	1.80	214	-1.9	91	-3.2	2	8	1000.4	NA	0.0000		9999	1350	0	0	0
2016/11/22 06:11:00	BASE	1.27	215	1.80	214	-1.9	91	-3.2	2	8	1000.4	NA	0.0000		9999	1310	0	0	0
2016/11/22 06:12:00	BASE	1.01	205	1.80	214	-1.9	91	-3.2	2	8	1000.4	NA	0.0000		9999	1180	0	0	0
2016/11/22 06:13:00	BASE	0.28	202	1.80	214	-1.9	91	-3.2	2	9	1000.4	NA	0.0000		9999	1310	0	0	0
2016/11/22 06:14:00	BASE	0.10	207	1.80	214	-1.9	91	-3.2	3	9	1000.4	NA	0.0000		9999	1350	0	0	0
2016/11/22 06:15:00	BASE	0.49	192	1.80	214	-1.9	91	-3.2	3	9	1000.4	NA	0.0000		9999	1250	0	0	0
2016/11/22 06:16:00	BASE	0.48	183	1.80	214	-1.9	91	-3.2	3	10	1000.4	NA	0.0000		9999	980	0	0	0
2016/11/22 06:17:00	BASE	0.09	204	1.80	214	-1.9	91	-3.2	3	10	1000.3	NA	0.0000		9999	790	1350	0	0
2016/11/22 06:18:00	BASE	0.00	223	1.80	214	-1.9	91	-3.2	3	11	1000.3	NA	0.0000		9999	820	0	0	0
2016/11/22 06:19:00	BASE	0.00	231	1.80	214	-1.9	91	-3.2	3	11	1000.3	NA	0.0000		9999	850	0	0	0
2016/11/22 06:20:00	BASE	0.00	245	1.65	216	-1.9	91	-3.2	3	11	1000.3	NA	0.0000		9999	790	1310	0	0
2016/11/22 06:21:00	BASE	0.00	250	1.29	177	-1.9	91	-3.2	3	12	1000.3	NA	0.0000		9999	790	0	0	0
2016/11/22 06:22:00	BASE	0.05	240	1.29	177	-1.9	91	-3.1	4	13	1000.3	NA	0.0000		9999	820	0	0	0
2016/11/22 06:23:00	BASE	0.05	225	1.29	177	-1.9	91	-3.1	4	13	1000.3	NA	0.0000		9999	820	0	0	0
2016/11/22 06:24:00	BASE	0.00	212	1.29	177	-1.9	91	-3.2	4	14	1000.2	NA	0.0000		9999	790	1410	0	0
2016/11/22 06:25:00	BASE	0.00	207	1.08	237	-1.9	91	-3.1	4	14	1000.2	NA	0.0000		9999	820	0	0	0
2016/11/22 06:26:00	BASE	0.00	206	1.08	237	-1.9	91	-3.1	4	15	1000.2	NA	0.0000		9999	1250	0	0	0
2016/11/22 06:27:00	BASE	0.00	199	1.08	237	-1.9	91	-3.1	5	15	1000.2	NA	0.0000		9999	1310	0	0	0
2016/11/22 06:28:00	BASE	0.05	161	1.08	141	-1.9	91	-3.1	5	16	1000.1	NA	0.0000		9999	1120	0	0	0
2016/11/22 06:29:00	BASE	0.13	144	1.08	153	-1.9	92	-3.1	5	17	1000.1	NA	0.0000		9999	1210	0	0	0
2016/11/22 06:30:00	BASE	0.09	154	1.08	153	-1.9	91	-3.1	5	17	1000.1	NA	0.0000		9999	1210	0	0	0
2016/11/22 06:31:00	BASE	0.18	167	1.08	189	-1.9	91	-3.1	5	18	1000.1	NA	0.0000		9999	1250	0	0	0
2016/11/22 06:32:00	BASE	0.22	179	1.08	184	-1.9	91	-3.2	5	18	1000.1	NA	0.0000		9999	1250	0	0	0
2016/11/22 06:33:00	BASE	0.14	177	1.13	174	-1.9	91	-3.2	6	19	1000.1	NA	0.0000		9999	1280	0	0	0
2016/11/22 06:34:00	BASE	0.09	175	1.13	174	-2.0	91	-3.2	6	20	1000.1	NA	0.0000		9999	1280	0	0	0
2016/11/22 06:35:00	BASE	0.00	183	1.13	174	-2.0	91	-3.2	6	20	1000.1	NA	0.0000		9999	1250	0	0	0
2016/11/22 06:36:00	BASE	0.09	200	1.13	174	-2.0	91	-3.2	6	20	1000.2	NA	0.0000		9999	1250	0	0	0
2016/11/22 06:37:00	BASE	0.26	216	1.13	174	-2.0	92	-3.2	6	20	1000.2	NA	0.0000		9999	1180	0	0	0
2016/11/22 06:38:00	BASE	0.17	222	1.13	174	-2.0	92	-3.1	6	21	1000.2	NA	0.0000		9999	1180	0	0	0
2016/11/22 06:39:00	BASE	0.00	221	1.13	174	-2.0	92	-3.1	6	21	1000.2	NA	0.0000		9999	1250	0	0	0
2016/11/22 06:40:00	BASE	0.00	221	1.13	174	-2.0	92	-3.1	6	22	1000.2	NA	0.0000		9999	1250	0	0	0
2016/11/22 06:41:00	BASE	0.00	221	1.13	174	-2.0	92	-3.1	6	22	1000.2	NA	0.0000		9999	750	0	0	0
2016/11/22 06:42:00	BASE	0.00	221	1.13	174	-2.0	92	-3.1	6	22	1000.2	NA	0.0000		9999	720	0	0	0
2016/11/22 06:43:00	BASE	0.00	209	1.08	220	-2.0	92	-3.1	6	23	1000.2	NA	0.0000		9999	850	0	0	0
2016/11/22 06:44:00	BASE	0.00	195	1.08	220	-2.0	92	-3.1	6	24	1000.2	NA	0.0000		9999	920	1380	0	0
2016/11/22 06:45:00	BASE	0.00	194	1.08	220	-2.0	92	-3.1	7	24	1000.3	NA	0.0000		9999	1180	0	0	0
2016/11/22 06:46:00	BASE	0.00	194	1.03	222	-2.0	92	-3.1	7	25	1000.3	NA	0.0000		9999	1180	0	0	0
2016/11/22 06:47:00	BASE	0.00	194	M	M	-2.0	92	-3.1	7	25	1000.3	NA	0.0000		9999	1250	0	0	0
2016/11/22 06:48:00	BASE	0.00	194	M	M	-2.0	92	-3.1	7	26	1000.3	NA	0.0000		9999	1180	0	0	0
2016/11/22 06:49:00	BASE	0.00	203	M	M	-2.0	92	-3.1	7	27	1000.3	NA	0.0000		9999	1180	0	0	0
2016/11/22 06:50:00	BASE	0.27	215	1.39	216	-2.0	92	-3.1	7	27	1000.3	NA	0.0000		9999	1080	0	0	0
2016/11/22 06:51:00	BASE	0.88	217	1.39	216	-2.0	92	-3.1	7	28	1000.3	NA	0.0000		9999	1020	0	0	0
2016/11/22 06:52:00	BASE	0.78	217	1.39	216	-2.0	92	-3.1	7	28	1000.3	NA	0.0000		9999	1020	0	0	0
2016/11/22 06:53:00	BASE	0.26	227	1.39	216	-2.0	92	-3.1	7	29	1000.3	NA	0.0000		9999	1210	0	0	0
2016/11/22 06:54:00	BASE	0.09	236	1.39	216	-2.0	92	-3.2	7	29	1000.2	NA	0.0000		9999	1150	0	0	0
2016/11/22 06:55:00	BASE	0.00	242	1.39	216	-2.0	92	-3.1	8	30	1000.2	NA	0.0000		9999	1150	0	0	0
2016/11/22 06:56:00	BASE	0.00	248	1.39	216	-2.0	92	-3.1	8	31	1000.2	NA	0.0000		9999	1210	0	0	0
2016/11/22 06:57:00	BASE	0.00	245	1.39	216	-2.0	92	-3.1	9	32	1000.2	NA	0.0000		9999	980	0	0	0
2016/11/22 06:58:00	BASE	0.30	243	1.39	216	-2.0	92	-3.1	9	33	1000.2	NA	0.0000		9999	850	0	0	0
2016/11/22 06:59:01	BASE	0.69	248	1.39	216	-2.1	92	-3.2	9	34	1000.2	NA	0.0000		9999	620	0	0	0
2016/11/22 07:00:00	BASE	0.80	254	1.39	255	-2.1	92	-3.2	9	35	1000.3	NA	0.0000		9999	660	0	0	0
2016/11/22 07:01:00	BASE	0.92	252	1.39	248	-2.1	92	-3.2	10	36	1000.3	NA	0.0000		9999	1020	0	0	0
2016/11/22 07:02:00	BASE	0.83	250	1.39	248	-2.2	93	-3.2	10	37	1000.3	NA	0.0000		9999	1150	0	0	0
2016/11/22 07:03:00	BASE	0.32	254	1.39	248	-2.2	93	-3.2	10	38	1000.3	NA	0.0000		9999	1180	0	0	0
2016/11/22 07:04:00	BASE	0.00	258	1.39	248	-2.2	93	-3.2	10	39	1000.3	NA	0.0000		9999	1210	0	0	0
2016/11/22 07:05:00	BASE	0.00	261	1.39	248	-2.1	93	-3.2	10	39	1000.3	NA	0.0000		9999	1120	0	0	0
2016/11/22 07:06:00	BASE	0.39	255	1.39	248	-2.1	92	-3.2	10	40	1000.3	NA	0.0000		9999	1180	0	0	0
2016/11/22 07:07:00	BASE	0.97	239	1.39	248	-2.1	92	-3.2	10	40	1000.3	NA	0.0000		9999	1020	0	0	0
2016/11/22 07:08:00	BASE	1.16	228	1.54	232	-2.1	92	-3.2	10	41	1000.3	NA	0.0000		9999	1150	0	0	0
2016/11/22 07:09:00	BASE	1.05	228	1.54	232	-2.2	92	-3.2	11	43	1000.3	NA	0.0000		9999	1120	0	0	0
2016/11/22 07:10:00	BASE	0.47	230	1.54	232	-2.2	92	-3.2	12	44	1000.3	NA	0.0000		9999	1120	0	0	0
2016/11/22 07:11:00	BASE	0.00	231	1.54	232	-2.2	93	-3.2	12	45	1000.3	NA	0.0000		9999	1150	0	0	0
2016/11/22 07:12:00	BASE	0.09	235	1.54	232	-2.2	93	-3.2	13	47	1000.3	NA	0.0000		9999	1150	0	0	0
2016/11/22 07:13:00	BASE	0.50	244	1.54	232	-2.2	93	-3.2	14	49	1000.3	NA	0.0000		9999	1150	0	0	0
2016/11/22 07:14:00	BASE	0.97	244	1.54	232	-2.2	93	-3.2	15	51	1000.3	NA	0.0000		9999	1150	0	0	0
2016/11/22 07:15:00	BASE	1.10	241	1.65	253	-2.2	93	-3.2	15	52	1000.3	NA	0.0000		9999	920	0	0	0
2016/11/22 07:16:00	BASE	1.04	248	1.65	253	-2.2	93	-3.2	15	53	1000.3	NA	0.0000		9999	950	0	0	0
2016/11/22 07:17:00	BASE	1.20	249	1.65	247	-2.2	93	-3.2	15	53	1000.3	NA	0.0000		9999	950	0	0	0
2016/11/22 07:18:00	BASE	1.40	245	1.65	247	-2.2	93	-3.2	15	54	1000.3	NA	0.0000		9999	1020	0	0	0
2016/11/22 07:19:00	BASE	1.40	247	1.65	252	-2.2	93	-3.1	15	54	1000.3	NA	0.0000		9999	1150	0	0	0
2016/11/22 07:20:00	BASE	1.45	249	1.65	249	-2.2	93	-3.1	15	55	1000.4	NA	0.0000		9999	1150	0	0	0
2016/11/22 07:21:00	BASE	1.52	250	1.80	248	-2.2	93	-3.1	15	56	1000.4	NA	0.0000		9999	1080	0	0	0
2016/11/22 07:22:00	BASE	1.65	255	2.42	255	-2.2	93	-3.1	15	56	1000.5	NA	0.0000		9999	1120	0	0	0
2016/11/22 07:23:00	BASE	1.93	255	2.62	255	-2.2	93	-3.2	15	57	1000.5	NA	0.0000		9999	1150	0	0	0
2016/11/22 07:24:00	BASE	1.95	257	2.62	255	-2.2	93	-3.2	15	58	1000.5	NA	0.0000		9999	1210	0	0	0
2016/11/22 07:25:00	BASE	1.60	266	2.62	255	-2.2	92	-3.3	16	60	1000.5	NA	0.0000		9999	1210	0	0	0
2016/11/22 07:26:00	BASE	1.72	272	2.62	255	-2.1	91	-3.4	17	63	1000.5	NA	0.0000		9999	1120	0	0	0
2016/11/22 07:27:00	BASE	2.00	274	2.62	255	-2.1	91	-3.4	18	65	1000.5	NA	0.0000		9999	1120	0	0	0
2016/11/22 07:28:00	BASE	1.85	275	2.62	255	-2.1	90	-3.4	19	67	1000.6	NA	0.0000		9999	1080	0	0	0
2016/11/22 07:29:00	BASE	1.85	277	2.62	255	-2.0	90	-3.4	19	67	1000.7	NA	0.0000		9999	1150	0	0	0
2016/11/22 07:30:00	BASE	1.95	276	2.62	255	-2.0	91	-3.3	18	67	1000.7	NA	0.0000		9999	1150	0	0	0
2016/11/22 07:31:00	BASE	2.03	272	2.62	255	-2.0	91	-3.3	18	68	1000.7	NA	0.0000		9999	1120	0	0	0
2016/11/22 07:32:00	BASE	1.96	271	2.62	255	-2.0	92	-3.2	19	69	1000.7	NA	0.0000		9999	1050	0	0	0
2016/11/22 07:33:00	BASE	1.91	275	2.42	259	-2.0	92	-3.2	20	72	1000.7	NA	0.0000		9999	1080	0	0	0
2016/11/22 07:34:00	BASE	2.05	270	2.52	274	-2.0	92	-3.2	21	76	1000.7	NA	0.0000		9999	1120	0	0	0
2016/11/22 07:35:00	BASE	1.90	266	2.52	274	-2.1	92	-3.2	23	79	1000.7	NA	0.0000		9999	1120	0	0	0
2016/11/22 07:36:00	BASE	1.64	269	2.52	274	-2.1	92	-3.1	24	82	1000.8	NA	0.0000		9999	1150	0	0	0
2016/11/22 07:37:00	BASE	1.57	269	2.52	274	-2.0	92	-3.1	26	86	1000.8	NA	0.0000		9999	1150	0	0	0
2016/11/22 07:38:00	BASE	1.18	274	2.52	274	-2.1	92	-3.1	27	90	1000.8	NA	0.0000		9999	1150	0	0	0
2016/11/22 07:39:00	BASE	1.01	281	2.52	274	-2.0	92	-3.1	28	92	1000.8	NA	0.0000		9999	1120	0	0	0
2016/11/22 07:40:00	BASE	0.97	274	2.52	274	-2.0	92	-3.1	27	92	1000.8	NA	0.0000		9999	1150	0	0	0
2016/11/22 07:41:00	BASE	1.10	272	2.52	274	-2.0	92	-3.2	27	92	1000.8	NA	0.0000		9999	1050	0	0	0
2016/11/22 07:42:00	BASE	1.73	279	2.52	274	-2.0	92	-3.2	28	95	1000.8	NA	0.0000		9999	1150	0	0	0
2016/11/22 07:43:00	BASE	1.88	272	2.52	274	-2.0	92	-3.2	29	98	1000.8	NA	0.0000		9999	1150	0	0	0
2016/11/22 07:44:00	BASE	1.70	267	2.31	283	-2.1	92	-3.2	27	97	1000.8	NA	0.0000		9999	1150	0	0	0
2016/11/22 07:45:00	BASE	1.35	263	2.31	283	-2.0	92	-3.2	27	98	1000.7	NA	0.0000		9999	1150	0	0	0
2016/11/22 07:46:00	BASE	1.06	264	2.31	283	-2.1	92	-3.2	29	102	1000.8	NA	0.0000		9999	1120	0	0	0
2016/11/22 07:47:00	BASE	1.23	271	2.31	283	-2.1	92	-3.2	31	107	1000.8	NA	0.0000		9999	1080	0	0	0
2016/11/22 07:48:00	BASE	1.17	275	2.31	283	-2.1	91	-3.3	33	111	1000.8	NA	0.0000		9999	1020	0	0	0
2016/11/22 07:49:00	BASE	0.82	270	2.31	283	-2.0	91	-3.3	34	114	1000.8	NA	0.0000		9999	1080	0	0	0
2016/11/22 07:50:00	BASE	0.86	248	2.31	283	-2.1	91	-3.3	34	115	1000.8	NA	0.0000		9999	1050	0	0	0
2016/11/22 07:51:00	BASE	1.17	243	2.31	283	-2.1	91	-3.3	33	115	1000.9	NA	0.0000		9999	1120	0	0	0
2016/11/22 07:52:00	BASE	1.50	259	2.21	265	-2.1	91	-3.3	32	114	1000.9	NA	0.0000		9999	1150	0	0	0
2016/11/22 07:53:00	BASE	1.79	273	2.06	274	-2.1	91	-3.3	31	113	1000.9	NA	0.0000		9999	1150	0	0	0
2016/11/22 07:54:00	BASE	1.93	278	2.21	284	-2.1	91	-3.3	32	114	1000.9	NA	0.0000		9999	1150	0	0	0
2016/11/22 07:55:00	BASE	1.92	283	2.21	284	-2.1	91	-3.3	32	116	1000.9	NA	0.0000		9999	1180	0	0	0
2016/11/22 07:56:00	BASE	1.82	286	2.21	284	-2.0	91	-3.3	32	116	1001.0	NA	0.0000		9999	1180	0	0	0
2016/11/22 07:57:00	BASE	1.83	285	2.21	282	-2.0	91	-3.3	32	118	1001.0	NA	0.0000		9999	1150	0	0	0
2016/11/22 07:58:00	BASE	1.78	283	2.21	282	-2.0	91	-3.3	34	121	1001.0	NA	0.0000		9999	1210	0	0	0
2016/11/22 07:59:00	BASE	1.80	282	2.21	282	-2.0	91	-3.3	36	127	1001.0	NA	0.0000		9999	1210	0	0	0
2016/11/22 08:00:00	BASE	1.87	287	2.21	282	-2.0	91	-3.3	39	133	1001.0	NA	0.0000		9999	1210	0	0	0
2016/11/22 08:01:00	BASE	1.80	289	2.21	282	-2.0	91	-3.3	40	136	1001.0	NA	0.0000		9999	1210	0	0	0
2016/11/22 08:02:00	BASE	1.98	284	2.52	279	-2.0	91	-3.3	41	139	1000.9	NA	0.0000		9999	1210	0	0	0
2016/11/22 08:03:00	BASE	2.06	280	2.52	279	-2.0	91	-3.3	41	139	1000.9	NA	0.0000		9999	1210	0	0	0
2016/11/22 08:04:00	BASE	1.74	278	2.52	279	-2.1	91	-3.3	40	139	1000.9	NA	0.0000		9999	1210	0	0	0
2016/11/22 08:05:00	BASE	1.66	279	2.52	279	-2.0	92	-3.2	40	139	1000.9	NA	0.0000		9999	1180	0	0	0
2016/11/22 08:06:00	BASE	2.09	280	2.88	276	-2.0	92	-3.2	39	138	1000.9	NA	0.0000		9999	890	0	0	0
2016/11/22 08:07:00	BASE	2.49	278	2.88	278	-2.1	92	-3.2	39	139	1000.9	NA	0.0000		9999	1080	0	0	0
2016/11/22 08:08:00	BASE	2.29	272	2.88	278	-2.0	92	-3.2	40	141	1001.0	NA	0.0000		9999	1180	0	0	0
2016/11/22 08:09:00	BASE	2.12	267	2.88	278	-2.0	92	-3.2	43	149	1001.0	NA	0.0000		9999	1180	0	0	0
2016/11/22 08:10:00	BASE	2.14	266	2.88	278	-2.1	92	-3.2	45	153	1001.0	NA	0.0000		9999	1180	0	0	0
2016/11/22 08:11:00	BASE	1.78	269	2.88	278	-2.1	92	-3.2	46	156	1001.0	NA	0.0000		9999	1180	0	0	0
2016/11/22 08:12:00	BASE	1.85	274	2.88	278	-2.1	92	-3.2	47	158	1001.0	NA	0.0000		9999	750	1150	0	0
2016/11/22 08:13:00	BASE	2.18	275	2.88	278	-2.1	92	-3.2	47	160	1001.0	NA	0.0000		9999	1180	0	0	0
2016/11/22 08:14:00	BASE	2.22	271	2.88	278	-2.1	92	-3.2	46	159	1001.0	NA	0.0000		9999	1050	0	0	0
2016/11/22 08:15:00	BASE	2.18	271	2.88	278	-2.1	92	-3.2	46	160	1001.0	NA	0.0000		9999	1050	0	0	0
2016/11/22 08:16:00	BASE	2.05	273	2.88	278	-2.1	92	-3.2	47	163	1001.0	NA	0.0000		9999	950	0	0	0
2016/11/22 08:17:00	BASE	1.95	268	2.62	263	-2.1	92	-3.2	48	165	1001.0	NA	0.0000		9999	1120	0	0	0
2016/11/22 08:18:00	BASE	1.89	267	2.62	263	-2.2	93	-3.2	50	170	1001.0	NA	0.0000		9999	1120	0	0	0
2016/11/22 08:19:00	BASE	1.52	262	2.62	263	-2.2	93	-3.2	50	171	1000.9	NA	0.0000		9999	1150	0	0	0
2016/11/22 08:20:00	BASE	0.59	254	2.42	275	-2.2	93	-3.2	49	172	1000.9	NA	0.0000		9999	1180	0	0	0
2016/11/22 08:21:00	BASE	0.60	263	2.42	275	-2.2	93	-3.2	49	172	1001.0	NA	0.0000		9999	1020	0	0	0
2016/11/22 08:22:00	BASE	1.49	274	2.42	275	-2.2	93	-3.2	47	169	1001.0	NA	0.0000		9999	1050	0	0	0
2016/11/22 08:23:00	BASE	1.93	275	2.42	275	-2.2	93	-3.2	48	172	1001.0	NA	0.0000		9999	1150	0	0	0
2016/11/22 08:24:00	BASE	1.90	270	2.42	275	-2.2	93	-3.2	49	176	1001.0	NA	0.0000		9999	1150	0	0	0
2016/11/22 08:25:00	BASE	1.53	273	2.37	273	-2.1	93	-3.1	52	183	1001.0	NA	0.0000		9999	1120	21950	0	0
2016/11/22 08:26:00	BASE	1.24	284	2.37	273	-2.1	93	-3.1	55	190	1001.0	NA	0.0000		9999	1050	0	0	0
2016/11/22 08:27:00	BASE	1.31	286	2.37	273	-2.1	93	-3.1	56	192	1001.0	NA	0.0000		9999	1150	0	0	0
2016/11/22 08:28:00	BASE	1.34	288	2.37	273	-2.2	93	-3.1	54	190	1001.0	NA	0.0000		9999	1020	0	0	0
2016/11/22 08:29:00	BASE	0.73	302	2.37	273	-2.2	93	-3.1	56	194	1001.0	NA	0.0000		9999	1020	0	0	0
2016/11/22 08:30:00	BASE	0.13	304	2.37	273	-2.2	93	-3.1	58	201	1001.0	NA	0.0000		9999	980	0	0	0
2016/11/22 08:31:00	BASE	0.27	294	2.37	273	-2.2	93	-3.1	60	207	1001.0	NA	0.0000		9999	950	0	0	0
2016/11/22 08:32:00	BASE	0.86	286	2.37	273	-2.2	93	-3.1	63	214	1001.0	NA	0.0000		9999	950	0	0	0
2016/11/22 08:33:00	BASE	1.27	274	2.06	268	-2.1	93	-3.1	66	221	1001.0	NA	0.0000		9999	820	0	0	0
2016/11/22 08:34:00	BASE	1.27	270	1.65	280	-2.1	93	-3.1	66	224	1000.9	NA	0.0000		9999	950	0	0	0
2016/11/22 08:35:00	BASE	1.43	272	2.26	260	-2.1	93	-3.1	66	225	1000.9	NA	0.0000		9999	890	0	0	0
2016/11/22 08:36:00	BASE	1.67	269	2.26	260	-2.1	93	-3.1	65	222	1000.9	NA	0.0000		9999	820	0	0	0
2016/11/22 08:37:00	BASE	1.29	266	2.26	260	-2.1	93	-3.1	65	223	1000.9	NA	0.0000		9999	920	0	0	0
2016/11/22 08:38:00	BASE	0.70	268	2.26	260	-2.1	93	-3.2	64	221	1000.9	NA	0.0000		9999	890	22640	0	0
2016/11/22 08:39:00	BASE	0.95	272	2.26	260	-2.2	92	-3.2	64	223	1000.9	NA	0.0000		9999	950	0	0	0
2016/11/22 08:40:00	BASE	1.32	274	2.26	260	-2.2	92	-3.2	66	228	1000.9	NA	0.0000		9999	980	0	0	0
2016/11/22 08:41:00	BASE	0.84	277	2.26	260	-2.2	92	-3.2	66	229	1000.9	NA	0.0000		9999	1020	0	0	0
2016/11/22 08:42:00	BASE	0.28	272	2.26	260	-2.2	92	-3.2	66	231	1000.9	NA	0.0000		9999	950	0	0	0
2016/11/22 08:43:00	BASE	0.48	253	2.26	260	-2.2	92	-3.2	68	237	1000.9	NA	0.0000		9999	980	0	0	0
2016/11/22 08:44:00	BASE	0.61	243	2.26	260	-2.2	92	-3.2	67	235	1000.9	NA	0.0000		9999	850	0	0	0
2016/11/22 08:45:00	BASE	0.59	244	1.95	264	-2.2	92	-3.3	72	249	1000.9	NA	0.0000		9999	890	0	0	0
2016/11/22 08:46:00	BASE	0.85	248	1.95	248	-2.2	92	-3.3	75	255	1000.9	NA	0.0000		9999	750	0	0	0
2016/11/22 08:47:00	BASE	1.12	247	1.95	248	-2.3	93	-3.3	77	261	1000.9	NA	0.0000		9999	590	0	0	0
2016/11/22 08:48:00	BASE	1.54	247	2.11	252	-2.3	93	-3.3	75	256	1001.0	NA	0.0000		9999	620	0	0	0
2016/11/22 08:49:00	BASE	1.67	251	2.11	252	-2.3	93	-3.2	74	255	1001.0	NA	0.0000		9999	560	0	0	0
2016/11/22 08:50:00	BASE	1.74	252	2.37	245	-2.3	93	-3.2	76	261	1001.0	NA	0.0000		9999	620	0	0	0
2016/11/22 08:51:00	BASE	2.00	247	2.52	234	-2.3	93	-3.2	78	267	1001.0	NA	0.0000		9999	920	0	0	0
2016/11/22 08:52:00	BASE	2.04	240	2.52	234	-2.3	93	-3.2	82	278	1001.1	NA	0.0000		9999	920	0	0	0
2016/11/22 08:53:00	BASE	1.95	243	2.52	234	-2.3	93	-3.3	82	279	1001.1	NA	0.0000		9999	820	0	0	0
2016/11/22 08:54:00	BASE	2.03	245	2.52	234	-2.3	93	-3.2	81	277	1001.1	NA	0.0000		9999	660	0	0	0
2016/11/22 08:55:00	BASE	1.93	244	2.52	234	-2.3	93	-3.2	73	259	1001.1	NA	0.0000		9999	520	0	0	0
2016/11/22 08:56:00	BASE	1.77	243	2.52	234	-2.3	94	-3.2	76	266	1001.0	NA	0.0000		9999	890	0	0	0
2016/11/22 08:57:00	BASE	1.61	237	2.52	234	-2.3	94	-3.2	71	256	1001.0	NA	0.0000		9999	850	0	0	0
2016/11/22 08:58:00	BASE	1.34	230	2.52	234	-2.3	94	-3.2	70	253	1001.1	NA	0.0000		9999	850	0	0	0
2016/11/22 08:59:00	BASE	1.12	234	2.52	234	-2.3	94	-3.2	72	259	1001.1	NA	0.0000		9999	820	0	0	0
2016/11/22 09:00:00	BASE	0.90	246	2.52	234	-2.3	94	-3.2	73	264	1001.1	NA	0.0000		9999	590	0	0	0
2016/11/22 09:01:00	BASE	1.26	247	2.47	245	-2.3	94	-3.1	79	279	1001.1	NA	0.0000		9999	590	0	0	0
2016/11/22 09:02:00	BASE	1.80	246	2.47	245	-2.3	94	-3.1	82	287	1001.1	NA	0.0000		9999	660	0	0	0
2016/11/22 09:03:00	BASE	2.07	246	2.57	239	-2.3	94	-3.1	85	296	1001.2	NA	0.0000		9999	620	0	0	0
2016/11/22 09:04:00	BASE	2.05	238	2.57	239	-2.3	94	-3.2	88	304	1001.3	NA	0.0000		9999	820	0	0	0
2016/11/22 09:05:00	BASE	1.19	235	2.57	239	-2.3	94	-3.1	93	319	1001.3	NA	0.0000		9999	850	0	0	0
2016/11/22 09:06:00	BASE	0.34	233	2.57	239	-2.3	94	-3.1	96	326	1001.2	NA	0.0000		9999	850	0	0	0
2016/11/22 09:07:00	BASE	0.17	231	2.57	239	-2.3	94	-3.1	98	332	1001.2	NA	0.0000		9999	820	0	0	0
2016/11/22 09:08:00	BASE	0.25	252	2.57	239	-2.3	94	-3.1	100	340	1001.2	NA	0.0000		9999	850	0	0	0
2016/11/22 09:09:00	BASE	0.61	273	2.57	239	-2.2	94	-3.1	97	334	1001.2	NA	0.0000		9999	890	0	0	0
2016/11/22 09:10:00	BASE	1.18	272	2.57	239	-2.2	93	-3.1	93	325	1001.2	NA	0.0000		9999	850	0	0	0
2016/11/22 09:11:00	BASE	1.06	269	2.57	239	-2.1	93	-3.1	91	320	1001.1	NA	0.0000		9999	620	0	0	0
2016/11/22 09:12:00	BASE	0.50	272	2.57	239	-2.1	93	-3.1	99	340	1001.1	NA	0.0000		9999	690	0	0	0
2016/11/22 09:13:00	BASE	0.75	268	2.37	234	-2.1	93	-3.1	104	355	1001.1	NA	0.0000		9999	790	0	0	0
2016/11/22 09:14:00	BASE	1.13	267	1.65	259	-2.1	93	-3.2	108	365	1001.1	NA	0.0000		9999	750	0	0	0
2016/11/22 09:15:00	BASE	1.19	265	1.80	260	-2.1	93	-3.2	103	351	1001.0	NA	0.0000		9999	560	0	0	0
2016/11/22 09:16:00	BASE	0.86	261	1.80	260	-2.2	93	-3.2	98	339	1001.0	NA	0.0000		9999	750	0	0	0
2016/11/22 09:17:00	BASE	0.20	265	1.80	260	-2.1	93	-3.1	91	320	1001.0	NA	0.0000		9999	790	0	0	0
2016/11/22 09:18:00	BASE	0.00	263	1.80	260	-2.1	93	-3.1	86	307	1000.9	NA	0.0000		9999	790	0	0	0
2016/11/22 09:19:00	BASE	0.00	239	1.80	260	-2.1	93	-3.2	88	311	1000.9	NA	0.0000		9999	750	0	0	0
2016/11/22 09:20:00	BASE	0.00	201	1.80	260	-2.2	93	-3.2	85	304	1000.9	NA	0.0000		9999	790	0	0	0
2016/11/22 09:21:00	BASE	0.00	179	1.80	260	-2.2	92	-3.2	89	315	1000.8	NA	0.0000		9999	690	0	0	0
2016/11/22 09:22:00	BASE	0.00	172	1.80	260	-2.2	92	-3.3	90	316	1000.8	NA	0.0000		9999	690	0	0	0
2016/11/22 09:23:00	BASE	0.00	175	1.80	260	-2.3	92	-3.4	89	314	1000.8	NA	0.0000		9999	660	0	0	0
2016/11/22 09:24:00	BASE	0.00	193	1.80	260	-2.3	92	-3.4	91	321	1000.8	NA	0.0000		9999	620	0	0	0
2016/11/22 09:25:00	BASE	0.00	222	1.23	272	-2.3	92	-3.4	94	329	1000.8	NA	0.0000		9999	620	0	0	0
2016/11/22 09:26:00	BASE	0.00	239	M	M	-2.3	92	-3.4	95	334	1000.8	NA	0.0000		9999	620	0	0	0
2016/11/22 09:27:00	BASE	0.00	243	M	M	-2.3	92	-3.4	97	340	1000.8	NA	0.0000		9999	690	0	0	0
2016/11/22 09:28:00	BASE	0.00	243	M	M	-2.3	92	-3.4	96	339	1000.8	NA	0.0000		9999	720	0	0	0
2016/11/22 09:29:00	BASE	0.00	237	M	M	-2.3	92	-3.4	97	342	1000.8	NA	0.0000		9999	660	0	0	0
2016/11/22 09:30:00	BASE	0.00	224	M	M	-2.3	93	-3.3	98	347	1000.8	NA	0.0000		9999	660	23980	0	0
2016/11/22 09:31:00	BASE	0.00	211	M	M	-2.2	93	-3.2	101	358	1000.8	NA	0.0000		9999	720	0	0	0
2016/11/22 09:32:00	BASE	0.23	201	1.18	189	-2.2	93	-3.2	103	366	1000.8	NA	0.0000		9999	790	0	0	0
2016/11/22 09:33:00	BASE	0.23	183	1.18	189	-2.2	93	-3.2	109	383	1000.9	NA	0.0000		9999	750	0	0	0
2016/11/22 09:34:00	BASE	0.00	153	1.18	189	-2.2	92	-3.3	114	398	1000.8	NA	0.0000		9999	720	0	0	0
2016/11/22 09:35:00	BASE	0.00	141	1.18	189	-2.2	92	-3.3	115	404	1000.8	NA	0.0000		9999	720	0	0	0
2016/11/22 09:36:00	BASE	0.00	149	1.18	189	-2.2	92	-3.4	117	410	1000.8	NA	0.0000		9999	720	0	0	0
2016/11/22 09:37:00	BASE	0.00	153	1.18	189	-2.2	91	-3.5	118	414	1000.8	NA	0.0000		9999	660	0	0	0
2016/11/22 09:38:00	BASE	0.13	164	1.18	189	-2.2	91	-3.5	117	413	1000.7	NA	0.0000		9999	660	0	0	0
2016/11/22 09:39:00	BASE	0.77	190	1.65	197	-2.2	91	-3.5	117	412	1000.7	NA	0.0000		9999	750	0	0	0
2016/11/22 09:40:00	BASE	1.28	206	1.65	197	-2.2	91	-3.5	121	424	1000.7	NA	0.0000		9999	790	0	0	0
2016/11/22 09:41:00	BASE	1.33	210	1.65	197	-2.2	91	-3.5	121	424	1000.7	NA	0.0000		9999	660	0	0	0
2016/11/22 09:42:00	BASE	1.47	211	1.75	214	-2.2	91	-3.5	124	433	1000.7	NA	0.0000		9999	690	0	0	0
2016/11/22 09:43:00	BASE	1.48	214	1.75	214	-2.2	91	-3.4	125	438	1000.7	NA	0.0000		9999	790	0	0	0
2016/11/22 09:44:00	BASE	1.42	212	1.75	214	-2.2	91	-3.4	125	439	1000.7	NA	0.0000		9999	820	0	0	0
2016/11/22 09:45:00	BASE	1.45	199	1.75	193	-2.2	91	-3.4	124	434	1000.7	NA	0.0000		9999	720	0	0	0
2016/11/22 09:46:00	BASE	1.62	187	2.01	183	-2.2	91	-3.4	122	429	1000.6	NA	0.0000		9999	660	0	0	0
2016/11/22 09:47:00	BASE	1.84	177	2.11	170	-2.2	91	-3.5	121	427	1000.5	NA	0.0000		9999	690	0	0	0
2016/11/22 09:48:00	BASE	2.07	173	2.47	186	-2.2	91	-3.5	121	428	1000.5	NA	0.0000		9999	720	0	0	0
2016/11/22 09:49:00	BASE	2.40	178	3.14	184	-2.2	91	-3.5	124	435	1000.5	NA	0.0000		9999	720	0	0	0
2016/11/22 09:50:00	BASE	2.17	180	3.14	184	-2.3	91	-3.5	119	422	1000.5	NA	0.0000		9999	690	0	0	0
2016/11/22 09:51:00	BASE	1.84	178	3.14	184	-2.3	91	-3.6	116	414	1000.5	NA	0.0000		9999	690	0	0	0
2016/11/22 09:52:00	BASE	1.34	172	3.14	184	-2.3	91	-3.6	113	406	1000.5	NA	0.0000		9999	690	0	0	0
2016/11/22 09:53:00	BASE	1.12	163	3.14	184	-2.3	91	-3.6	111	401	1000.5	NA	0.0000		9999	720	0	0	0
2016/11/22 09:54:00	BASE	1.59	157	3.14	184	-2.3	91	-3.7	112	403	1000.5	NA	0.0000		9999	690	0	0	0
2016/11/22 09:55:00	BASE	1.47	161	3.14	184	-2.3	90	-3.7	114	410	1000.5	NA	0.0000		9999	690	0	0	0
2016/11/22 09:56:00	BASE	1.35	172	3.14	184	-2.3	90	-3.7	118	420	1000.5	NA	0.0000		9999	690	0	0	0
2016/11/22 09:57:00	BASE	1.46	183	3.14	184	-2.3	90	-3.7	121	428	1000.5	NA	0.0000		9999	690	0	0	0
2016/11/22 09:58:00	BASE	1.06	185	3.14	184	-2.3	90	-3.7	123	436	1000.5	NA	0.0000		9999	690	0	0	0
2016/11/22 09:59:00	BASE	0.69	174	2.62	178	-2.3	90	-3.7	124	439	1000.5	NA	0.0000		9999	720	0	0	0
2016/11/22 10:00:00	BASE	0.34	165	2.62	178	-2.3	90	-3.7	125	441	1000.5	NA	0.0000		9999	750	0	0	0
2016/11/22 10:01:00	BASE	0.00	165	2.06	168	-2.2	90	-3.7	126	443	1000.5	NA	0.0000		9999	820	0	0	0
2016/11/22 10:02:00	BASE	0.47	165	2.06	168	-2.2	89	-3.7	126	445	1000.5	NA	0.0000		9999	820	0	0	0
2016/11/22 10:03:00	BASE	1.05	167	1.95	151	-2.2	89	-3.7	127	446	1000.5	NA	0.0000		9999	790	0	0	0
2016/11/22 10:04:00	BASE	1.31	166	1.65	194	-2.2	89	-3.7	126	443	1000.5	NA	0.0000		9999	790	0	0	0
2016/11/22 10:05:00	BASE	1.39	164	1.65	194	-2.2	90	-3.7	123	434	1000.5	NA	0.0000		9999	790	0	0	0
2016/11/22 10:06:00	BASE	1.52	164	2.11	158	-2.2	90	-3.6	122	433	1000.5	NA	0.0000		9999	820	0	0	0
2016/11/22 10:07:00	BASE	1.82	159	2.11	158	-2.2	90	-3.6	124	438	1000.5	NA	0.0000		9999	790	0	0	0
2016/11/22 10:08:00	BASE	1.90	161	2.11	163	-2.2	90	-3.6	126	443	1000.5	NA	0.0000		9999	790	0	0	0
2016/11/22 10:09:00	BASE	1.74	165	2.11	163	-2.2	90	-3.6	127	445	1000.5	NA	0.0000		9999	790	0	0	0
2016/11/22 10:10:00	BASE	1.60	163	2.11	163	-2.2	90	-3.6	126	441	1000.5	NA	0.0000		9999	790	0	0	0
2016/11/22 10:11:00	BASE	1.82	169	2.16	185	-2.2	90	-3.6	124	436	1000.6	NA	0.0000		9999	790	0	0	0
2016/11/22 10:12:00	BASE	1.90	173	2.16	185	-2.2	90	-3.6	121	428	1000.7	NA	0.0000		9999	790	0	0	0
2016/11/22 10:13:00	BASE	1.64	168	2.16	185	-2.2	90	-3.6	120	425	1000.7	NA	0.0000		9999	790	0	0	0
2016/11/22 10:14:00	BASE	1.53	172	2.16	185	-2.3	90	-3.7	120	424	1000.7	NA	0.0000		9999	790	0	0	0
2016/11/22 10:15:00	BASE	1.47	181	2.16	185	-2.3	90	-3.8	118	420	1000.7	NA	0.0000		9999	750	0	0	0
2016/11/22 10:16:00	BASE	0.74	186	2.16	185	-2.3	89	-3.8	117	415	1000.8	NA	0.0000		9999	790	0	0	0
2016/11/22 10:17:00	BASE	0.61	180	2.16	185	-2.3	89	-3.9	114	407	1000.8	NA	0.0000		9999	790	0	0	0
2016/11/22 10:18:00	BASE	0.97	175	2.16	185	-2.3	89	-3.9	113	405	1000.8	NA	0.0000		9999	790	0	0	0
2016/11/22 10:19:00	BASE	0.45	177	2.16	185	-2.3	89	-3.9	115	412	1000.8	NA	0.0000		9999	790	0	0	0
2016/11/22 10:20:00	BASE	0.04	178	2.16	185	-2.3	89	-3.9	118	422	1000.8	NA	0.0000		9999	790	0	0	0
2016/11/22 10:21:00	BASE	0.00	174	2.06	165	-2.3	89	-3.9	120	429	1000.7	NA	0.0000		9999	820	0	0	0
2016/11/22 10:22:00	BASE	0.00	171	1.75	171	-2.3	89	-3.9	124	442	1000.7	NA	0.0000		9999	790	0	0	0
2016/11/22 10:23:00	BASE	0.00	147	1.75	171	-2.3	89	-3.8	127	452	1000.7	NA	0.0000		9999	790	0	0	0
2016/11/22 10:24:00	BASE	0.00	122	1.70	186	-2.2	89	-3.8	133	471	1000.7	NA	0.0000		9999	790	0	0	0
2016/11/22 10:25:00	BASE	0.22	116	1.44	178	-2.2	89	-3.8	137	481	1000.7	NA	0.0000		9999	790	0	0	0
2016/11/22 10:26:00	BASE	0.22	112	1.44	178	-2.2	89	-3.8	140	492	1000.6	NA	0.0000		9999	790	0	0	0
2016/11/22 10:27:00	BASE	0.00	118	1.44	178	-2.2	89	-3.8	146	510	1000.5	NA	0.0000		9999	790	0	0	0
2016/11/22 10:28:00	BASE	0.00	125	1.08	107	-2.3	89	-3.8	152	529	1000.5	NA	0.0000		9999	790	22410	0	0
2016/11/22 10:29:00	BASE	0.00	125	1.08	107	-2.3	89	-3.8	154	537	1000.5	NA	0.0000		9999	790	0	0	0
2016/11/22 10:30:00	BASE	0.17	121	1.08	113	-2.3	89	-3.8	155	539	1000.5	NA	0.0000		9999	750	0	0	0
2016/11/22 10:31:00	BASE	0.51	122	1.29	125	-2.3	89	-3.8	153	536	1000.4	NA	0.0000		9999	750	0	0	0
2016/11/22 10:32:00	BASE	0.43	126	1.29	128	-2.2	89	-3.8	151	530	1000.4	NA	0.0000		9999	790	0	0	0
2016/11/22 10:33:00	BASE	0.10	122	1.29	128	-2.2	89	-3.8	150	529	1000.4	NA	0.0000		9999	790	0	0	0
2016/11/22 10:34:00	BASE	0.00	125	1.29	128	-2.2	89	-3.8	150	527	1000.4	NA	0.0000		9999	790	0	0	0
2016/11/22 10:35:00	BASE	0.50	119	1.34	101	-2.2	89	-3.8	146	515	1000.4	NA	0.0000		9999	790	0	0	0
2016/11/22 10:36:00	BASE	1.19	101	1.59	93	-2.2	89	-3.8	139	496	1000.4	NA	0.0000		9999	790	0	0	0
2016/11/22 10:37:00	BASE	1.28	93	1.59	93	-2.2	89	-3.8	134	481	1000.4	NA	0.0000		9999	820	0	0	0
2016/11/22 10:38:00	BASE	0.93	89	1.59	93	-2.2	89	-3.8	132	475	1000.5	NA	0.0000		9999	820	0	0	0
2016/11/22 10:39:00	BASE	0.47	86	1.59	93	-2.2	89	-3.8	130	469	1000.5	NA	0.0000		9999	820	0	0	0
2016/11/22 10:40:00	BASE	0.37	88	1.59	93	-2.2	89	-3.8	130	467	1000.6	NA	0.0000		9999	790	0	0	0
2016/11/22 10:41:00	BASE	0.23	90	1.59	93	-2.2	89	-3.8	127	458	1000.7	NA	0.0000		9999	820	0	0	0
2016/11/22 10:42:00	BASE	0.00	88	1.59	93	-2.2	89	-3.8	125	454	1000.7	NA	0.0000		9999	850	0	0	0
2016/11/22 10:43:00	BASE	0.00	90	1.59	93	-2.2	89	-3.8	120	438	1000.7	NA	0.0000		9999	850	0	0	0
2016/11/22 10:44:00	BASE	0.04	100	1.59	93	-2.2	89	-3.8	117	429	1000.7	NA	0.0000		9999	890	0	0	0
2016/11/22 10:45:00	BASE	0.18	103	1.59	93	-2.2	89	-3.8	117	430	1000.7	NA	0.0000		9999	890	24210	0	0
2016/11/22 10:46:00	BASE	0.27	104	1.39	96	-2.2	89	-3.8	119	436	1000.7	NA	0.0000		9999	850	0	0	0
2016/11/22 10:47:00	BASE	0.17	103	1.23	85	-2.2	88	-3.9	119	437	1000.8	NA	0.0000		9999	850	0	0	0
2016/11/22 10:48:00	BASE	0.36	88	1.18	82	-2.2	88	-3.9	120	440	1000.8	NA	0.0000		9999	850	0	0	0
2016/11/22 10:49:00	BASE	0.40	82	1.18	82	-2.2	88	-3.9	121	441	1000.8	NA	0.0000		9999	850	0	0	0
2016/11/22 10:50:00	BASE	0.22	82	1.18	82	-2.2	88	-3.9	126	457	1000.8	NA	0.0000		9999	850	22080	0	0
2016/11/22 10:51:00	BASE	0.13	82	1.18	82	-2.2	88	-3.9	130	469	1000.7	NA	0.0000		9999	890	0	0	0
2016/11/22 10:52:00	BASE	0.00	85	1.18	82	-2.2	88	-3.9	133	479	1000.7	NA	0.0000		9999	890	0	0	0
2016/11/22 10:53:00	BASE	0.00	86	1.18	82	-2.2	88	-3.9	135	486	1000.7	NA	0.0000		9999	820	0	0	0
2016/11/22 10:54:00	BASE	0.05	97	1.18	82	-2.2	88	-3.9	139	498	1000.7	NA	0.0000		9999	820	0	0	0
2016/11/22 10:55:00	BASE	0.23	110	1.18	82	-2.2	88	-3.9	144	517	1000.7	NA	0.0000		9999	890	0	0	0
2016/11/22 10:56:00	BASE	0.32	107	1.18	104	-2.2	88	-3.9	155	551	1000.7	NA	0.0000		9999	820	0	0	0
2016/11/22 10:57:00	BASE	0.40	98	1.29	95	-2.2	88	-3.9	162	572	1000.7	NA	0.0000		9999	820	0	0	0
2016/11/22 10:58:00	BASE	0.26	90	1.29	95	-2.2	88	-3.9	169	595	1000.6	NA	0.0000		9999	820	0	0	0
2016/11/22 10:59:00	BASE	0.00	87	1.29	95	-2.1	89	-3.8	175	614	1000.5	NA	0.0000		9999	820	0	0	0
2016/11/22 11:00:00	BASE	0.00	87	1.29	95	-2.1	89	-3.7	180	630	1000.5	NA	0.0000		9999	790	0	0	0
2016/11/22 11:01:00	BASE	0.04	87	1.29	95	-2.1	89	-3.7	182	637	1000.5	NA	0.0000		9999	790	22930	0	0
2016/11/22 11:02:00	BASE	0.04	87	1.29	95	-2.1	89	-3.7	183	641	1000.5	NA	0.0000		9999	820	0	0	0
2016/11/22 11:03:00	BASE	0.26	94	1.29	95	-2.1	89	-3.7	186	651	1000.5	NA	0.0000		9999	820	0	0	0
2016/11/22 11:04:00	BASE	0.41	97	1.29	83	-2.1	89	-3.7	189	659	1000.4	NA	0.0000		9999	850	0	0	0
2016/11/22 11:05:00	BASE	0.76	89	1.44	86	-2.1	88	-3.8	198	686	1000.5	NA	0.0000		9999	850	0	0	0
2016/11/22 11:06:00	BASE	1.20	85	1.44	86	-2.1	88	-3.8	204	703	1000.5	NA	0.0000		9999	890	0	0	0
2016/11/22 11:07:00	BASE	1.28	89	1.54	96	-2.1	88	-3.8	207	712	1000.3	NA	0.0000		9999	850	0	0	0
2016/11/22 11:08:00	BASE	1.36	93	1.65	103	-2.1	88	-3.9	208	718	1000.4	NA	0.0000		9999	850	19820	0	0
2016/11/22 11:09:00	BASE	1.39	101	1.70	109	-2.1	88	-3.9	210	722	1000.4	NA	0.0000		9999	850	0	0	0
2016/11/22 11:10:00	BASE	1.37	106	1.70	109	-2.2	88	-3.9	212	729	1000.4	NA	0.0000		9999	850	0	0	0
2016/11/22 11:11:00	BASE	1.26	103	1.75	103	-2.2	88	-3.9	213	733	1000.2	NA	0.0000		9999	850	0	0	0
2016/11/22 11:12:00	BASE	1.35	108	1.75	103	-2.2	88	-3.9	224	758	1000.4	NA	0.0000		9999	850	0	0	0
2016/11/22 11:13:00	BASE	1.48	109	1.75	103	-2.2	88	-3.9	233	767	1000.2	NA	0.0000		9999	850	0	0	0
2016/11/22 11:14:00	BASE	1.64	103	2.21	105	-2.2	88	-3.9	248	810	1000.2	NA	0.0000		9999	850	0	0	0
2016/11/22 11:15:00	BASE	1.74	108	2.21	105	-2.2	89	-3.8	266	852	1000.3	NA	0.0000		9999	850	0	0	0
2016/11/22 11:16:00	BASE	1.83	119	2.26	120	-2.2	89	-3.8	282	908	1000.3	NA	0.0000		9999	850	0	0	0
2016/11/22 11:17:00	BASE	1.91	127	2.26	120	-2.2	89	-3.7	297	931	1000.3	NA	0.0000		9999	850	0	0	0
2016/11/22 11:18:00	BASE	1.85	128	2.26	120	-2.2	89	-3.7	299	936	1000.3	NA	0.0000		9999	850	0	0	0
2016/11/22 11:19:01	BASE	1.83	119	2.26	120	-2.2	89	-3.7	300	935	1000.3	NA	0.0000		9999	850	0	0	0
2016/11/22 11:20:01	BASE	1.84	112	2.26	120	-2.1	89	-3.7	317	948	1000.3	NA	0.0000		9999	850	0	0	0
2016/11/22 11:21:00	BASE	1.79	108	2.26	120	-2.1	89	-3.7	372	1081	1000.3	NA	0.0000		9999	890	0	0	0
2016/11/22 11:22:00	BASE	1.69	108	2.26	120	-2.1	89	-3.7	457	1254	1000.3	NA	0.0000		9999	850	0	0	0
2016/11/22 11:23:00	BASE	1.94	112	2.68	112	-2.1	88	-3.7	534	1400	1000.3	NA	0.0000		9999	850	0	0	0
2016/11/22 11:24:00	BASE	1.97	116	2.68	112	-2.1	88	-3.8	585	1511	1000.4	NA	0.0000		9999	850	0	0	0
2016/11/22 11:25:01	BASE	1.70	124	2.68	112	-2.0	88	-3.8	588	1507	1000.4	NA	0.0000		9999	820	0	0	0
2016/11/22 11:26:00	BASE	1.76	129	2.68	112	-2.0	88	-3.7	468	1280	1000.4	NA	0.0000		9999	890	0	0	0
2016/11/22 11:27:01	BASE	1.83	123	2.68	112	-1.9	88	-3.6	354	1030	1000.4	NA	0.0000		9999	820	0	0	0
2016/11/22 11:28:01	BASE	1.67	111	2.68	112	-1.9	88	-3.6	340	985	1000.2	NA	0.0000		9999	820	0	0	0
2016/11/22 11:29:01	BASE	1.26	109	2.68	112	-1.9	88	-3.7	333	967	1000.3	NA	0.0000		9999	820	0	0	0
2016/11/22 11:30:01	BASE	1.16	110	2.68	112	-2.0	87	-3.8	334	970	1000.3	NA	0.0000		9999	820	22570	0	0
2016/11/22 11:31:01	BASE	M	M	2.68	112	-2.0	87	-3.8	334	970	M	NA	0.0000		M	820	22570	0	0
2016/11/22 11:32:01	BASE	M	M	2.68	112	-2.0	87	-3.8	M	M	M	NA	0.0000		M	M	M	M	M
2016/11/22 11:33:01	BASE	M	M	M	M	-2.0	87	-3.8	M	M	M	NA	0.0000		M	M	M	M	M
2016/11/22 11:34:01	BASE	M	M	M	M	-2.0	87	-3.8	M	M	M	NA	0.0000		M	M	M	M	M
2016/11/22 11:35:01	BASE	M	M	M	M	-2.0	87	-3.8	M	M	M	NA	0.0000		M	M	M	M	M
2016/11/22 11:36:01	BASE	M	M	M	M	-2.0	87	-3.8	M	M	M	NA	0.0000		M	M	M	M	M
2016/11/22 11:37:01	BASE	M	M	M	M	-2.0	87	-3.8	M	M	M	NA	0.0000		M	M	M	M	M
2016/11/22 11:38:01	BASE	M	M	M	M	-2.0	87	-3.8	M	M	M	NA	0.0000		M	M	M	M	M
2016/11/22 11:39:01	BASE	M	M	M	M	-2.0	87	-3.8	M	M	M	NA	0.0000		M	M	M	M	M
2016/11/22 11:40:01	BASE	M	M	M	M	-2.0	87	-3.8	M	M	M	NA	0.0000		M	M	M	M	M
2016/11/22 11:41:01	BASE	M	M	M	M	-2.0	87	-3.8	M	M	M	NA	0.0000		M	M	M	M	M
2016/11/22 11:42:01	BASE	M	M	M	M	-2.0	87	-3.8	M	M	M	NA	0.0000		M	M	M	M	M
2016/11/22 11:43:01	BASE	M	M	M	M	-2.0	87	-3.8	M	M	M	NA	0.0000		M	M	M	M	M
2016/11/22 11:44:01	BASE	M	M	M	M	-2.0	87	-3.8	M	M	M	NA	0.0000		M	M	M	M	M
2016/11/22 11:45:01	BASE	M	M	M	M	-2.0	87	-3.8	M	M	M	NA	0.0000		M	M	M	M	M
2016/11/22 11:46:01	BASE	M	M	M	M	-2.0	87	-3.8	M	M	M	NA	0.0000		M	M	M	M	M
2016/11/22 11:47:01	BASE	M	M	M	M	M	M	M	M	M	M	NA	0.0000		M	M	M	M	M
2016/11/22 11:48:01	BASE	M	M	M	M	M	M	M	M	M	M	NA	0.0000		M	M	M	M	M
2016/11/22 11:49:01	BASE	M	M	M	M	M	M	M	M	M	M	NA	0.0000		M	M	M	M	M
2016/11/22 11:50:01	BASE	M	M	M	M	M	M	M	M	M	M	NA	0.0000		M	M	M	M	M
2016/11/22 11:51:01	BASE	M	M	M	M	M	M	M	M	M	M	NA	0.0000		M	M	M	M	M
2016/11/22 11:52:01	BASE	M	M	M	M	M	M	M	M	M	M	NA	0.0000		M	M	M	M	M
2016/11/22 11:53:01	BASE	M	M	M	M	M	M	M	M	M	M	NA	0.0000		M	M	M	M	M
2016/11/22 11:54:01	BASE	M	M	M	M	M	M	M	M	M	M	NA	0.0000		M	M	M	M	M
2016/11/22 11:55:01	BASE	M	M	M	M	M	M	M	M	M	M	NA	0.0000		M	M	M	M	M
2016/11/22 11:56:01	BASE	M	M	M	M	M	M	M	M	M	M	NA	0.0000		M	M	M	M	M
2016/11/22 11:57:01	BASE	M	M	M	M	M	M	M	307	889	M	NA	0.0000		9999	0	0	0	0
2016/11/22 11:58:01	BASE	0.86	183	M	M	M	M	M	309	878	1000.2	NA	0.0000		9999	0	0	0	0
2016/11/22 11:59:01	BASE	0.63	172	M	M	M	M	M	307	886	1000.2	NA	0.0000		9999	820	0	0	0
2016/11/22 12:00:01	BASE	0.25	165	M	M	M	M	M	300	855	1000.3	NA	0.0000		9999	820	0	0	0
2016/11/22 12:01:01	BASE	0.00	161	M	M	-2.1	85	-4.3	299	876	1000.2	NA	0.0000		9999	820	0	0	0
2016/11/22 12:02:01	BASE	0.00	174	M	M	-2.1	85	-4.2	294	858	1000.2	NA	0.0000		9999	820	0	0	0
2016/11/22 12:03:01	BASE	0.00	204	M	M	-2.1	86	-4.1	292	852	1000.3	NA	0.0000		9999	820	0	0	0
2016/11/22 12:04:01	BASE	0.00	224	1.34	187	-2.1	87	-4.0	293	872	1000.2	NA	0.0000		9999	820	0	0	0
2016/11/22 12:05:01	BASE	0.00	230	1.34	187	-2.1	87	-4.0	296	881	1000.2	NA	0.0000		9999	850	0	0	0
2016/11/22 12:06:01	BASE	0.00	230	1.34	187	-2.0	87	-3.9	309	907	1000.2	NA	0.0000		9999	820	0	0	0
2016/11/22 12:07:01	BASE	0.00	226	1.29	159	-2.0	87	-3.9	320	939	1000.2	NA	0.0000		9999	820	0	0	0
2016/11/22 12:08:01	BASE	0.00	226	1.29	159	-2.0	87	-3.9	326	955	1000.2	NA	0.0000		9999	820	0	0	0
2016/11/22 12:09:01	BASE	0.00	229	M	M	-2.0	86	-3.9	331	966	1000.2	NA	0.0000		9999	820	0	0	0
2016/11/22 12:10:01	BASE	0.00	230	M	M	-2.0	86	-4.0	335	975	1000.2	NA	0.0000		9999	820	0	0	0
2016/11/22 12:11:01	BASE	0.00	236	M	M	-2.0	86	-4.0	334	971	1000.1	NA	0.0000		9999	820	0	0	0
2016/11/22 12:12:01	BASE	0.00	237	M	M	-2.0	87	-4.0	338	980	1000.1	NA	0.0000		9999	850	0	0	0
2016/11/22 12:13:01	BASE	0.00	168	M	M	-2.0	87	-4.0	348	1002	1000.0	NA	0.0000		9999	820	0	0	0
2016/11/22 12:14:01	BASE	0.00	123	M	M	-2.0	87	-3.9	353	1020	1000.0	NA	0.0000		9999	790	0	0	0
2016/11/22 12:15:01	BASE	0.00	123	M	M	-1.9	87	-3.8	355	1023	999.9	NA	0.0000		9999	790	0	0	0
2016/11/22 12:16:01	BASE	0.00	123	M	M	-1.8	87	-3.7	357	1029	999.9	NA	0.0000		9999	790	0	0	0
2016/11/22 12:17:01	BASE	0.00	123	M	M	-1.7	86	-3.7	370	1053	999.9	NA	0.0000		9999	820	0	0	0
2016/11/22 12:18:01	BASE	0.00	123	M	M	-1.6	86	-3.6	384	1092	999.9	NA	0.0000		9999	820	0	0	0
2016/11/22 12:19:01	BASE	0.31	107	1.39	78	-1.5	86	-3.6	385	1098	999.9	NA	0.0000		9999	850	19160	0	0
2016/11/22 12:20:01	BASE	0.49	90	1.65	78	-1.5	85	-3.6	382	1092	999.9	NA	0.0000		9999	820	0	0	0
2016/11/22 12:21:01	BASE	0.17	91	1.65	78	-1.6	85	-3.8	377	1078	999.9	NA	0.0000		9999	790	0	0	0
2016/11/22 12:22:01	BASE	0.00	63	1.65	78	-1.7	86	-3.8	392	1121	999.9	NA	0.0000		9999	790	0	0	0
2016/11/22 12:23:01	BASE	0.00	44	1.65	78	-1.8	86	-3.9	415	1169	999.9	NA	0.0000		9999	790	0	0	0
2016/11/22 12:24:01	BASE	0.04	69	1.65	78	-1.9	86	-3.9	407	1151	999.9	NA	0.0000		9999	790	0	0	0
2016/11/22 12:25:01	BASE	0.38	92	1.65	78	-1.9	87	-3.8	371	1036	999.9	NA	0.0000		9999	790	0	0	0
2016/11/22 12:26:01	BASE	1.12	106	1.70	104	-1.9	87	-3.8	347	1000	999.9	NA	0.0000		9999	790	0	0	0
2016/11/22 12:27:01	BASE	1.55	104	1.80	102	-1.9	87	-3.8	345	997	999.9	NA	0.0000		9999	790	20600	0	0
2016/11/22 12:28:01	BASE	1.73	99	2.42	90	-2.0	87	-3.8	360	1051	999.9	NA	0.0000		9999	790	0	0	0
2016/11/22 12:29:01	BASE	1.88	100	2.42	90	-2.0	88	-3.8	365	1067	999.9	NA	0.0000		9999	790	0	0	0
2016/11/22 12:30:01	BASE	1.87	98	2.42	90	-2.0	88	-3.8	361	1057	999.9	NA	0.0000		9999	790	0	0	0
2016/11/22 12:31:01	BASE	1.86	87	2.42	90	-2.0	88	-3.8	372	1092	999.9	NA	0.0000		9999	750	0	0	0
2016/11/22 12:32:01	BASE	1.59	85	2.42	90	-2.1	88	-3.7	396	1157	999.9	NA	0.0000		9999	720	0	0	0
2016/11/22 12:33:01	BASE	1.19	90	2.42	90	-2.1	88	-3.7	396	1175	999.8	NA	0.0000		9999	720	0	0	0
2016/11/22 12:34:01	BASE	0.99	96	2.42	90	-2.1	89	-3.7	398	1159	999.8	NA	0.0000		9999	720	0	0	0
2016/11/22 12:35:01	BASE	1.28	107	2.42	90	-2.1	89	-3.7	390	1137	999.8	NA	0.0000		9999	720	0	0	0
2016/11/22 12:36:01	BASE	1.44	112	2.42	90	-2.1	89	-3.7	430	1228	999.8	NA	0.0000		9999	750	0	0	0
2016/11/22 12:37:01	BASE	1.23	114	2.42	90	-2.1	89	-3.7	476	1330	999.8	NA	0.0000		9999	750	0	0	0
2016/11/22 12:38:01	BASE	1.06	115	2.16	98	-2.1	89	-3.7	451	1229	999.8	NA	0.0000		9999	790	0	0	0
2016/11/22 12:39:01	BASE	0.48	115	2.16	98	-2.0	88	-3.7	452	1286	999.8	NA	0.0000		9999	750	0	0	0
2016/11/22 12:40:01	BASE	0.19	119	1.95	75	-2.0	88	-3.7	497	1350	999.8	NA	0.0000		9999	750	0	0	0
2016/11/22 12:41:01	BASE	0.23	125	1.85	108	-1.9	88	-3.6	528	1418	999.8	NA	0.0000		9999	790	0	0	0
2016/11/22 12:42:01	BASE	0.45	123	1.85	108	-1.8	88	-3.5	539	1448	999.8	NA	0.0000		9999	750	0	0	0
2016/11/22 12:43:01	BASE	1.33	120	2.26	103	-1.8	88	-3.5	497	1334	999.8	NA	0.0000		9999	820	0	0	0
2016/11/22 12:44:01	BASE	1.57	109	2.26	103	-1.7	88	-3.4	499	1347	999.8	NA	0.0000		9999	790	0	0	0
2016/11/22 12:45:01	BASE	1.29	100	2.26	103	-1.7	88	-3.5	522	1411	999.8	NA	0.0000		9999	820	0	0	0
2016/11/22 12:46:01	BASE	1.16	118	2.26	103	-1.7	87	-3.5	545	1462	999.8	NA	0.0000		9999	820	0	0	0
2016/11/22 12:47:01	BASE	1.19	136	2.26	103	-1.7	87	-3.5	535	1444	999.7	NA	0.0000		9999	790	0	0	0
2016/11/22 12:48:01	BASE	1.40	137	2.26	103	-1.7	87	-3.5	610	1515	999.7	NA	0.0000		9999	790	22310	0	0
2016/11/22 12:49:01	BASE	1.60	134	2.26	103	-1.7	87	-3.5	799	1515	999.7	NA	0.0000		9999	790	0	0	0
2016/11/22 12:50:01	BASE	1.65	143	2.26	103	-1.6	87	-3.4	794	1515	999.7	NA	0.0000		9999	820	0	0	0
2016/11/22 12:51:01	BASE	1.51	157	2.26	103	-1.6	87	-3.4	590	1515	999.7	NA	0.0000		9999	850	0	0	0
2016/11/22 12:52:01	BASE	1.93	157	2.83	151	-1.5	87	-3.4	561	1474	999.7	NA	0.0000		9999	890	0	0	0
2016/11/22 12:53:01	BASE	2.43	144	2.83	151	-1.5	87	-3.4	622	1514	999.7	NA	0.0000		9999	850	0	0	0
2016/11/22 12:54:01	BASE	2.06	133	2.83	151	-1.5	87	-3.4	720	1515	999.7	NA	0.0000		9999	950	0	0	0
2016/11/22 12:55:01	BASE	1.66	142	2.83	151	-1.5	87	-3.4	512	1366	999.7	NA	0.0000		9999	850	0	0	0
2016/11/22 12:56:01	BASE	1.63	148	2.83	151	-1.4	86	-3.4	636	1515	999.7	NA	0.0000		9999	850	0	0	0
2016/11/22 12:57:01	BASE	1.82	147	2.83	151	-1.4	86	-3.5	776	1515	999.7	NA	0.0000		9999	890	0	0	0
2016/11/22 12:58:01	BASE	2.17	147	2.83	151	-1.5	86	-3.5	606	1515	999.7	NA	0.0000		9999	890	0	0	0
2016/11/22 12:59:01	BASE	2.44	142	2.88	141	-1.4	86	-3.5	590	1509	999.7	NA	0.0000		9999	890	0	0	0
2016/11/22 13:00:01	BASE	2.39	138	2.88	141	-1.4	86	-3.5	626	1514	999.7	NA	0.0000		9999	890	0	0	0
2016/11/22 13:01:01	BASE	2.39	133	2.88	141	-1.4	86	-3.5	604	1515	999.7	NA	0.0000		9999	850	0	0	0
2016/11/22 13:02:01	BASE	2.65	129	3.24	129	-1.4	86	-3.5	636	1515	999.7	NA	0.0000		9999	850	0	0	0
2016/11/22 13:03:01	BASE	3.10	124	3.76	118	-1.5	86	-3.5	613	1515	999.7	NA	0.0000		9999	850	0	0	0
2016/11/22 13:04:01	BASE	3.45	122	3.81	125	-1.6	86	-3.6	588	1515	999.6	NA	0.0000		9999	850	0	0	0
2016/11/22 13:05:01	BASE	3.29	123	3.81	125	-1.7	86	-3.7	525	1379	999.6	NA	0.0000		9999	890	22900	0	0
2016/11/22 13:06:01	BASE	2.93	122	3.81	125	-1.7	86	-3.8	660	1514	999.6	NA	0.0000		9999	920	0	0	0
2016/11/22 13:07:01	BASE	3.04	125	3.81	125	-1.8	86	-3.8	670	1515	999.6	NA	0.0000		9999	890	0	0	0
2016/11/22 13:08:01	BASE	3.20	130	3.81	125	-1.8	87	-3.7	654	1515	999.5	NA	0.0000		9999	920	0	0	0
2016/11/22 13:09:01	BASE	3.02	126	3.81	125	-1.8	87	-3.7	619	1515	999.6	NA	0.0000		9999	0	0	0	0
2016/11/22 13:10:01	BASE	2.75	130	3.81	125	-1.7	87	-3.6	592	1514	999.6	NA	0.0000		9999	920	0	0	0
2016/11/22 13:11:01	BASE	2.42	137	3.81	125	-1.6	87	-3.5	614	1515	999.6	NA	0.0000		9999	850	0	0	0
2016/11/22 13:12:01	BASE	2.33	140	3.81	125	-1.6	87	-3.4	572	1478	999.6	NA	0.0000		9999	850	0	0	0
2016/11/22 13:13:01	BASE	2.20	141	3.81	125	-1.5	87	-3.4	502	1327	999.6	NA	0.0000		9999	820	0	0	0
2016/11/22 13:14:01	BASE	2.23	132	3.65	126	-1.5	87	-3.4	480	1277	999.6	NA	0.0000		9999	820	0	0	0
2016/11/22 13:15:01	BASE	2.60	121	3.65	126	-1.5	86	-3.5	464	1243	999.6	NA	0.0000		9999	820	0	0	0
2016/11/22 13:16:01	BASE	2.66	118	3.65	126	-1.5	86	-3.6	549	1439	999.6	NA	0.0000		9999	890	0	0	0
2016/11/22 13:17:01	BASE	2.46	120	3.55	132	-1.6	86	-3.6	583	1508	999.6	NA	0.0000		9999	850	0	0	0
2016/11/22 13:18:01	BASE	2.45	124	3.50	116	-1.7	86	-3.7	518	1361	999.6	NA	0.0000		9999	850	0	0	0
2016/11/22 13:19:01	BASE	2.69	124	3.09	121	-1.8	87	-3.7	540	1412	999.6	NA	0.0000		9999	890	0	0	0
2016/11/22 13:20:01	BASE	2.66	123	3.09	121	-1.8	87	-3.7	577	1495	999.6	NA	0.0000		9999	890	0	0	0
2016/11/22 13:21:01	BASE	2.60	131	3.09	121	-1.8	87	-3.6	625	1515	999.6	NA	0.0000		9999	920	0	0	0
2016/11/22 13:22:01	BASE	2.91	129	3.45	116	-1.7	87	-3.6	584	1513	999.6	NA	0.0000		9999	980	0	0	0
2016/11/22 13:23:01	BASE	2.72	121	3.45	116	-1.7	87	-3.6	618	1515	999.6	NA	0.0000		9999	950	0	0	0
2016/11/22 13:24:01	BASE	2.40	116	3.45	116	-1.7	87	-3.6	562	1452	999.6	NA	0.0000		9999	980	0	0	0
2016/11/22 13:25:01	BASE	2.43	113	3.45	116	-1.7	87	-3.6	663	1515	999.6	NA	0.0000		9999	17780	19360	0	0
2016/11/22 13:26:01	BASE	2.11	117	3.45	116	-1.7	87	-3.6	675	1515	999.6	NA	0.0000		9999	0	0	0	0
2016/11/22 13:27:01	BASE	1.87	122	3.45	116	-1.7	87	-3.6	677	1514	999.6	NA	0.0000		9999	950	0	0	0
2016/11/22 13:28:01	BASE	2.07	130	3.45	116	-1.6	87	-3.5	655	1515	999.6	NA	0.0000		9999	920	0	0	0
2016/11/22 13:29:01	BASE	2.31	139	3.45	116	-1.6	87	-3.5	652	1515	999.6	NA	0.0000		9999	0	0	0	0
2016/11/22 13:30:01	BASE	2.37	140	3.45	116	-1.5	87	-3.4	642	1515	999.6	NA	0.0000		9999	0	0	0	0
2016/11/22 13:31:00	BASE	2.25	142	3.45	116	-1.4	86	-3.4	594	1464	999.6	NA	0.0000		9999	19920	0	0	0
2016/11/22 13:32:00	BASE	2.16	139	2.93	117	-1.4	86	-3.4	603	1478	999.7	NA	0.0000		9999	0	0	0	0
2016/11/22 13:33:00	BASE	2.16	131	2.73	115	-1.4	85	-3.5	596	1462	999.6	NA	0.0000		9999	0	0	0	0
2016/11/22 13:34:00	BASE	2.16	125	2.73	115	-1.4	85	-3.6	626	1515	999.6	NA	0.0000		9999	0	0	0	0
2016/11/22 13:35:00	BASE	2.23	125	2.62	122	-1.5	85	-3.7	640	1515	999.7	NA	0.0000		9999	17650	0	0	0
2016/11/22 13:36:00	BASE	2.10	131	2.62	122	-1.5	85	-3.7	625	1515	999.7	NA	0.0000		9999	0	0	0	0
2016/11/22 13:37:00	BASE	1.61	136	2.62	122	-1.5	85	-3.7	623	1514	999.6	NA	0.0000		9999	0	0	0	0
2016/11/22 13:38:00	BASE	1.31	135	2.62	122	-1.5	85	-3.6	624	1515	999.6	NA	0.0000		9999	0	0	0	0
2016/11/22 13:39:00	BASE	1.28	129	2.62	122	-1.4	85	-3.5	634	1515	999.6	NA	0.0000		9999	0	0	0	0
2016/11/22 13:40:00	BASE	1.58	121	2.62	122	-1.3	85	-3.5	652	1515	999.6	NA	0.0000		9999	0	0	0	0
2016/11/22 13:41:00	BASE	1.70	117	2.62	122	-1.4	85	-3.6	688	1515	999.5	NA	0.0000		9999	0	0	0	0
2016/11/22 13:42:00	BASE	1.60	121	2.62	122	-1.4	85	-3.6	697	1515	999.6	NA	0.0000		9999	0	0	0	0
2016/11/22 13:43:00	BASE	1.80	130	2.62	122	-1.5	85	-3.7	716	1514	999.6	NA	0.0000		9999	0	0	0	0
2016/11/22 13:44:00	BASE	1.92	137	2.57	128	-1.4	85	-3.6	742	1515	999.5	NA	0.0000		9999	0	0	0	0
2016/11/22 13:45:00	BASE	1.65	133	2.21	133	-1.4	85	-3.6	743	1514	999.5	NA	0.0000		9999	0	0	0	0
2016/11/22 13:46:00	BASE	1.45	130	2.16	137	-1.3	85	-3.5	755	1515	999.5	NA	0.0000		9999	9740	0	0	0
2016/11/22 13:47:00	BASE	1.53	121	2.16	137	-1.2	85	-3.3	763	1515	999.5	NA	0.0000		9999	9710	0	0	0
2016/11/22 13:48:00	BASE	1.64	116	2.16	137	-1.1	85	-3.3	717	1515	999.5	NA	0.0000		9999	9710	22180	0	0
2016/11/22 13:49:00	BASE	1.85	121	2.37	123	-1.2	85	-3.5	600	1469	999.5	NA	0.0000		9999	9780	0	0	0
2016/11/22 13:50:00	BASE	1.71	123	2.37	123	-1.2	85	-3.5	569	1415	999.5	NA	0.0000		9999	9610	0	0	0
2016/11/22 13:51:00	BASE	0.88	117	2.37	123	-1.3	85	-3.6	583	1448	999.5	NA	0.0000		9999	9290	0	0	0
2016/11/22 13:52:00	BASE	0.59	113	2.37	123	-1.4	85	-3.7	597	1478	999.5	NA	0.0000		9999	9320	0	0	0
2016/11/22 13:53:00	BASE	0.74	124	2.37	123	-1.4	85	-3.7	594	1476	999.5	NA	0.0000		9999	9190	0	0	0
2016/11/22 13:54:00	BASE	0.91	124	2.37	123	-1.4	85	-3.6	592	1472	999.5	NA	0.0000		9999	9190	9680	0	0
2016/11/22 13:55:00	BASE	1.01	122	2.37	123	-1.4	85	-3.7	562	1403	999.4	NA	0.0000		9999	9580	0	0	0
2016/11/22 13:56:00	BASE	0.49	130	2.37	123	-1.4	84	-3.7	569	1408	999.4	NA	0.0000		9999	9680	0	0	0
2016/11/22 13:57:00	BASE	0.85	131	2.37	123	-1.3	84	-3.6	583	1447	999.4	NA	0.0000		9999	9680	0	0	0
2016/11/22 13:58:00	BASE	1.49	125	2.37	123	-1.3	84	-3.6	585	1468	999.4	NA	0.0000		9999	9680	0	0	0
2016/11/22 13:59:00	BASE	1.38	118	1.75	132	-1.3	84	-3.6	625	1515	999.4	NA	0.0000		9999	9780	0	0	0
2016/11/22 14:00:00	BASE	0.87	122	1.75	132	-1.3	84	-3.6	661	1515	999.4	NA	0.0000		9999	9810	0	0	0
2016/11/22 14:01:00	BASE	1.06	125	2.06	124	-1.3	84	-3.6	673	1515	999.4	NA	0.0000		9999	9810	0	0	0
2016/11/22 14:02:00	BASE	1.66	123	2.06	124	-1.3	84	-3.7	724	1514	999.4	NA	0.0000		9999	9880	0	0	0
2016/11/22 14:03:00	BASE	1.48	125	2.06	124	-1.4	84	-3.7	694	1515	999.3	NA	0.0000		9999	0	0	0	0
2016/11/22 14:04:00	BASE	1.16	126	2.06	124	-1.4	84	-3.7	739	1514	999.3	NA	0.0000		9999	0	0	0	0
2016/11/22 14:05:00	BASE	1.18	121	2.06	124	-1.3	84	-3.6	752	1515	999.3	NA	0.0000		9999	0	0	0	0
2016/11/22 14:06:00	BASE	1.20	110	2.06	124	-1.3	84	-3.7	754	1515	999.2	NA	0.0000		9999	0	0	0	0
2016/11/22 14:07:00	BASE	0.59	100	2.06	124	-1.3	84	-3.7	731	1515	999.2	NA	0.0000		9999	0	0	0	0
2016/11/22 14:08:00	BASE	0.32	112	2.06	124	-1.3	84	-3.7	760	1515	999.2	NA	0.0000		9999	0	0	0	0
2016/11/22 14:09:00	BASE	0.28	128	2.06	124	-1.3	84	-3.7	757	1514	999.1	NA	0.0000		9999	0	0	0	0
2016/11/22 14:10:00	BASE	0.00	130	2.06	124	-1.3	84	-3.7	764	1514	999.1	NA	0.0000		9999	9510	0	0	0
2016/11/22 14:11:00	BASE	0.52	130	1.80	115	-1.3	84	-3.7	783	1514	999.1	NA	0.0000		9999	9420	0	0	0
2016/11/22 14:12:00	BASE	1.19	123	1.80	115	-1.3	84	-3.7	613	1478	999.1	NA	0.0000		9999	9450	0	0	0
2016/11/22 14:13:00	BASE	1.41	117	1.75	127	-1.3	84	-3.7	704	1515	999.0	NA	0.0000		9999	9380	0	0	0
2016/11/22 14:14:00	BASE	1.37	119	1.75	127	-1.3	84	-3.7	745	1514	999.0	NA	0.0000		9999	9350	0	0	0
2016/11/22 14:15:00	BASE	1.46	119	2.06	128	-1.3	84	-3.7	741	1514	999.0	NA	0.0000		9999	9350	0	0	0
2016/11/22 14:16:00	BASE	1.63	111	2.06	128	-1.3	84	-3.6	720	1514	999.0	NA	0.0000		9999	9380	0	0	0
2016/11/22 14:17:00	BASE	1.57	104	2.06	128	-1.3	84	-3.5	745	1514	999.0	NA	0.0000		9999	9350	0	0	0
2016/11/22 14:18:00	BASE	1.45	107	2.06	128	-1.2	84	-3.5	857	1515	999.0	NA	0.0000		9999	9320	0	0	0
2016/11/22 14:19:00	BASE	1.57	110	2.31	113	-1.2	84	-3.5	692	1515	998.9	NA	0.0000		9999	9320	0	0	0
2016/11/22 14:20:00	BASE	2.00	114	2.62	110	-1.3	84	-3.6	684	1514	998.9	NA	0.0000		9999	9320	0	0	0
2016/11/22 14:21:00	BASE	2.18	113	2.62	110	-1.3	84	-3.7	615	1514	998.9	NA	0.0000		9999	9290	13160	0	0
2016/11/22 14:22:00	BASE	2.04	113	2.62	110	-1.4	84	-3.7	621	1515	998.9	NA	0.0000		9999	9320	13060	0	0
2016/11/22 14:23:00	BASE	1.95	113	2.62	110	-1.4	84	-3.7	600	1489	998.9	NA	0.0000		9999	9250	13030	0	0
2016/11/22 14:24:00	BASE	1.99	112	2.62	110	-1.5	85	-3.7	591	1456	998.9	NA	0.0000		9999	9190	13160	0	0
2016/11/22 14:25:00	BASE	1.96	114	2.62	110	-1.5	85	-3.7	617	1514	998.9	NA	0.0000		9999	13120	0	0	0
2016/11/22 14:26:00	BASE	1.76	117	2.62	110	-1.5	85	-3.6	589	1463	998.8	NA	0.0000		9999	9320	13190	0	0
2016/11/22 14:27:00	BASE	1.61	119	2.62	110	-1.4	85	-3.6	600	1504	998.8	NA	0.0000		9999	9220	13160	0	0
2016/11/22 14:28:00	BASE	1.66	119	2.62	110	-1.4	86	-3.5	616	1515	998.8	NA	0.0000		9999	9190	13220	0	0
2016/11/22 14:29:00	BASE	1.81	123	2.62	110	-1.4	86	-3.4	621	1515	998.8	NA	0.0000		9999	9220	13290	0	0
2016/11/22 14:30:00	BASE	1.81	127	2.52	107	-1.3	86	-3.4	618	1515	998.8	NA	0.0000		9999	9250	13090	0	0
2016/11/22 14:31:00	BASE	1.53	132	2.37	109	-1.3	86	-3.3	630	1515	998.8	NA	0.0000		9999	9190	0	0	0
2016/11/22 14:32:00	BASE	1.28	134	2.37	109	-1.2	86	-3.3	647	1514	998.8	NA	0.0000		9999	9220	22870	0	0
2016/11/22 14:33:00	BASE	1.35	131	2.21	127	-1.0	86	-3.1	639	1514	998.8	NA	0.0000		9999	9250	0	0	0
2016/11/22 14:34:00	BASE	1.53	129	2.21	127	-0.9	85	-3.1	627	1515	998.7	NA	0.0000		9999	9220	0	0	0
2016/11/22 14:35:00	BASE	1.55	127	2.21	127	-0.9	84	-3.2	619	1514	998.6	NA	0.0000		9999	9220	0	0	0
2016/11/22 14:36:00	BASE	1.53	120	2.21	127	-0.9	84	-3.3	611	1514	998.6	NA	0.0000		9999	9150	0	0	0
2016/11/22 14:37:00	BASE	1.83	121	2.31	138	-1.0	84	-3.4	618	1515	998.6	NA	0.0000		9999	9060	0	0	0
2016/11/22 14:38:00	BASE	2.24	130	2.68	130	-1.1	84	-3.5	653	1515	998.6	NA	0.0000		9999	9190	0	0	0
2016/11/22 14:39:00	BASE	2.14	138	2.68	130	-1.1	85	-3.4	705	1515	998.5	NA	0.0000		9999	9150	13160	0	0
2016/11/22 14:40:00	BASE	1.40	140	2.68	130	-1.1	85	-3.2	726	1515	998.6	NA	0.0000		9999	13090	0	0	0
2016/11/22 14:41:00	BASE	1.12	132	2.68	130	-0.9	86	-3.0	689	1515	998.5	NA	0.0000		9999	8600	13290	0	0
2016/11/22 14:42:00	BASE	1.57	126	2.68	130	-0.9	85	-3.1	637	1515	998.5	NA	0.0000		9999	8600	0	0	0
2016/11/22 14:43:00	BASE	1.82	129	2.68	130	-1.0	85	-3.2	610	1515	998.6	NA	0.0000		9999	8500	0	0	0
2016/11/22 14:44:00	BASE	1.78	133	2.68	130	-1.0	85	-3.2	615	1514	998.6	NA	0.0000		9999	8500	0	0	0
2016/11/22 14:45:00	BASE	1.62	132	2.68	130	-1.0	85	-3.2	605	1514	998.6	NA	0.0000		9999	8460	0	0	0
2016/11/22 14:46:00	BASE	1.53	129	2.68	130	-1.0	85	-3.2	595	1503	998.6	NA	0.0000		9999	8430	0	0	0
2016/11/22 14:47:00	BASE	1.66	140	2.68	130	-0.9	85	-3.2	584	1481	998.6	NA	0.0000		9999	8500	20670	0	0
2016/11/22 14:48:00	BASE	1.67	143	2.37	133	-0.9	85	-3.1	590	1500	998.6	NA	0.0000		9999	8460	20240	23070	0
2016/11/22 14:49:00	BASE	1.52	135	2.37	133	-1.0	85	-3.2	593	1504	998.6	NA	0.0000		9999	8500	0	0	0
2016/11/22 14:50:00	BASE	1.18	136	2.37	133	-1.1	85	-3.3	591	1499	998.6	NA	0.0000		9999	8500	0	0	0
2016/11/22 14:51:00	BASE	1.13	137	2.37	133	-1.2	85	-3.4	607	1515	998.6	NA	0.0000		9999	8500	18500	0	0
2016/11/22 14:52:00	BASE	1.27	140	2.01	132	-1.2	86	-3.3	625	1514	998.6	NA	0.0000		9999	8500	0	0	0
2016/11/22 14:53:00	BASE	0.98	139	2.01	132	-1.1	86	-3.2	647	1515	998.6	NA	0.0000		9999	8530	0	0	0
2016/11/22 14:54:00	BASE	1.19	129	2.01	132	-1.0	86	-3.0	632	1515	998.6	NA	0.0000		9999	8530	0	0	0
2016/11/22 14:55:00	BASE	1.64	129	2.01	132	-0.9	86	-3.0	625	1514	998.6	NA	0.0000		9999	8530	0	0	0
2016/11/22 14:56:00	BASE	1.46	140	2.01	132	-0.8	85	-3.0	624	1515	998.7	NA	0.0000		9999	8560	0	0	0
2016/11/22 14:57:00	BASE	1.10	153	2.01	132	-0.9	85	-3.1	619	1514	998.8	NA	0.0000		9999	8530	0	0	0
2016/11/22 14:58:00	BASE	0.67	163	1.95	140	-1.0	85	-3.2	611	1515	998.8	NA	0.0000		9999	8460	0	0	0
2016/11/22 14:59:00	BASE	0.19	165	1.95	140	-1.1	85	-3.2	607	1514	998.8	NA	0.0000		9999	8430	0	0	0
2016/11/22 15:00:00	BASE	0.00	166	1.95	140	-1.1	85	-3.2	606	1514	998.8	NA	0.0000		9999	8430	0	0	0
2016/11/22 15:01:00	BASE	0.04	183	1.90	141	-1.1	85	-3.2	612	1514	998.8	NA	0.0000		9999	8330	0	0	0
2016/11/22 15:02:00	BASE	0.04	199	1.90	141	-1.0	86	-3.1	621	1515	998.8	NA	0.0000		9999	8300	0	0	0
2016/11/22 15:03:00	BASE	0.00	198	1.90	141	-1.0	85	-3.1	631	1515	998.8	NA	0.0000		9999	8270	0	0	0
2016/11/22 15:04:00	BASE	0.00	203	1.90	141	-0.9	85	-3.1	629	1515	998.8	NA	0.0000		9999	8200	0	0	0
2016/11/22 15:05:00	BASE	0.31	212	1.90	141	-0.7	85	-3.0	625	1515	998.8	NA	0.0000		9999	8200	0	0	0
2016/11/22 15:06:00	BASE	0.35	217	1.34	220	-0.7	84	-3.0	624	1514	998.8	NA	0.0000		9999	8140	16080	0	0
2016/11/22 15:07:00	BASE	0.05	215	1.34	220	-0.7	84	-3.2	616	1515	998.8	NA	0.0000		9999	8140	0	0	0
2016/11/22 15:08:00	BASE	0.00	208	1.34	220	-0.7	84	-3.1	606	1515	998.8	NA	0.0000		9999	8200	0	0	0
2016/11/22 15:09:00	BASE	0.00	205	1.34	220	-0.8	84	-3.2	612	1514	998.8	NA	0.0000		9999	8140	0	0	0
2016/11/22 15:10:00	BASE	0.00	207	1.34	220	-0.9	84	-3.2	600	1514	998.8	NA	0.0000		9999	8140	0	0	0
2016/11/22 15:11:00	BASE	0.33	227	1.34	220	-0.8	84	-3.1	591	1506	998.9	NA	0.0000		9999	8100	0	0	0
2016/11/22 15:12:00	BASE	0.33	246	1.34	220	-0.8	84	-3.1	581	1493	998.9	NA	0.0000		9999	8040	19920	0	0
2016/11/22 15:13:00	BASE	0.05	241	1.34	220	-0.8	84	-3.2	581	1489	998.9	NA	0.0000		9999	8040	0	0	0
2016/11/22 15:14:00	BASE	0.48	231	1.34	220	-0.8	84	-3.2	581	1494	998.9	NA	0.0000		9999	8070	0	0	0
2016/11/22 15:15:00	BASE	0.97	234	1.29	248	-0.9	84	-3.2	578	1492	998.9	NA	0.0000		9999	7970	21160	22610	0
2016/11/22 15:16:00	BASE	1.50	258	2.52	281	-1.0	85	-3.2	573	1481	998.9	NA	0.0000		9999	8140	0	0	0
2016/11/22 15:17:00	BASE	2.22	280	2.78	282	-1.0	85	-3.1	576	1487	999.0	NA	0.0000		9999	8140	0	0	0
2016/11/22 15:18:00	BASE	2.49	281	2.78	282	-0.9	86	-3.0	571	1475	999.0	NA	0.0000		9999	8140	0	0	0
2016/11/22 15:19:00	BASE	2.49	282	2.78	285	-0.8	85	-3.0	562	1451	999.0	NA	0.0000		9999	8140	0	0	0
2016/11/22 15:20:00	BASE	2.50	283	2.78	285	-0.7	85	-2.9	555	1440	999.0	NA	0.0000		9999	8140	0	0	0
2016/11/22 15:21:00	BASE	2.43	277	2.78	285	-0.6	85	-2.9	548	1430	999.0	NA	0.0000		9999	8140	0	0	0
2016/11/22 15:22:00	BASE	2.31	276	2.78	285	-0.6	84	-2.9	541	1415	999.0	NA	0.0000		9999	8100	0	0	0
2016/11/22 15:23:00	BASE	2.25	278	2.78	285	-0.7	84	-3.1	541	1414	999.0	NA	0.0000		9999	8070	0	0	0
2016/11/22 15:24:00	BASE	2.20	278	2.78	285	-0.7	84	-3.1	543	1417	999.0	NA	0.0000		9999	8010	0	0	0
2016/11/22 15:25:00	BASE	2.27	278	2.78	285	-0.7	84	-3.0	546	1423	999.0	NA	0.0000		9999	8070	0	0	0
2016/11/22 15:26:00	BASE	2.37	278	2.78	285	-0.7	84	-3.0	550	1432	999.0	NA	0.0000		9999	8270	0	0	0
2016/11/22 15:27:00	BASE	2.39	281	2.78	285	-0.6	84	-3.0	556	1446	999.0	NA	0.0000		9999	8300	0	0	0
2016/11/22 15:28:00	BASE	2.37	280	2.78	285	-0.6	84	-2.9	565	1467	999.0	NA	0.0000		9999	8200	0	0	0
2016/11/22 15:29:00	BASE	2.23	278	2.73	274	-0.6	84	-2.9	570	1474	999.0	NA	0.0000		9999	8140	21750	0	0
2016/11/22 15:30:00	BASE	2.23	276	2.78	251	-0.5	84	-2.9	572	1477	999.0	NA	0.0000		9999	8140	0	0	0
2016/11/22 15:31:00	BASE	2.24	275	2.78	251	-0.5	84	-2.9	569	1467	999.0	NA	0.0000		9999	8140	0	0	0
2016/11/22 15:32:00	BASE	2.20	277	2.78	251	-0.4	84	-2.8	565	1460	999.0	NA	0.0000		9999	8100	0	0	0
2016/11/22 15:33:00	BASE	2.18	274	2.78	251	-0.3	83	-2.8	559	1451	999.0	NA	0.0000		9999	8070	0	0	0
2016/11/22 15:34:00	BASE	2.19	271	2.98	261	-0.3	83	-2.9	553	1440	999.0	NA	0.0000		9999	8010	0	0	0
2016/11/22 15:35:00	BASE	2.16	270	2.98	261	-0.3	83	-2.9	547	1427	999.0	NA	0.0000		9999	8100	0	0	0
2016/11/22 15:36:00	BASE	2.09	269	2.98	261	-0.3	83	-2.9	541	1418	999.0	NA	0.0000		9999	8200	0	0	0
2016/11/22 15:37:00	BASE	2.06	267	2.98	261	-0.4	83	-3.0	537	1414	998.9	NA	0.0000		9999	8200	0	0	0
2016/11/22 15:38:00	BASE	2.18	264	2.98	261	-0.5	83	-3.0	536	1413	999.0	NA	0.0000		9999	8270	0	0	0
2016/11/22 15:39:00	BASE	2.23	260	2.98	261	-0.6	84	-3.0	538	1420	999.0	NA	0.0000		9999	1020	8270	0	0
2016/11/22 15:40:00	BASE	1.98	258	2.98	261	-0.7	84	-3.0	540	1423	999.0	NA	0.0000		9999	8270	0	0	0
2016/11/22 15:41:00	BASE	1.73	257	2.98	261	-0.8	84	-3.1	541	1426	999.0	NA	0.0000		9999	8270	0	0	0
2016/11/22 15:42:00	BASE	1.74	262	2.98	261	-0.8	85	-3.0	541	1428	999.0	NA	0.0000		9999	1150	8270	0	0
2016/11/22 15:43:00	BASE	1.90	259	2.98	261	-0.8	85	-3.0	541	1432	999.0	NA	0.0000		9999	8400	0	0	0
2016/11/22 15:44:00	BASE	1.99	248	2.78	269	-0.9	85	-3.1	539	1427	999.0	NA	0.0000		9999	8300	0	0	0
2016/11/22 15:45:00	BASE	2.23	241	2.78	269	-0.9	85	-3.1	537	1427	999.0	NA	0.0000		9999	8300	0	0	0
2016/11/22 15:46:00	BASE	2.44	239	2.78	250	-1.0	85	-3.2	535	1424	999.0	NA	0.0000		9999	8300	0	0	0
2016/11/22 15:47:00	BASE	2.27	242	2.78	250	-1.0	85	-3.2	527	1409	999.0	NA	0.0000		9999	8330	0	0	0
2016/11/22 15:48:00	BASE	2.03	247	2.78	250	-1.1	85	-3.3	513	1377	998.9	NA	0.0000		9999	850	8270	0	0
2016/11/22 15:49:00	BASE	2.03	249	2.78	250	-1.1	86	-3.2	509	1374	999.0	NA	0.0000		9999	820	0	0	0
2016/11/22 15:50:00	BASE	2.20	244	2.78	250	-1.1	86	-3.1	504	1365	998.9	NA	0.0000		9999	820	0	0	0
2016/11/22 15:51:00	BASE	2.20	237	2.78	250	-1.0	86	-3.1	499	1352	998.9	NA	0.0000		9999	850	0	0	0
2016/11/22 15:52:00	BASE	2.16	222	2.78	250	-1.0	86	-3.0	503	1360	999.0	NA	0.0000		9999	850	0	0	0
2016/11/22 15:53:00	BASE	2.23	206	2.78	250	-0.9	86	-2.9	514	1386	998.9	NA	0.0000		9999	850	0	0	0
2016/11/22 15:54:00	BASE	2.57	199	3.34	201	-0.9	86	-2.9	526	1408	998.9	NA	0.0000		9999	790	0	0	0
2016/11/22 15:55:00	BASE	2.96	200	3.34	201	-0.9	86	-2.9	527	1409	998.9	NA	0.0000		9999	750	0	0	0
2016/11/22 15:56:00	BASE	2.86	203	3.34	201	-0.9	87	-2.8	517	1387	998.9	NA	0.0000		9999	750	8270	0	0
2016/11/22 15:57:00	BASE	2.69	201	3.34	201	-0.9	87	-2.8	513	1379	998.9	NA	0.0000		9999	720	8370	0	0
2016/11/22 15:58:00	BASE	2.76	204	3.34	201	-0.9	87	-2.8	511	1374	998.9	NA	0.0000		9999	750	0	0	0
2016/11/22 15:59:00	BASE	2.80	206	3.34	201	-1.0	87	-2.8	511	1373	998.9	NA	0.0000		9999	750	8530	0	0
2016/11/22 16:00:00	BASE	2.70	203	3.34	201	-1.0	88	-2.8	511	1372	998.9	NA	0.0000		9999	7740	8500	0	0
2016/11/22 16:01:00	BASE	2.87	203	3.34	205	-1.0	88	-2.7	512	1375	998.9	NA	0.0000		9999	790	0	0	0
2016/11/22 16:02:00	BASE	3.01	208	3.34	205	-1.0	89	-2.6	513	1376	998.9	NA	0.0000		9999	750	7580	0	0
2016/11/22 16:03:00	BASE	2.87	207	3.34	205	-1.0	89	-2.6	511	1374	998.9	NA	0.0000		9999	660	7680	0	0
2016/11/22 16:04:00	BASE	2.87	200	3.34	205	-1.0	90	-2.5	511	1374	998.9	NA	0.0000		9999	7680	8330	0	0
2016/11/22 16:05:00	BASE	2.90	198	3.34	205	-1.0	90	-2.5	509	1370	998.9	NA	0.0000		9999	7870	0	0	0
2016/11/22 16:06:00	BASE	2.79	198	3.34	205	-1.0	90	-2.4	506	1364	998.9	NA	0.0000		9999	7840	0	0	0
2016/11/22 16:07:00	BASE	2.87	201	3.45	211	-1.0	90	-2.4	504	1361	998.9	NA	0.0000		9999	7840	0	0	0
2016/11/22 16:08:00	BASE	3.12	204	3.55	209	-0.9	90	-2.4	505	1363	998.9	NA	0.0000		9999	7910	0	0	0
2016/11/22 16:09:00	BASE	3.28	204	3.55	205	-0.9	90	-2.4	510	1370	998.9	NA	0.0000		9999	8240	0	0	0
2016/11/22 16:10:00	BASE	3.24	202	3.55	205	-1.0	90	-2.4	516	1383	998.9	NA	0.0000		9999	7870	0	0	0
2016/11/22 16:11:00	BASE	3.16	203	3.55	205	-1.0	90	-2.4	521	1392	998.9	NA	0.0000		9999	7810	0	0	0
2016/11/22 16:12:00	BASE	3.06	204	3.55	205	-1.0	90	-2.5	523	1395	998.8	NA	0.0000		9999	7870	8760	0	0
2016/11/22 16:13:00	BASE	2.81	202	3.55	205	-1.1	90	-2.5	525	1399	998.9	NA	0.0000		9999	7780	0	0	0
2016/11/22 16:14:00	BASE	2.87	209	3.60	217	-1.0	90	-2.5	525	1399	998.8	NA	0.0000		9999	7810	0	0	0
2016/11/22 16:15:00	BASE	2.94	214	3.60	217	-1.1	90	-2.5	526	1401	998.8	NA	0.0000		9999	7840	0	0	0
2016/11/22 16:16:00	BASE	3.15	213	3.76	212	-1.1	90	-2.5	525	1402	998.8	NA	0.0000		9999	8170	0	0	0
2016/11/22 16:17:00	BASE	3.41	215	4.01	213	-1.1	90	-2.5	526	1404	998.8	NA	0.0000		9999	10890	0	0	0
2016/11/22 16:18:00	BASE	3.65	218	4.32	217	-1.1	90	-2.5	525	1403	998.8	NA	0.0000		9999	7870	0	0	0
2016/11/22 16:19:00	BASE	3.68	220	4.32	217	-1.1	90	-2.5	526	1404	998.8	NA	0.0000		9999	7870	0	0	0
2016/11/22 16:20:00	BASE	3.33	225	4.32	217	-1.0	90	-2.4	528	1408	998.8	NA	0.0000		9999	7910	0	0	0
2016/11/22 16:21:00	BASE	3.05	232	4.32	217	-1.0	91	-2.3	530	1413	998.8	NA	0.0000		9999	7970	0	0	0
2016/11/22 16:22:00	BASE	3.11	232	4.32	217	-0.9	91	-2.3	532	1419	998.8	NA	0.0000		9999	7910	0	0	0
2016/11/22 16:23:00	BASE	3.04	226	4.32	217	-0.9	91	-2.2	532	1416	998.8	NA	0.0000		9999	8070	0	0	0
2016/11/22 16:24:00	BASE	2.57	238	4.32	217	-0.8	90	-2.2	532	1416	998.8	NA	0.0000		9999	8040	0	0	0
2016/11/22 16:25:00	BASE	2.46	249	4.32	217	-0.8	90	-2.2	529	1406	998.8	NA	0.0000		9999	7940	0	0	0
2016/11/22 16:26:00	BASE	2.40	239	4.32	217	-0.7	89	-2.3	526	1402	998.7	NA	0.0000		9999	7940	22900	0	0
2016/11/22 16:27:00	BASE	2.04	235	4.32	217	-0.7	89	-2.3	523	1392	998.7	NA	0.0000		9999	8040	0	0	0
2016/11/22 16:28:00	BASE	1.74	258	4.17	229	-0.6	89	-2.3	520	1385	998.8	NA	0.0000		9999	8010	0	0	0
2016/11/22 16:29:00	BASE	1.89	282	4.17	229	-0.5	88	-2.2	520	1388	998.7	NA	0.0000		9999	8070	0	0	0
2016/11/22 16:30:00	BASE	2.19	285	4.17	229	-0.3	87	-2.2	521	1390	998.6	NA	0.0000		9999	7940	0	0	0
2016/11/22 16:31:00	BASE	2.43	289	4.17	229	-0.2	86	-2.2	522	1392	998.6	NA	0.0000		9999	7970	0	0	0
2016/11/22 16:32:00	BASE	2.43	309	3.14	222	-0.0	86	-2.1	523	1392	998.6	NA	0.0000		9999	7970	0	0	0
2016/11/22 16:33:00	BASE	2.38	337	2.83	231	0.0	85	-2.2	521	1388	998.7	NA	0.0000		9999	8100	0	0	0
2016/11/22 16:34:00	BASE	2.25	9	2.83	231	0.1	84	-2.2	517	1380	998.8	NA	0.0000		9999	7970	0	0	0
2016/11/22 16:35:00	BASE	2.16	34	2.83	231	0.1	84	-2.2	512	1371	998.7	NA	0.0000		9999	8010	0	0	0
2016/11/22 16:36:00	BASE	2.32	41	2.68	354	0.0	84	-2.3	505	1358	998.7	NA	0.0000		9999	8070	0	0	0
2016/11/22 16:37:00	BASE	2.36	40	3.24	33	-0.0	85	-2.3	499	1342	998.8	NA	0.0000		9999	7550	0	0	0
2016/11/22 16:38:00	BASE	2.35	43	3.24	33	-0.0	85	-2.3	493	1330	998.7	NA	0.0000		9999	7940	0	0	0
2016/11/22 16:39:00	BASE	1.78	59	3.24	33	-0.1	85	-2.3	483	1312	998.6	NA	0.0000		9999	9250	0	0	0
2016/11/22 16:40:00	BASE	1.46	53	3.24	33	-0.2	85	-2.3	474	1291	998.6	NA	0.0000		9999	8430	0	0	0
2016/11/22 16:41:00	BASE	1.79	23	3.24	33	-0.2	86	-2.3	464	1273	998.6	NA	0.0000		9999	8960	0	0	0
2016/11/22 16:42:00	BASE	1.56	17	3.24	33	-0.3	86	-2.3	456	1257	998.6	NA	0.0000		9999	20510	23070	0	0
2016/11/22 16:43:00	BASE	1.55	35	3.24	33	-0.3	86	-2.3	450	1247	998.6	NA	0.0000		9999	9480	0	0	0
2016/11/22 16:44:00	BASE	1.92	62	3.24	33	-0.2	86	-2.2	446	1241	998.6	NA	0.0000		9999	9350	0	0	0
2016/11/22 16:45:00	BASE	1.86	71	3.24	33	-0.2	86	-2.2	445	1241	998.6	NA	0.0000		9999	0	0	0	0
2016/11/22 16:46:00	BASE	2.05	63	3.24	33	-0.2	86	-2.2	443	1239	998.6	NA	0.0000		9999	12110	0	0	0
2016/11/22 16:47:00	BASE	2.56	67	3.09	75	-0.1	86	-2.1	442	1240	998.6	NA	0.0000		9999	9450	0	0	0
2016/11/22 16:48:00	BASE	2.65	70	3.09	75	-0.2	86	-2.2	442	1241	998.6	NA	0.0000		9999	9450	0	0	0
2016/11/22 16:49:00	BASE	2.06	42	3.09	75	-0.2	86	-2.3	442	1244	998.5	NA	0.0000		9999	9550	0	0	0
2016/11/22 16:50:00	BASE	1.31	22	3.09	75	-0.2	86	-2.2	446	1256	998.5	NA	0.0000		9999	9680	0	0	0
2016/11/22 16:51:00	BASE	3.08	50	6.12	60	-0.2	86	-2.2	451	1267	998.5	NA	0.0000		9999	9290	0	0	0
2016/11/22 16:52:00	BASE	5.15	68	6.12	60	-0.2	86	-2.2	457	1281	998.5	NA	0.0000		9999	8330	0	0	0
2016/11/22 16:53:00	BASE	4.98	72	6.12	60	-0.3	87	-2.2	462	1292	998.5	NA	0.0000		9999	9380	0	0	0
2016/11/22 16:54:00	BASE	5.31	81	6.48	85	-0.3	87	-2.3	465	1297	998.4	NA	0.0000		9999	8860	0	0	0
2016/11/22 16:55:00	BASE	5.25	87	6.48	85	-0.5	87	-2.4	466	1301	998.4	NA	0.0000		9999	8920	0	0	0
2016/11/22 16:56:00	BASE	4.24	83	6.48	85	-0.6	87	-2.4	468	1303	998.4	NA	0.0000		9999	8990	0	0	0
2016/11/22 16:57:00	BASE	4.43	85	6.48	85	-0.6	88	-2.4	468	1303	998.4	NA	0.0000		9999	8790	0	0	0
2016/11/22 16:58:00	BASE	5.25	87	6.48	85	-0.7	88	-2.4	467	1301	998.3	NA	0.0000		9999	8300	0	0	0
2016/11/22 16:59:00	BASE	5.02	84	6.48	85	-0.7	88	-2.4	464	1292	998.3	NA	0.0000		9999	7350	0	0	0
2016/11/22 17:00:00	BASE	5.31	86	6.48	89	-0.7	89	-2.3	461	1284	998.3	NA	0.0000		9999	6920	0	0	0
2016/11/22 17:01:00	BASE	5.72	88	6.48	89	-0.7	89	-2.4	457	1278	998.3	NA	0.0000		9999	6760	0	0	0
2016/11/22 17:02:00	BASE	5.47	93	6.74	90	-0.7	89	-2.4	454	1270	998.3	NA	0.0000		9999	6560	0	0	0
2016/11/22 17:03:00	BASE	5.66	94	6.74	90	-0.8	89	-2.4	451	1261	998.3	NA	0.0000		9999	7320	0	0	0
2016/11/22 17:04:00	BASE	5.44	94	6.74	90	-0.8	89	-2.4	449	1256	998.3	NA	0.0000		9999	7450	0	0	0
2016/11/22 17:05:00	BASE	5.81	98	6.89	101	-0.9	89	-2.5	448	1252	998.2	NA	0.0000		9999	7280	0	0	0
2016/11/22 17:06:00	BASE	5.83	102	6.89	101	-1.0	89	-2.5	446	1249	998.3	NA	0.0000		9999	17620	0	0	0
2016/11/22 17:07:00	BASE	5.63	104	6.89	101	-1.0	89	-2.6	445	1247	998.2	NA	0.0000		9999	7350	0	0	0
2016/11/22 17:08:00	BASE	6.13	105	6.89	101	-1.0	89	-2.6	443	1244	998.2	NA	0.0000		9999	8100	0	0	0
2016/11/22 17:09:00	BASE	6.31	107	6.89	101	-1.1	89	-2.6	440	1240	998.2	NA	0.0000		9999	7220	0	0	0
2016/11/22 17:10:00	BASE	6.24	109	6.89	101	-1.1	90	-2.6	437	1236	998.2	NA	0.0000		9999	6860	0	0	0
2016/11/22 17:11:00	BASE	6.08	108	6.89	101	-1.1	90	-2.6	435	1232	998.1	NA	0.0000		9999	7190	0	0	0
2016/11/22 17:12:00	BASE	6.58	106	7.72	108	-1.1	90	-2.5	433	1228	998.0	NA	0.0000		9999	6960	0	0	0
2016/11/22 17:13:00	BASE	6.98	106	7.72	108	-1.1	90	-2.5	430	1221	998.0	NA	0.0000		9999	6460	0	0	0
2016/11/22 17:14:00	BASE	6.92	109	7.72	108	-1.1	90	-2.5	425	1210	998.0	NA	0.0000		9999	5770	0	0	0
2016/11/22 17:15:00	BASE	6.78	108	7.72	108	-1.1	90	-2.5	418	1192	998.0	NA	0.0000		9999	5710	0	0	0
2016/11/22 17:16:00	BASE	6.65	105	7.72	108	-1.1	90	-2.6	410	1176	998.0	NA	0.0000		9999	7640	0	0	0
2016/11/22 17:17:00	BASE	6.74	106	7.72	108	-1.1	90	-2.6	403	1160	998.0	NA	0.0000		9999	7740	0	0	0
2016/11/22 17:18:00	BASE	6.87	107	7.72	108	-1.1	90	-2.6	398	1147	998.0	NA	0.0000		9999	7680	0	0	0
2016/11/22 17:19:00	BASE	6.62	106	7.72	108	-1.1	90	-2.6	394	1139	998.0	NA	0.0000		9999	4560	0	0	0
2016/11/22 17:20:00	BASE	6.09	109	7.72	108	-1.1	90	-2.5	391	1132	998.0	NA	0.0000		9999	4590	0	0	0
2016/11/22 17:21:00	BASE	5.63	116	7.72	108	-1.2	90	-2.5	389	1128	998.0	NA	0.0000		9999	6920	0	0	0
2016/11/22 17:22:00	BASE	5.43	123	7.41	107	-1.2	91	-2.5	386	1121	997.9	NA	0.0000		9999	6500	0	0	0
2016/11/22 17:23:00	BASE	5.48	124	7.41	107	-1.2	91	-2.5	383	1113	997.9	NA	0.0000		9999	5970	0	0	0
2016/11/22 17:24:00	BASE	5.90	123	7.41	107	-1.1	91	-2.4	377	1101	997.9	NA	0.0000		9999	22080	0	0	0
2016/11/22 17:25:00	BASE	6.47	122	7.51	121	-1.1	91	-2.4	370	1082	997.8	NA	0.0000		9999	6430	0	0	0
2016/11/22 17:26:00	BASE	6.51	118	7.51	121	-1.1	91	-2.4	360	1059	997.9	NA	0.0000		9999	5410	0	0	0
2016/11/22 17:27:00	BASE	6.32	113	7.51	121	-1.2	91	-2.4	348	1034	998.0	NA	0.0000		9999	5710	0	0	0
2016/11/22 17:28:00	BASE	6.45	112	7.51	121	-1.2	91	-2.5	338	1007	998.0	NA	0.0000		9999	5610	0	0	0
2016/11/22 17:29:00	BASE	6.34	112	7.51	121	-1.2	91	-2.5	330	987	998.0	NA	0.0000		9999	4230	0	0	0
2016/11/22 17:30:00	BASE	5.66	115	7.51	121	-1.2	91	-2.5	325	972	998.0	NA	0.0000		9999	5810	0	0	0
2016/11/22 17:31:00	BASE	4.98	114	7.51	121	-1.2	91	-2.5	322	967	998.1	NA	0.0000		9999	3770	0	0	0
2016/11/22 17:32:00	BASE	4.58	110	7.51	121	-1.2	91	-2.5	322	967	998.1	NA	0.0000		9999	4040	0	0	0
2016/11/22 17:33:00	BASE	4.32	105	7.51	121	-1.2	91	-2.5	322	968	998.1	NA	0.0000		9999	6170	0	0	0
2016/11/22 17:34:00	BASE	4.51	100	7.51	121	-1.2	91	-2.4	324	973	998.2	NA	0.0000		9999	19060	23070	0	0
2016/11/22 17:35:00	BASE	5.20	104	7.05	110	-1.2	91	-2.4	327	982	998.0	NA	0.0000		9999	5810	0	0	0
2016/11/22 17:36:00	BASE	5.49	113	7.05	110	-1.2	91	-2.5	331	992	998.0	NA	0.0000		9999	6270	0	0	0
2016/11/22 17:37:00	BASE	5.50	116	7.05	110	-1.2	91	-2.5	336	1007	997.9	NA	0.0000		9999	6370	0	0	0
2016/11/22 17:38:00	BASE	5.51	114	6.74	118	-1.2	91	-2.5	342	1024	998.0	NA	0.0000		9999	5710	0	0	0
2016/11/22 17:39:00	BASE	5.64	111	6.48	109	-1.2	90	-2.6	349	1041	997.9	NA	0.0000		9999	5640	0	0	0
2016/11/22 17:40:00	BASE	5.80	113	6.48	109	-1.2	90	-2.6	358	1060	997.9	NA	0.0000		9999	5870	0	0	0
2016/11/22 17:41:00	BASE	5.81	116	7.25	115	-1.2	90	-2.6	366	1079	997.9	NA	0.0000		9999	6430	0	0	0
2016/11/22 17:42:00	BASE	6.10	115	7.25	115	-1.2	90	-2.5	373	1094	997.9	NA	0.0000		9999	6500	0	0	0
2016/11/22 17:43:00	BASE	6.33	110	7.25	115	-1.2	91	-2.5	379	1109	997.9	NA	0.0000		9999	5510	0	0	0
2016/11/22 17:44:00	BASE	6.29	108	7.25	115	-1.2	91	-2.5	383	1118	997.9	NA	0.0000		9999	6860	0	0	0
2016/11/22 17:45:00	BASE	6.21	112	7.25	115	-1.2	91	-2.4	384	1117	997.9	NA	0.0000		9999	6100	0	0	0
2016/11/22 17:46:00	BASE	6.31	120	7.25	115	-1.2	91	-2.5	383	1113	997.8	NA	0.0000		9999	4400	0	0	0
2016/11/22 17:47:00	BASE	6.11	126	7.25	115	-1.2	91	-2.5	382	1109	997.8	NA	0.0000		9999	5150	0	0	0
2016/11/22 17:48:00	BASE	6.08	120	7.25	115	-1.2	90	-2.5	381	1104	997.8	NA	0.0000		9999	5540	0	0	0
2016/11/22 17:49:00	BASE	6.01	108	7.25	115	-1.2	90	-2.6	379	1098	997.9	NA	0.0000		9999	6430	0	0	0
2016/11/22 17:50:00	BASE	5.67	105	7.25	115	-1.1	90	-2.6	378	1095	997.8	NA	0.0000		9999	6630	0	0	0
2016/11/22 17:51:00	BASE	5.19	108	7.05	108	-1.1	90	-2.6	378	1096	997.8	NA	0.0000		9999	6000	0	0	0
2016/11/22 17:52:00	BASE	5.09	108	7.05	108	-1.2	90	-2.6	380	1100	997.8	NA	0.0000		9999	6530	0	0	0
2016/11/22 17:53:00	BASE	5.47	112	7.05	108	-1.2	90	-2.6	385	1111	997.8	NA	0.0000		9999	5640	0	0	0
2016/11/22 17:54:00	BASE	4.95	111	6.89	118	-1.2	90	-2.6	392	1126	997.8	NA	0.0000		9999	4590	0	0	0
2016/11/22 17:55:00	BASE	4.79	103	6.89	118	-1.1	90	-2.6	397	1136	997.9	NA	0.0000		9999	4530	0	0	0
2016/11/22 17:56:00	BASE	5.37	102	6.89	118	-1.1	90	-2.6	402	1147	997.8	NA	0.0000		9999	6660	0	0	0
2016/11/22 17:57:00	BASE	5.45	106	6.89	118	-1.1	90	-2.6	406	1156	997.8	NA	0.0000		9999	4860	0	0	0
2016/11/22 17:58:00	BASE	4.96	104	6.38	101	-1.1	90	-2.6	408	1159	997.9	NA	0.0000		9999	4630	0	0	0
2016/11/22 17:59:00	BASE	4.22	103	6.28	106	-1.1	90	-2.6	407	1156	997.9	NA	0.0000		9999	5870	0	0	0
2016/11/22 18:00:00	BASE	3.82	103	6.02	113	-1.1	90	-2.6	406	1151	997.9	NA	0.0000		9999	4630	0	0	0
2016/11/22 18:01:00	BASE	3.83	102	6.02	113	-1.1	90	-2.6	403	1141	997.9	NA	0.0000		9999	4860	22050	0	0
2016/11/22 18:02:00	BASE	3.94	102	6.02	113	-1.1	90	-2.6	395	1119	997.9	NA	0.0000		9999	5090	0	0	0
2016/11/22 18:03:00	BASE	3.82	106	5.76	109	-1.1	90	-2.5	382	1087	997.9	NA	0.0000		9999	4820	0	0	0
2016/11/22 18:04:00	BASE	3.69	111	5.76	109	-1.1	90	-2.5	364	1043	997.9	NA	0.0000		9999	4560	0	0	0
2016/11/22 18:05:00	BASE	3.91	114	5.76	109	-1.1	90	-2.5	346	996	997.8	NA	0.0000		9999	4630	0	0	0
2016/11/22 18:06:00	BASE	4.19	115	5.71	107	-1.1	90	-2.5	328	957	997.8	NA	0.0000		9999	4690	0	0	0
2016/11/22 18:07:00	BASE	4.23	117	5.25	107	-1.1	90	-2.5	315	926	997.8	NA	0.0000		9999	4400	0	0	0
2016/11/22 18:08:00	BASE	4.08	117	5.14	117	-1.1	90	-2.5	307	909	997.8	NA	0.0000		9999	4460	19950	0	0
2016/11/22 18:09:00	BASE	3.66	115	5.14	117	-1.1	90	-2.6	306	908	997.9	NA	0.0000		9999	4230	0	0	0
2016/11/22 18:10:00	BASE	3.53	113	5.14	117	-1.1	90	-2.6	310	921	997.9	NA	0.0000		9999	4230	0	0	0
2016/11/22 18:11:00	BASE	3.68	110	5.14	117	-1.1	89	-2.6	316	937	997.9	NA	0.0000		9999	4130	0	0	0
2016/11/22 18:12:00	BASE	3.59	110	5.14	117	-1.1	89	-2.6	321	952	997.8	NA	0.0000		9999	3940	0	0	0
2016/11/22 18:13:00	BASE	3.52	108	5.14	117	-1.1	89	-2.7	324	960	997.8	NA	0.0000		9999	3610	0	0	0
2016/11/22 18:14:00	BASE	3.14	104	5.14	117	-1.1	89	-2.7	324	966	997.8	NA	0.0000		9999	4760	0	0	0
2016/11/22 18:15:00	BASE	2.58	104	4.78	118	-1.1	89	-2.6	325	971	997.8	NA	0.0000		9999	3580	0	0	0
2016/11/22 18:16:00	BASE	2.55	104	4.78	118	-1.1	89	-2.6	328	981	997.8	NA	0.0000		9999	3150	0	0	0
2016/11/22 18:17:00	BASE	2.84	102	4.53	113	-1.1	89	-2.6	334	994	997.8	NA	0.0000		9999	21330	0	0	0
2016/11/22 18:18:00	BASE	3.06	100	4.12	107	-1.1	89	-2.6	337	1000	997.8	NA	0.0000		9999	4430	0	0	0
2016/11/22 18:19:00	BASE	3.39	103	4.37	112	-1.1	89	-2.6	334	993	997.8	NA	0.0000		9999	3080	0	0	0
2016/11/22 18:20:00	BASE	3.62	112	4.37	112	-1.1	89	-2.6	323	967	997.8	NA	0.0000		9999	4690	0	0	0
2016/11/22 18:21:00	BASE	3.51	116	4.37	112	-1.1	89	-2.7	310	935	997.7	NA	0.0000		9999	4460	0	0	0
2016/11/22 18:22:00	BASE	3.44	117	4.37	112	-1.1	89	-2.6	298	906	997.7	NA	0.0000		9999	23070	0	0	0
2016/11/22 18:23:00	BASE	3.26	113	4.37	112	-1.0	89	-2.6	290	884	997.7	NA	0.0000		9999	4330	0	0	0
2016/11/22 18:24:00	BASE	3.06	102	4.37	112	-1.0	89	-2.6	285	871	997.7	NA	0.0000		9999	4430	0	0	0
2016/11/22 18:25:00	BASE	3.15	91	4.37	112	-1.0	89	-2.6	280	859	997.7	NA	0.0000		9999	4530	0	0	0
2016/11/22 18:26:00	BASE	3.17	90	4.37	112	-1.0	88	-2.6	274	844	997.7	NA	0.0000		9999	3940	0	0	0
2016/11/22 18:27:00	BASE	2.83	94	4.37	112	-1.0	88	-2.7	267	828	997.7	NA	0.0000		9999	4100	0	0	0
2016/11/22 18:28:00	BASE	2.42	88	4.37	112	-0.9	88	-2.7	262	814	997.7	NA	0.0000		9999	4040	0	0	0
2016/11/22 18:29:00	BASE	2.41	83	4.37	112	-0.9	88	-2.7	257	802	997.6	NA	0.0000		9999	4070	0	0	0
2016/11/22 18:30:00	BASE	2.72	93	3.76	112	-0.9	88	-2.7	251	793	997.6	NA	0.0000		9999	3900	0	0	0
2016/11/22 18:31:00	BASE	2.71	93	3.70	118	-0.9	88	-2.7	247	783	997.5	NA	0.0000		9999	4000	0	0	0
2016/11/22 18:32:00	BASE	2.88	86	3.55	91	-0.9	88	-2.7	245	784	997.5	NA	0.0000		9999	21460	0	0	0
2016/11/22 18:33:00	BASE	3.25	87	3.65	82	-0.9	88	-2.7	247	796	997.5	NA	0.0000		9999	3610	0	0	0
2016/11/22 18:34:00	BASE	3.41	79	3.81	74	-0.9	88	-2.7	249	804	997.5	NA	0.0000		9999	3610	0	0	0
2016/11/22 18:35:00	BASE	3.36	80	3.81	74	-0.9	88	-2.7	252	811	997.4	NA	0.0000		9999	3870	0	0	0
2016/11/22 18:36:00	BASE	3.33	88	3.81	74	-0.9	87	-2.7	254	816	997.3	NA	0.0000		9999	3220	0	0	0
2016/11/22 18:37:00	BASE	3.26	99	3.81	74	-0.9	87	-2.7	258	828	997.3	NA	0.0000		9999	3120	0	0	0
2016/11/22 18:38:00	BASE	2.94	107	3.81	74	-0.9	87	-2.8	260	834	997.3	NA	0.0000		9999	3540	0	0	0
2016/11/22 18:39:00	BASE	2.82	102	3.81	74	-0.9	87	-2.8	260	835	997.3	NA	0.0000		9999	3970	0	0	0
2016/11/22 18:40:00	BASE	2.94	95	3.81	74	-0.9	87	-2.8	262	840	997.3	NA	0.0000		9999	3840	0	0	0
2016/11/22 18:41:00	BASE	2.90	102	3.81	74	-0.9	87	-2.8	262	841	997.3	NA	0.0000		9999	3280	0	0	0
2016/11/22 18:42:00	BASE	2.75	111	3.81	74	-0.9	87	-2.8	263	843	997.3	NA	0.0000		9999	4070	0	0	0
2016/11/22 18:43:00	BASE	2.61	106	3.81	74	-0.9	87	-2.8	265	851	997.3	NA	0.0000		9999	3810	0	0	0
2016/11/22 18:44:00	BASE	2.38	108	3.70	93	-0.9	87	-2.8	264	851	997.3	NA	0.0000		9999	3810	0	0	0
2016/11/22 18:45:00	BASE	2.28	115	3.70	93	-0.9	87	-2.8	259	839	997.3	NA	0.0000		9999	3740	0	0	0
2016/11/22 18:46:00	BASE	2.15	125	3.40	104	-0.9	87	-2.8	253	823	997.3	NA	0.0000		9999	3810	0	0	0
2016/11/22 18:47:00	BASE	1.87	132	3.40	104	-0.9	87	-2.8	251	819	997.2	NA	0.0000		9999	3580	0	0	0
2016/11/22 18:48:00	BASE	1.20	110	3.24	90	-0.8	87	-2.7	250	819	997.3	NA	0.0000		9999	3580	0	0	0
2016/11/22 18:49:00	BASE	0.82	111	3.24	90	-0.7	86	-2.7	250	821	997.2	NA	0.0000		9999	3640	0	0	0
2016/11/22 18:50:00	BASE	0.90	148	3.19	119	-0.6	85	-2.7	250	817	997.2	NA	0.0000		9999	3670	0	0	0
2016/11/22 18:51:00	BASE	0.63	160	2.98	110	-0.4	85	-2.6	248	811	997.2	NA	0.0000		9999	3610	0	0	0
2016/11/22 18:52:00	BASE	0.35	202	2.68	119	-0.3	84	-2.7	247	806	997.2	NA	0.0000		9999	3450	0	0	0
2016/11/22 18:53:00	BASE	0.15	228	2.68	119	-0.3	83	-2.7	245	798	997.2	NA	0.0000		9999	3250	0	0	0
2016/11/22 18:54:00	BASE	0.00	228	2.68	119	-0.2	83	-2.7	242	787	997.2	NA	0.0000		9999	3250	0	0	0
2016/11/22 18:55:00	BASE	0.00	211	2.42	135	-0.2	83	-2.8	239	773	997.2	NA	0.0000		9999	3150	0	0	0
2016/11/22 18:56:00	BASE	0.00	189	2.21	135	-0.3	83	-2.8	234	762	997.2	NA	0.0000		9999	3150	0	0	0
2016/11/22 18:57:00	BASE	0.05	199	1.65	164	-0.3	83	-2.8	230	753	997.1	NA	0.0000		9999	2920	0	0	0
2016/11/22 18:58:00	BASE	0.05	195	1.65	164	-0.2	84	-2.7	228	749	997.1	NA	0.0000		9999	0	0	0	3250
2016/11/22 18:59:00	BASE	0.00	192	1.65	164	-0.3	83	-2.7	227	744	997.1	NA	0.0000		9999	0	0	0	3280
2016/11/22 19:00:00	BASE	0.21	207	1.95	28	-0.3	83	-2.8	224	735	997.1	NA	0.0000		9999	0	0	0	3150
2016/11/22 19:01:00	BASE	0.61	312	2.52	321	-0.2	83	-2.7	223	735	997.1	NA	0.0000		9999	0	0	0	2920
2016/11/22 19:02:00	BASE	0.98	348	2.52	321	-0.2	83	-2.7	223	736	997.1	NA	0.0000		9999	0	0	0	2950
2016/11/22 19:03:00	BASE	0.82	337	2.52	321	-0.2	82	-2.8	224	739	997.1	NA	0.0000		9999	0	0	0	3020
2016/11/22 19:04:00	BASE	0.42	283	2.52	321	-0.2	82	-2.9	226	745	997.1	NA	0.0000		9999	0	0	0	2990
2016/11/22 19:05:00	BASE	0.77	259	2.52	321	-0.2	83	-2.8	228	752	997.1	NA	0.0000		9999	0	0	0	2920
2016/11/22 19:06:00	BASE	1.31	264	2.52	321	-0.3	83	-2.8	232	764	997.0	NA	0.0000		9999	0	0	0	3150
2016/11/22 19:07:00	BASE	1.48	270	2.52	321	-0.4	83	-2.9	237	780	997.0	NA	0.0000		9999	0	0	0	3150
2016/11/22 19:08:00	BASE	1.51	270	2.52	321	-0.4	84	-2.8	243	797	997.0	NA	0.0000		9999	0	0	0	3250
2016/11/22 19:09:00	BASE	1.44	272	2.52	321	-0.4	85	-2.7	250	813	997.0	NA	0.0000		9999	0	0	0	3380
2016/11/22 19:10:00	BASE	1.59	291	2.52	321	-0.3	85	-2.5	253	823	997.0	NA	0.0000		9999	0	0	0	3410
2016/11/22 19:11:00	BASE	2.04	315	3.34	342	-0.1	85	-2.4	255	831	997.0	NA	0.0000		9999	0	0	0	3510
2016/11/22 19:12:00	BASE	3.19	335	4.63	343	0.2	84	-2.2	254	827	996.9	NA	0.0000		9999	0	0	0	3510
2016/11/22 19:13:00	BASE	4.17	340	4.73	345	0.5	82	-2.2	251	818	996.8	NA	0.0000		9999	3310	0	0	0
2016/11/22 19:14:00	BASE	4.08	339	4.73	345	0.8	80	-2.2	247	808	996.8	NA	0.0000		9999	3480	0	0	0
2016/11/22 19:15:00	BASE	3.90	339	4.73	345	1.1	78	-2.3	242	792	996.8	NA	0.0000		9999	3640	0	0	0
2016/11/22 19:16:00	BASE	4.08	337	4.99	333	1.3	76	-2.4	235	773	996.8	NA	0.0000		9999	3840	0	0	0
2016/11/22 19:17:00	BASE	4.64	336	5.50	338	1.4	75	-2.5	230	758	996.7	NA	0.0000		9999	3940	0	0	0
2016/11/22 19:18:00	BASE	4.93	336	5.50	338	1.4	75	-2.5	228	751	996.7	NA	0.0000		9999	3840	0	0	0
2016/11/22 19:19:00	BASE	4.90	336	5.50	338	1.3	75	-2.6	226	745	996.7	NA	0.0000		9999	4100	0	0	0
2016/11/22 19:20:00	BASE	4.85	338	5.50	338	1.3	75	-2.6	219	721	996.7	NA	0.0000		9999	4270	0	0	0
2016/11/22 19:21:00	BASE	4.69	343	5.50	338	1.3	76	-2.5	209	694	996.7	NA	0.0000		9999	4330	0	0	0
2016/11/22 19:22:00	BASE	3.93	5	5.50	338	1.3	76	-2.4	198	663	996.9	NA	0.0000		9999	4430	0	0	0
2016/11/22 19:23:00	BASE	3.29	51	5.50	338	1.3	76	-2.4	187	635	996.9	NA	0.0000		9999	4360	0	0	0
2016/11/22 19:24:00	BASE	3.07	86	5.50	338	1.2	77	-2.5	177	611	996.8	NA	0.0000		9999	4400	0	0	0
2016/11/22 19:25:00	BASE	2.89	97	5.50	338	0.9	78	-2.6	171	592	996.8	NA	0.0000		9999	4300	0	0	0
2016/11/22 19:26:00	BASE	3.36	99	5.50	338	0.6	79	-2.7	168	585	996.8	NA	0.0000		9999	4270	0	0	0
2016/11/22 19:27:00	BASE	4.48	99	5.71	102	0.2	80	-2.8	167	581	996.8	NA	0.0000		9999	4360	0	0	0
2016/11/22 19:28:00	BASE	5.31	102	5.81	107	-0.1	82	-2.8	166	579	996.8	NA	0.0000		9999	4270	0	0	0
2016/11/22 19:29:00	BASE	5.68	102	6.12	100	-0.3	83	-2.8	165	576	996.7	NA	0.0000		9999	4360	0	0	0
2016/11/22 19:30:00	BASE	5.84	100	6.12	100	-0.4	84	-2.7	162	565	996.7	NA	0.0000		9999	4270	0	0	0
2016/11/22 19:31:00	BASE	5.46	101	6.12	100	-0.5	85	-2.7	159	559	996.7	NA	0.0000		9999	4230	0	0	0
2016/11/22 19:32:00	BASE	5.23	106	6.12	100	-0.6	86	-2.7	158	551	996.7	NA	0.0000		9999	4100	0	0	0
2016/11/22 19:33:00	BASE	4.89	117	6.12	100	-0.7	87	-2.6	158	555	996.7	NA	0.0000		9999	3970	0	0	0
2016/11/22 19:34:00	BASE	4.07	128	6.12	100	-0.7	88	-2.5	159	556	996.7	NA	0.0000		9999	4170	0	0	0
2016/11/22 19:35:00	BASE	3.50	136	6.12	100	-0.8	88	-2.4	161	562	996.7	NA	0.0000		9999	4460	0	0	0
2016/11/22 19:36:00	BASE	3.12	141	6.12	100	-0.7	89	-2.3	165	571	996.7	NA	0.0000		9999	4460	0	0	0
2016/11/22 19:37:00	BASE	2.45	140	6.12	100	-0.7	89	-2.2	168	581	996.7	NA	0.0000		9999	4070	0	0	0
2016/11/22 19:38:00	BASE	1.83	142	6.12	100	-0.6	90	-2.1	170	587	996.6	NA	0.0000		9999	4790	0	0	0
2016/11/22 19:39:00	BASE	1.11	165	5.92	98	-0.6	90	-2.0	170	588	996.7	NA	0.0000		9999	4860	0	0	0
2016/11/22 19:40:00	BASE	0.39	196	5.76	100	-0.6	90	-2.1	169	585	996.7	NA	0.0000		9999	4920	0	0	0
2016/11/22 19:41:00	BASE	0.39	211	5.61	107	-0.6	89	-2.1	166	578	996.7	NA	0.0000		9999	2660	4560	0	0
2016/11/22 19:42:00	BASE	0.85	220	5.35	119	-0.6	89	-2.1	164	571	996.7	NA	0.0000		9999	4760	0	0	0
2016/11/22 19:43:00	BASE	1.59	223	4.27	137	-0.6	89	-2.2	163	569	996.7	NA	0.0000		9999	3810	4660	0	0
2016/11/22 19:44:00	BASE	2.53	202	3.65	142	-0.7	89	-2.2	163	568	996.5	NA	0.0000		9999	5050	0	0	0
2016/11/22 19:45:00	BASE	3.06	182	3.50	188	-0.7	90	-2.2	164	573	996.5	NA	0.0000		9999	4690	0	0	0
2016/11/22 19:46:00	BASE	3.05	170	3.50	188	-0.7	90	-2.1	166	580	996.5	NA	0.0000		9999	4660	0	0	0
2016/11/22 19:47:00	BASE	2.64	170	3.50	188	-0.7	90	-2.1	169	585	996.5	NA	0.0000		9999	4660	0	0	0
2016/11/22 19:48:00	BASE	1.92	190	3.50	188	-0.6	90	-2.1	170	586	996.5	NA	0.0000		9999	5050	0	0	0
2016/11/22 19:49:00	BASE	1.04	220	3.50	188	-0.6	90	-2.0	169	582	996.6	NA	0.0000		9999	4790	0	0	0
2016/11/22 19:50:00	BASE	0.39	244	3.50	188	-0.6	90	-2.0	166	572	996.6	NA	0.0000		9999	3710	0	0	0
2016/11/22 19:51:00	BASE	0.77	251	3.50	188	-0.6	90	-2.0	162	560	996.5	NA	0.0000		9999	3610	0	0	0
2016/11/22 19:52:00	BASE	2.04	244	3.55	235	-0.6	90	-2.0	159	551	996.4	NA	0.0000		9999	4200	24440	0	0
2016/11/22 19:53:00	BASE	2.96	239	3.55	235	-0.6	90	-2.0	157	543	996.3	NA	0.0000		9999	4040	22970	0	0
2016/11/22 19:54:00	BASE	2.27	250	3.55	235	-0.6	90	-2.0	155	536	996.4	NA	0.0000		9999	4200	0	0	0
2016/11/22 19:55:00	BASE	0.97	291	3.55	235	-0.5	90	-2.0	152	528	996.4	NA	0.0000		9999	3020	4330	0	0
2016/11/22 19:56:00	BASE	0.43	291	3.55	235	-0.5	90	-2.0	151	528	996.4	NA	0.0000		9999	3740	0	0	0
2016/11/22 19:57:00	BASE	0.43	264	3.55	235	-0.5	90	-1.9	152	527	996.3	NA	0.0000		9999	3840	0	0	0
2016/11/22 19:58:00	BASE	0.81	285	3.55	235	-0.4	89	-1.9	154	531	996.3	NA	0.0000		9999	4200	0	0	0
2016/11/22 19:59:00	BASE	0.92	286	3.55	235	-0.4	89	-2.0	156	539	996.3	NA	0.0000		9999	4270	0	0	0
2016/11/22 20:00:00	BASE	0.45	243	3.55	235	-0.3	88	-2.0	157	540	996.3	NA	0.0000		9999	4890	0	0	0
2016/11/22 20:01:00	BASE	0.24	181	3.55	235	-0.3	88	-2.1	156	538	996.3	NA	0.0000		9999	3810	0	0	0
2016/11/22 20:02:00	BASE	1.37	128	3.50	233	-0.3	87	-2.1	153	529	996.3	NA	0.0000		9999	4630	0	0	0
2016/11/22 20:03:00	BASE	2.72	127	3.24	129	-0.3	87	-2.1	149	518	996.2	NA	0.0000		9999	3480	0	0	0
2016/11/22 20:04:00	BASE	3.12	145	3.40	150	-0.3	88	-2.1	144	508	996.1	NA	0.0000		9999	4400	0	0	0
2016/11/22 20:05:00	BASE	2.40	160	3.40	150	-0.3	88	-2.1	139	492	996.2	NA	0.0000		9999	4360	0	0	0
2016/11/22 20:06:00	BASE	1.62	178	3.40	150	-0.4	88	-2.1	134	478	996.2	NA	0.0000		9999	2560	0	0	0
2016/11/22 20:07:00	BASE	1.13	200	3.40	150	-0.4	89	-2.0	128	463	996.3	NA	0.0000		9999	2620	0	0	0
2016/11/22 20:08:00	BASE	0.33	204	3.40	150	-0.3	89	-1.9	124	448	996.4	NA	0.0000		9999	2620	0	0	0
2016/11/22 20:09:00	BASE	0.29	160	3.40	150	-0.3	89	-1.9	121	440	996.3	NA	0.0000		9999	2590	0	0	0
2016/11/22 20:10:00	BASE	0.71	127	3.40	150	-0.3	89	-2.0	119	434	996.3	NA	0.0000		9999	4400	0	0	0
2016/11/22 20:11:00	BASE	0.46	137	3.40	150	-0.3	88	-2.0	120	434	996.2	NA	0.0000		9999	4460	0	0	0
2016/11/22 20:12:00	BASE	0.93	169	3.40	150	-0.3	88	-2.0	123	441	996.1	NA	0.0000		9999	0	0	0	4720
2016/11/22 20:13:00	BASE	2.12	190	3.40	150	-0.4	88	-2.1	127	454	996.0	NA	0.0000		9999	4560	0	0	0
2016/11/22 20:14:00	BASE	1.76	172	2.73	190	-0.4	88	-2.2	132	468	996.1	NA	0.0000	UP	9999	3350	0	0	0
2016/11/22 20:15:00	BASE	0.79	144	2.73	190	-0.4	87	-2.2	138	488	996.1	NA	0.0000	UP	9999	3310	0	0	0
2016/11/22 20:16:00	BASE	0.55	147	2.73	190	-0.4	87	-2.3	144	505	996.1	NA	0.0000	UP	9999	4270	0	0	0
2016/11/22 20:17:00	BASE	0.70	169	2.73	190	-0.3	87	-2.3	147	517	996.0	NA	0.0000	UP	9999	4130	0	0	0
2016/11/22 20:18:00	BASE	1.21	192	2.73	190	-0.3	86	-2.3	147	520	996.0	NA	0.0000	UP	9999	0	0	0	4130
2016/11/22 20:19:00	BASE	1.93	213	2.73	190	-0.3	86	-2.3	145	514	996.0	NA	0.0000	UP	9999	0	0	0	4460
2016/11/22 20:20:00	BASE	2.12	202	2.73	190	-0.3	86	-2.3	140	500	996.0	NA	0.0000	UP	9999	0	0	0	460
2016/11/22 20:21:00	BASE	1.63	180	2.73	190	-0.4	87	-2.3	132	473	996.0	NA	0.0000	UP	9999	4270	0	0	0
2016/11/22 20:22:00	BASE	1.12	195	2.73	190	-0.4	87	-2.3	122	444	996.0	NA	0.0000	UP	9999	0	0	0	4490
2016/11/22 20:23:00	BASE	1.50	220	2.62	226	-0.5	88	-2.2	111	411	996.0	NA	0.0000	UP	9999	0	0	0	4630
2016/11/22 20:24:00	BASE	2.21	223	2.73	225	-0.6	88	-2.2	104	387	995.9	NA	0.0000	UP	9999	2200	0	0	0
2016/11/22 20:25:00	BASE	1.97	208	2.73	225	-0.6	89	-2.2	100	369	996.0	NA	0.0000	UP	9999	0	0	0	4630
2016/11/22 20:26:00	BASE	1.50	175	2.73	225	-0.6	90	-2.1	97	359	996.0	NA	0.0000	UP	9999	0	0	0	4490
2016/11/22 20:27:00	BASE	1.10	129	2.73	225	-0.6	90	-2.1	94	348	996.1	NA	0.0000	UP	9999	0	0	0	4530
2016/11/22 20:28:00	BASE	0.56	120	2.73	225	-0.6	90	-2.0	93	342	996.1	NA	0.0000	UP	9999	0	0	0	4330
2016/11/22 20:29:00	BASE	1.40	165	3.14	181	-0.6	91	-1.9	91	336	995.9	NA	0.0000	UP	9999	0	0	0	4170
2016/11/22 20:30:00	BASE	2.59	178	3.19	184	-0.6	91	-1.9	89	332	995.9	NA	0.0000	UP	9999	0	0	0	4230
2016/11/22 20:31:00	BASE	2.83	165	3.34	160	-0.6	91	-1.8	89	332	996.0	NA	0.0000	UP	9000	0	0	0	4300
2016/11/22 20:32:00	BASE	2.91	152	3.65	136	-0.6	91	-1.8	89	331	996.0	NA	0.0000	UP	8000	0	0	0	3970
2016/11/22 20:33:00	BASE	2.97	189	4.99	259	-0.6	91	-1.8	89	330	995.6	NA	0.0000	UP	8000	2660	0	0	0
2016/11/22 20:34:00	BASE	3.55	232	5.56	232	-0.5	91	-1.7	89	330	995.5	NA	0.0000	UP BR	6000	2430	0	0	0
2016/11/22 20:35:00	BASE	3.17	254	5.56	232	-0.3	91	-1.5	87	324	995.8	NA	0.0000	UP BR	9000	2400	0	0	0
2016/11/22 20:36:00	BASE	4.48	91	7.41	106	-0.1	90	-1.5	82	310	995.7	NA	0.0000	UP BR	8000	2400	3220	0	0
2016/11/22 20:37:00	BASE	5.96	116	7.51	162	-0.1	89	-1.6	78	297	995.7	NA	0.0000	UP BR	7000	2230	0	0	0
2016/11/22 20:38:00	BASE	5.43	136	7.51	162	-0.0	89	-1.7	76	289	995.7	NA	0.0000	UP BR	9000	2130	0	0	0
2016/11/22 20:39:00	BASE	5.51	151	7.51	162	-0.0	89	-1.7	70	273	995.7	NA	0.0000	UP BR	8000	2100	0	0	0
2016/11/22 20:40:00	BASE	5.06	156	7.51	162	-0.2	88	-1.9	65	261	995.7	NA	0.0000	UP BR	8000	1970	0	0	0
2016/11/22 20:41:00	BASE	4.60	164	7.51	162	-0.4	89	-1.9	62	250	995.7	NA	0.0000	UP BR	4900	2130	0	0	0
2016/11/22 20:42:00	BASE	4.39	181	7.51	162	-0.4	91	-1.7	59	241	995.7	NA	0.0000	UP BR	4500	2130	0	0	0
2016/11/22 20:43:00	BASE	3.19	172	7.51	162	-0.3	91	-1.6	59	246	995.7	NA	0.0000	UP BR	3600	2100	0	0	0
2016/11/22 20:44:00	BASE	1.42	154	7.51	162	-0.2	91	-1.5	59	245	995.5	NA	0.0000	-SN BR	3700	430	0	0	0
2016/11/22 20:45:00	BASE	0.95	251	7.51	162	-0.0	90	-1.4	59	250	995.5	NA	0.0000	-SN BR	4600	2130	0	0	0
2016/11/22 20:46:00	BASE	1.48	298	7.51	162	0.2	89	-1.3	61	256	995.6	NA	0.0000	-SN BR	4500	2400	0	0	0
2016/11/22 20:47:00	BASE	1.91	7	7.31	150	0.4	88	-1.4	65	270	995.7	NA	0.0000	-SN BR	8000	2200	0	0	0
2016/11/22 20:48:00	BASE	1.39	39	6.64	149	0.5	87	-1.4	69	282	995.7	NA	0.0000	-SN BR	7000	0	0	0	2950
2016/11/22 20:49:00	BASE	0.80	69	5.56	170	0.6	87	-1.4	73	296	995.6	NA	0.0000	-SN BR	4000	460	0	0	0
2016/11/22 20:50:00	BASE	1.48	96	5.56	170	0.6	87	-1.4	75	304	995.5	NA	0.0000	-SN BR	2600	2300	0	0	0
2016/11/22 20:51:00	BASE	3.11	80	5.09	179	0.4	87	-1.4	77	313	995.6	NA	0.0000	-SN BR	3800	2070	0	0	0
2016/11/22 20:52:00	BASE	3.75	61	4.78	61	0.3	88	-1.4	84	332	995.7	NA	0.0000	-SN BR	4600	850	0	0	0
2016/11/22 20:53:00	BASE	2.61	68	4.78	61	0.2	89	-1.4	88	342	995.7	NA	0.0000	-SN BR	3200	1410	0	0	0
2016/11/22 20:54:00	BASE	2.08	111	4.78	61	0.0	90	-1.5	89	344	995.4	NA	0.0000	-SN BR	2600	2030	0	0	0
2016/11/22 20:55:00	BASE	2.93	151	4.78	61	0.0	90	-1.4	87	338	995.2	NA	0.0000	-SN BR	2400	2100	0	0	0
2016/11/22 20:56:00	BASE	3.97	156	5.35	124	0.1	90	-1.3	87	342	995.1	NA	0.0000	-SN BR	2500	2070	0	0	0
2016/11/22 20:57:00	BASE	5.07	147	6.33	121	0.1	90	-1.3	88	343	995.1	NA	0.0000	-SN BR	3900	2000	0	0	0
2016/11/22 20:58:00	BASE	4.35	140	6.33	121	0.1	90	-1.4	85	335	995.2	NA	0.0000	-SN BR	7000	1250	0	0	0
2016/11/22 20:59:00	BASE	2.81	117	6.33	121	0.1	90	-1.4	82	326	995.3	NA	0.0000	-SN BR	5000	1120	1640	0	0
2016/11/22 21:00:00	BASE	2.57	102	6.33	121	0.1	90	-1.4	77	312	995.2	NA	0.0000	-SN BR	6000	1250	2000	0	0
2016/11/22 21:01:00	BASE	2.58	58	6.33	121	0.1	90	-1.3	74	302	995.3	NA	0.0000	-SN BR	5000	2000	0	0	0
2016/11/22 21:02:00	BASE	2.46	18	6.33	121	0.2	91	-1.2	72	295	995.3	NA	0.0000	-SN BR	9999	1710	2200	0	0
2016/11/22 21:03:00	BASE	1.91	41	6.33	121	0.2	91	-1.1	69	293	995.3	NA	0.0000	-SN BR	9999	1970	0	0	0
2016/11/22 21:04:00	BASE	1.46	71	6.33	121	0.2	91	-1.1	67	284	995.3	NA	0.0000	-SN BR	8000	1150	1940	0	0
2016/11/22 21:05:00	BASE	1.21	103	6.33	121	0.1	91	-1.2	65	276	995.3	NA	0.0000	-SN BR	7000	1150	0	0	0
2016/11/22 21:06:00	BASE	0.72	136	6.33	121	0.1	91	-1.2	64	274	995.4	NA	0.0000	-SN BR	5000	1410	2070	0	0
2016/11/22 21:07:00	BASE	0.34	163	4.68	163	-0.0	91	-1.3	66	281	995.4	NA	0.0000	-SN BR	3100	1050	0	0	0
2016/11/22 21:08:00	BASE	0.36	189	4.01	86	-0.1	92	-1.3	67	284	995.3	NA	0.0000	-SN BR	3200	1080	0	0	0
2016/11/22 21:09:00	BASE	0.18	216	3.29	1	-0.0	92	-1.2	68	287	995.3	NA	0.0000	-SN BR	4400	1120	2170	0	0
2016/11/22 21:10:00	BASE	0.10	251	3.29	1	0.1	92	-1.1	72	298	995.3	NA	0.0000	-SN BR	9999	1020	2000	0	0
2016/11/22 21:11:00	BASE	0.48	258	2.62	25	0.1	92	-1.0	76	315	995.3	NA	0.0000	-SN BR	9999	920	1710	0	0
2016/11/22 21:12:00	BASE	1.58	233	2.78	212	0.0	92	-1.1	83	339	995.3	NA	0.0000	-SN BR	9999	1670	0	0	0
2016/11/22 21:13:00	BASE	2.39	205	3.14	179	-0.0	92	-1.1	87	352	995.2	NA	0.0000	-SN BR	9999	1800	0	0	0
2016/11/22 21:14:00	BASE	2.72	190	3.50	185	-0.1	92	-1.2	89	359	995.2	NA	0.0000	-SN BR	9999	1870	4560	0	0
2016/11/22 21:15:00	BASE	3.04	194	3.50	185	-0.2	92	-1.3	89	364	995.0	NA	0.0000	-SN BR	9999	2530	4430	0	0
2016/11/22 21:16:00	BASE	2.97	191	3.50	185	-0.3	93	-1.3	89	364	995.0	NA	0.0000	-SN BR	9999	4330	0	0	0
2016/11/22 21:17:00	BASE	2.98	177	3.76	180	-0.3	93	-1.3	90	367	995.0	NA	0.0000	-SN BR	9999	4330	0	0	0
2016/11/22 21:18:00	BASE	3.42	176	4.68	192	-0.3	94	-1.2	90	365	994.9	NA	0.0000	-SN BR	9999	460	1940	0	0
2016/11/22 21:19:00	BASE	4.24	186	5.04	195	-0.3	94	-1.2	90	365	994.8	NA	0.0000	-SN	9999	1770	0	0	0
2016/11/22 21:20:00	BASE	5.09	189	6.84	185	-0.3	94	-1.1	89	360	994.8	NA	0.0000	-SN	9999	1710	0	0	0
2016/11/22 21:21:00	BASE	6.26	185	8.28	172	-0.3	94	-1.1	83	339	994.6	NA	0.0000	-SN	9999	1610	4300	0	0
2016/11/22 21:22:00	BASE	6.99	178	8.64	168	-0.3	94	-1.1	81	335	994.7	NA	0.0000	-SN	9999	1510	0	0	0
2016/11/22 21:23:00	BASE	5.52	177	8.64	168	-0.3	95	-1.1	83	341	994.8	NA	0.0000	-SN	9999	1350	0	0	0
2016/11/22 21:24:00	BASE	4.12	171	8.64	168	-0.3	95	-1.0	85	348	994.9	NA	0.0000	-SN	9999	1480	0	0	0
2016/11/22 21:25:00	BASE	4.12	164	8.64	168	-0.3	95	-1.0	87	354	994.9	NA	0.0000	-SN	9999	1310	0	0	0
2016/11/22 21:26:00	BASE	3.84	172	8.64	168	-0.3	95	-1.0	90	365	994.9	NA	0.0000	-SN	9000	1310	0	0	0
2016/11/22 21:27:00	BASE	3.09	167	8.64	168	-0.3	95	-1.0	93	373	994.9	NA	0.0000	-SN	9999	1080	1670	0	0
2016/11/22 21:28:00	BASE	2.86	144	8.64	168	-0.3	95	-0.9	90	362	995.0	NA	0.0000	-SN	9999	1410	0	0	0
2016/11/22 21:29:00	BASE	4.26	122	8.64	168	-0.3	95	-1.0	88	355	994.9	NA	0.0000	-SN	9999	330	1020	0	0
2016/11/22 21:30:00	BASE	5.15	125	8.64	168	-0.3	95	-1.0	91	362	994.6	NA	0.0000	-SN	9000	690	0	0	0
2016/11/22 21:31:00	BASE	4.85	136	8.64	168	-0.3	96	-0.9	96	380	994.8	NA	0.0000	-SN	8000	230	0	0	0
2016/11/22 21:32:00	BASE	4.67	138	5.81	121	-0.3	96	-0.9	98	381	994.7	NA	0.0000	-SN	9000	330	0	0	0
2016/11/22 21:33:00	BASE	4.39	140	5.81	121	-0.3	96	-0.9	98	382	994.7	NA	0.0000	-SN	9999	260	690	0	0
2016/11/22 21:34:00	BASE	4.08	140	5.81	121	-0.3	96	-0.9	97	379	994.7	NA	0.0000	-SN BR	9999	260	1740	0	0
2016/11/22 21:35:00	BASE	3.72	138	5.81	121	-0.3	96	-0.9	96	378	994.7	NA	0.0000	-SN BR	9999	300	0	0	0
2016/11/22 21:36:00	BASE	3.58	134	5.81	121	-0.3	96	-0.9	91	363	994.7	NA	0.0000	-SN	9999	230	590	0	0
2016/11/22 21:37:00	BASE	3.60	130	5.81	121	-0.4	96	-0.9	94	368	994.7	NA	0.0000	-SN	9999	360	0	0	0
2016/11/22 21:38:00	BASE	3.53	138	5.81	121	-0.4	96	-0.9	99	380	994.7	NA	0.0000	-SN	9999	300	0	0	0
2016/11/22 21:39:00	BASE	3.94	157	5.50	130	-0.4	96	-0.9	98	373	994.6	NA	0.0000	-SN	9999	330	0	0	0
2016/11/22 21:40:00	BASE	4.70	175	5.76	183	-0.4	97	-0.9	93	357	994.4	NA	0.0000	-SN	9999	390	4400	0	0
2016/11/22 21:41:00	BASE	4.97	181	5.76	183	-0.4	97	-0.9	88	341	994.4	NA	0.0000	-SN BR	5000	2230	0	0	0
2016/11/22 21:42:00	BASE	4.30	178	5.76	183	-0.4	97	-0.8	86	331	994.5	NA	0.0000	-SN BR	5000	1940	0	0	0
2016/11/22 21:43:00	BASE	3.63	166	5.76	183	-0.4	97	-0.8	85	328	994.6	NA	0.0000	-SN BR	3300	1800	4330	0	0
2016/11/22 21:44:00	BASE	3.84	159	5.76	183	-0.4	97	-0.8	85	324	994.4	NA	0.0000	-SN BR	7000	390	4170	0	0
2016/11/22 21:45:00	BASE	4.55	161	5.76	183	-0.4	97	-0.8	81	311	994.2	NA	0.0000	-SN BR	8000	390	4270	0	0
2016/11/22 21:46:00	BASE	5.43	163	6.94	174	-0.4	97	-0.8	77	300	994.1	NA	0.0000	-SN BR	5000	2460	4230	0	0
2016/11/22 21:47:00	BASE	5.00	160	6.94	174	-0.4	97	-0.8	78	301	994.2	NA	0.0000	-SN BR	9999	1610	0	0	0
2016/11/22 21:48:00	BASE	3.09	148	6.94	174	-0.3	97	-0.8	76	294	994.4	NA	0.0000	-SN BR	9999	1480	3020	4100	0
2016/11/22 21:49:00	BASE	2.03	143	6.94	174	-0.3	97	-0.7	72	279	994.4	NA	0.0000	-SN BR	9000	520	2850	0	0
2016/11/22 21:50:00	BASE	2.64	150	6.94	174	-0.2	97	-0.6	71	274	994.2	NA	0.0000	-SN BR	9999	560	4300	0	0
2016/11/22 21:51:00	BASE	3.84	158	6.94	174	-0.2	97	-0.6	69	268	994.1	NA	0.0000	-SN BR	6000	620	4230	0	0
2016/11/22 21:52:00	BASE	4.02	165	6.94	174	-0.2	97	-0.6	65	260	994.1	NA	0.0000	-SN BR	9000	2000	2820	0	0
2016/11/22 21:53:00	BASE	3.11	166	6.94	174	-0.2	97	-0.6	64	257	994.1	NA	0.0000	-SN BR	9999	1840	0	0	0
2016/11/22 21:54:00	BASE	2.45	170	6.94	174	-0.3	97	-0.7	64	254	994.1	NA	0.0000	-SN BR	9999	1570	0	0	0
2016/11/22 21:55:00	BASE	2.51	183	6.94	174	-0.3	97	-0.7	62	248	994.1	NA	0.0000	-SN BR	9999	1640	2720	0	0
2016/11/22 21:56:00	BASE	2.63	177	5.25	149	-0.3	97	-0.7	59	239	994.1	NA	0.0000	-SN	9999	1870	0	0	0
2016/11/22 21:57:00	BASE	2.39	153	4.68	160	-0.3	97	-0.7	58	236	994.1	NA	0.0000	-SN	9999	1870	0	0	0
2016/11/22 21:58:00	BASE	2.08	144	4.68	160	-0.3	97	-0.7	57	233	994.1	NA	0.0000	-SN	9999	1800	0	0	0
2016/11/22 21:59:00	BASE	1.86	151	4.68	160	-0.3	97	-0.7	57	231	994.0	NA	0.0000	-SN	9999	1770	2530	0	0
2016/11/22 22:00:00	BASE	1.89	158	4.68	160	-0.3	97	-0.7	56	228	994.0	NA	0.0000	-SN	9999	1770	2690	4300	0
2016/11/22 22:01:00	BASE	1.93	161	4.48	172	-0.3	97	-0.7	54	222	993.9	NA	0.0000		9999	1900	0	0	0
2016/11/22 22:02:00	BASE	1.64	157	3.09	175	-0.3	97	-0.7	54	221	993.9	NA	0.0000		9999	1840	0	0	0
2016/11/22 22:03:00	BASE	1.11	147	3.09	175	-0.3	97	-0.7	55	224	994.0	NA	0.0000		9999	1870	0	0	0
2016/11/22 22:04:00	BASE	1.12	143	3.09	175	-0.3	97	-0.7	55	224	993.8	NA	0.0000		9999	1800	0	0	0
2016/11/22 22:05:00	BASE	2.09	159	3.45	175	-0.2	97	-0.7	54	222	993.6	NA	0.0000		9999	3710	4270	0	0
2016/11/22 22:06:00	BASE	2.97	177	3.55	181	-0.2	97	-0.6	53	218	993.5	NA	0.0000		9999	2130	0	0	0
2016/11/22 22:07:00	BASE	2.45	181	3.55	181	-0.2	97	-0.6	52	214	993.6	NA	0.0000		9999	1800	0	0	0
2016/11/22 22:08:00	BASE	0.85	156	3.55	181	-0.2	97	-0.6	49	204	993.8	NA	0.0000		9999	1900	3970	0	0
2016/11/22 22:09:00	BASE	0.95	87	3.55	181	-0.1	97	-0.5	46	194	993.9	NA	0.0000		9999	2100	0	0	0
2016/11/22 22:10:00	BASE	1.31	71	3.55	181	-0.1	97	-0.5	46	193	993.7	NA	0.0000		9999	490	0	0	0
2016/11/22 22:11:00	BASE	1.06	122	3.55	181	-0.0	97	-0.4	48	200	993.7	NA	0.0000		9999	490	0	0	0
2016/11/22 22:12:00	BASE	1.02	158	3.55	181	-0.0	97	-0.4	51	213	993.6	NA	0.0000		9999	430	0	0	0
2016/11/22 22:13:00	BASE	0.76	183	3.55	181	-0.0	97	-0.5	53	219	993.6	NA	0.0000		9999	750	2170	0	0
2016/11/22 22:14:00	BASE	1.33	209	3.55	181	-0.1	97	-0.5	54	222	993.5	NA	0.0000		9999	460	3380	0	0
2016/11/22 22:15:00	BASE	1.57	223	3.55	181	-0.1	97	-0.6	54	224	993.5	NA	0.0000		9999	460	2200	0	0
2016/11/22 22:16:00	BASE	1.33	222	2.73	35	-0.1	96	-0.7	55	225	993.5	NA	0.0000		9999	430	0	0	0
2016/11/22 22:17:00	BASE	1.44	202	2.73	35	-0.2	96	-0.7	56	227	993.5	NA	0.0000		9999	430	1870	0	0
2016/11/22 22:18:00	BASE	1.82	186	2.73	35	-0.2	96	-0.7	57	230	993.4	NA	0.0000		9999	430	3120	0	0
2016/11/22 22:19:00	BASE	2.06	179	2.42	179	-0.2	96	-0.7	58	231	993.4	NA	0.0000		9999	2590	0	0	0
2016/11/22 22:20:00	BASE	1.85	164	2.42	179	-0.2	96	-0.7	58	230	993.4	NA	0.0000		9999	2100	4100	0	0
2016/11/22 22:21:00	BASE	1.87	142	2.52	128	-0.2	96	-0.7	57	227	993.3	NA	0.0000		9999	3020	0	0	0
2016/11/22 22:22:00	BASE	2.67	130	3.40	129	-0.2	96	-0.7	56	225	993.3	NA	0.0000		9999	2850	0	0	0
2016/11/22 22:23:00	BASE	3.33	131	3.76	140	-0.2	96	-0.7	56	222	993.2	NA	0.0000		9999	2560	3540	0	0
2016/11/22 22:24:00	BASE	3.46	140	3.76	142	-0.2	96	-0.7	55	213	993.1	NA	0.0000		9999	2950	3870	0	0
2016/11/22 22:25:00	BASE	3.67	149	4.12	147	-0.2	96	-0.7	54	211	992.9	NA	0.0000		9999	3150	3840	0	0
2016/11/22 22:26:00	BASE	3.98	146	4.32	140	-0.2	96	-0.7	53	209	992.9	NA	0.0000		9999	4170	0	0	0
2016/11/22 22:27:00	BASE	4.59	141	5.76	141	-0.2	97	-0.6	53	207	992.8	NA	0.0000		9999	3510	4330	0	0
2016/11/22 22:28:00	BASE	5.77	143	7.10	145	-0.1	97	-0.6	52	203	992.6	NA	0.0000		9999	2660	4130	0	0
2016/11/22 22:29:00	BASE	6.62	146	7.36	146	-0.1	97	-0.6	50	199	992.5	NA	0.0000	-SN	9999	2560	3810	0	0
2016/11/22 22:30:00	BASE	6.82	147	7.61	144	-0.1	97	-0.5	49	197	992.4	NA	0.0000	-SN BR	3000	4070	0	0	0
2016/11/22 22:31:00	BASE	7.20	149	8.08	150	-0.1	97	-0.5	47	195	992.2	NA	0.0000	-SN BR	2900	3840	0	0	0
2016/11/22 22:32:00	BASE	7.46	150	8.85	149	-0.0	97	-0.5	46	192	992.1	NA	0.0000	-SN BR	2900	3450	0	0	0
2016/11/22 22:33:00	BASE	7.38	143	8.85	149	-0.0	96	-0.5	46	189	992.3	NA	0.0000	-SN BR	2400	2660	3900	0	0
2016/11/22 22:34:00	BASE	6.84	133	8.85	149	-0.0	96	-0.5	46	189	992.3	NA	0.0000	-SN BR	2400	2430	3250	0	0
2016/11/22 22:35:00	BASE	6.02	134	8.85	149	-0.0	96	-0.6	45	187	992.3	NA	0.0000	-SN BR	2400	4040	0	0	0
2016/11/22 22:36:00	BASE	6.58	148	9.36	158	-0.0	96	-0.6	44	182	992.0	NA	0.0000	-SN BR	2300	4100	0	0	0
2016/11/22 22:37:00	BASE	8.67	152	11.47	145	-0.0	96	-0.6	43	178	991.6	NA	0.0000	-SN BR	2300	2620	0	0	0
2016/11/22 22:38:00	BASE	9.59	149	11.47	145	-0.0	96	-0.6	43	178	991.7	NA	0.0000	-SN BR	2200	2460	0	0	0
2016/11/22 22:39:00	BASE	8.71	152	11.47	145	-0.0	96	-0.6	43	178	991.8	NA	0.0000	-SN BR	2100	2300	0	0	0
2016/11/22 22:40:00	BASE	7.88	146	11.47	145	-0.0	96	-0.6	43	178	991.9	NA	0.0000	-SN BR	2100	2330	0	0	0
2016/11/22 22:41:00	BASE	7.89	135	11.47	145	-0.0	96	-0.6	42	174	991.8	NA	0.0000	-SN BR	2000	2530	0	0	0
2016/11/22 22:42:00	BASE	6.56	124	11.47	145	-0.0	96	-0.6	40	169	992.2	NA	0.0000	-SN BR	1900	2300	0	0	0
2016/11/22 22:43:00	BASE	4.78	114	11.47	145	-0.0	96	-0.6	39	163	992.2	NA	0.0000	-SN BR	1800	2330	2820	0	0
2016/11/22 22:44:00	BASE	4.24	116	11.47	145	0.0	96	-0.6	36	152	992.2	NA	0.0000	-SN BR	1800	2460	3970	0	0
2016/11/22 22:45:00	BASE	2.93	84	11.47	145	0.1	96	-0.5	34	147	992.4	NA	0.0000	-SN BR	1800	2360	3150	0	0
2016/11/22 22:46:00	BASE	3.82	13	11.47	145	0.2	95	-0.5	35	151	992.4	NA	0.0000	-SN BR	1800	2130	0	0	0
2016/11/22 22:47:00	BASE	4.31	16	10.24	145	0.2	95	-0.5	36	152	992.4	NA	0.0000	-SN BR	1800	2100	0	0	0
2016/11/22 22:48:00	BASE	3.97	103	9.36	131	0.3	95	-0.5	35	148	991.8	NA	0.0000	-SN BR	1800	2000	2660	0	0
2016/11/22 22:49:00	BASE	4.44	175	9.36	131	0.3	94	-0.4	34	145	991.8	NA	0.0000	-SN BR	1800	2360	0	0	0
2016/11/22 22:50:00	BASE	2.86	157	9.11	141	0.4	94	-0.4	33	144	992.1	NA	0.0000	-SN BR	1800	2200	0	0	0
2016/11/22 22:51:00	BASE	1.91	76	6.74	129	0.4	94	-0.4	34	144	992.2	NA	0.0000	-SN BR	1800	1970	0	0	0
2016/11/22 22:52:00	BASE	2.20	359	6.69	3	0.5	94	-0.4	34	144	992.2	NA	0.0000	-SN BR	1800	2360	0	0	0
2016/11/22 22:53:00	BASE	1.61	310	6.69	3	0.5	94	-0.4	33	138	992.0	NA	0.0000	-SN BR	1800	2360	0	0	0
2016/11/22 22:54:00	BASE	3.71	187	7.82	191	0.5	93	-0.4	31	135	991.7	NA	0.0000	-SN BR	1800	2790	3770	0	0
2016/11/22 22:55:00	BASE	7.05	175	9.21	163	0.5	93	-0.4	31	137	991.6	NA	0.0000	-SN BR	5000	2490	0	0	0
2016/11/22 22:56:00	BASE	5.99	176	9.21	163	0.6	93	-0.4	32	140	991.8	NA	0.0000	-SN BR	4600	2530	0	0	0
2016/11/22 22:57:00	BASE	2.60	206	9.21	163	0.6	93	-0.4	32	138	991.9	NA	0.0000	-SN BR	3300	2430	0	0	0
2016/11/22 22:58:00	BASE	1.81	228	9.21	163	0.7	93	-0.3	32	135	991.8	NA	0.0000	-SN BR	3800	2130	2560	0	0
2016/11/22 22:59:00	BASE	3.75	213	9.21	163	0.9	92	-0.2	32	136	991.6	NA	0.0000	-SN BR	5000	2400	3940	0	0
2016/11/22 23:00:00	BASE	5.34	185	9.21	163	1.0	92	-0.2	32	139	991.4	NA	0.0000	-SN BR	5000	2460	0	0	0
2016/11/22 23:01:00	BASE	4.86	156	9.21	163	1.3	90	-0.1	33	141	991.5	NA	0.0000	-SN BR	4300	2530	0	0	0
2016/11/22 23:02:00	BASE	4.11	81	9.21	163	1.5	88	-0.2	33	139	991.5	NA	0.0000	-SN BR	4600	2490	0	0	0
2016/11/22 23:03:00	BASE	5.01	28	9.21	163	1.6	87	-0.3	32	136	991.5	NA	0.0000	-SN BR	4600	2530	3250	0	0
2016/11/22 23:04:00	BASE	4.32	41	9.21	163	1.7	86	-0.3	30	129	991.5	NA	0.0000	-SN BR	4500	2690	0	0	0
2016/11/22 23:05:00	BASE	3.57	60	7.92	176	1.8	85	-0.5	29	123	991.6	NA	0.0000	-SN	4600	2260	0	0	0
2016/11/22 23:06:00	BASE	3.47	58	7.92	176	1.6	85	-0.7	27	116	991.6	NA	0.0000	-SN	6000	2330	0	0	0
2016/11/22 23:07:00	BASE	3.78	34	7.92	176	1.4	85	-0.8	26	112	991.6	NA	0.0000	-SN BR	7000	2400	0	0	0
2016/11/22 23:08:00	BASE	4.73	18	7.92	176	1.3	86	-0.8	25	104	991.6	NA	0.0000	-SN BR	7000	2530	0	0	0
2016/11/22 23:09:00	BASE	4.72	15	7.92	176	1.1	87	-0.8	25	107	991.6	NA	0.0000	-SN BR	7000	2620	0	0	0
2016/11/22 23:10:00	BASE	4.07	12	6.64	17	1.0	88	-0.8	24	105	991.6	NA	0.0000	-SN BR	7000	2530	0	0	0
2016/11/22 23:11:00	BASE	3.52	9	6.64	17	0.9	90	-0.7	23	102	991.7	NA	0.0000	-SN BR	9000	2530	0	0	0
2016/11/22 23:12:00	BASE	3.20	3	6.28	41	0.8	90	-0.6	23	101	991.7	NA	0.0000	-SN BR	9000	2300	0	0	0
2016/11/22 23:13:00	BASE	2.90	11	5.40	19	0.8	91	-0.5	24	102	991.6	NA	0.0000	-SN BR	9000	2460	0	0	0
2016/11/22 23:14:00	BASE	2.91	36	5.40	19	0.8	91	-0.5	23	101	991.6	NA	0.0000	-SN BR	9000	430	0	0	0
2016/11/22 23:15:00	BASE	3.77	79	5.45	91	0.9	91	-0.5	23	99	991.5	NA	0.0000	-SN BR	6000	2620	3350	0	0
2016/11/22 23:16:00	BASE	4.93	128	6.07	166	0.9	91	-0.5	22	97	991.3	NA	0.0000	-SN BR	8000	2530	0	0	0
2016/11/22 23:17:00	BASE	6.06	158	7.82	162	0.9	90	-0.5	23	98	991.0	NA	0.0000	-SN BR	3900	2400	0	0	0
2016/11/22 23:18:00	BASE	5.45	173	7.82	162	1.0	90	-0.3	23	98	991.1	NA	0.0000	-SN BR	2700	2620	0	0	0
2016/11/22 23:19:00	BASE	2.90	159	7.82	162	1.4	89	-0.3	22	97	991.4	NA	0.0000	-SN BR	2700	2360	0	0	0
2016/11/22 23:20:00	BASE	4.48	9	8.28	352	1.7	87	-0.3	23	99	991.6	NA	0.0000	-SN BR	3100	2560	0	0	0
2016/11/22 23:21:00	BASE	7.07	356	8.28	349	1.8	85	-0.4	23	101	991.7	NA	0.0000	-SN	4000	1900	0	0	0
2016/11/22 23:22:00	BASE	6.04	13	8.28	349	1.9	84	-0.5	23	101	991.7	NA	0.0000	-SN	4900	2300	0	0	0
2016/11/22 23:23:00	BASE	4.07	60	8.28	349	1.9	83	-0.6	23	98	991.3	NA	0.0000	-SN	5000	1940	3310	0	0
2016/11/22 23:24:00	BASE	4.60	139	8.28	349	1.7	83	-0.8	21	91	990.5	NA	0.2540	-RA	5000	2590	3310	0	0
2016/11/22 23:25:00	BASE	6.00	174	8.28	349	1.7	84	-0.8	19	85	990.7	NA	0.0000	-RA	2100	2530	0	0	0
2016/11/22 23:26:00	BASE	4.16	199	8.28	349	1.8	84	-0.6	18	78	991.1	NA	0.0000	-RA	1400	430	0	0	0
2016/11/22 23:27:00	BASE	3.82	355	8.28	349	2.0	83	-0.6	16	73	991.2	NA	0.0000	-RA	1500	2460	3020	0	0
2016/11/22 23:28:00	BASE	5.78	26	8.28	349	2.0	82	-0.7	16	71	991.3	NA	0.0000	-RA	1700	2460	0	0	0
2016/11/22 23:29:00	BASE	5.96	40	8.28	349	1.9	83	-0.7	15	69	991.3	NA	0.0000	-RA	1900	2530	0	0	0
2016/11/22 23:30:00	BASE	5.18	44	8.28	349	1.9	83	-0.7	15	69	991.3	NA	0.0000	-RA	2100	2530	0	0	0
2016/11/22 23:31:00	BASE	4.51	45	7.77	175	1.7	84	-0.8	15	69	991.3	NA	0.0000	-RA	2400	2530	0	0	0
2016/11/22 23:32:00	BASE	4.22	62	7.77	175	1.6	84	-0.8	15	69	991.2	NA	0.0000	-RA	2600	2460	0	0	0
2016/11/22 23:33:00	BASE	4.50	77	7.77	175	1.6	84	-0.8	15	67	991.1	NA	0.0000	-RA	2700	2360	0	0	0
2016/11/22 23:34:00	BASE	5.32	83	7.20	173	1.6	84	-0.8	15	66	990.9	NA	0.0000	-RA	3200	2360	0	0	0
2016/11/22 23:35:00	BASE	6.14	92	7.15	94	1.7	84	-0.8	15	66	991.0	NA	0.0000	-RA	3100	2260	0	0	0
2016/11/22 23:36:00	BASE	6.33	92	7.25	84	1.8	83	-0.8	15	66	991.0	NA	0.2540	-RA	2600	1970	0	0	0
2016/11/22 23:37:00	BASE	5.66	100	7.25	84	1.7	83	-0.8	15	67	991.1	NA	0.0000	-RA	1800	2400	0	0	0
2016/11/22 23:38:00	BASE	5.04	121	7.25	84	1.7	83	-0.9	16	70	991.2	NA	0.0000	-RA	2000	2360	0	0	0
2016/11/22 23:39:00	BASE	5.03	137	7.25	84	1.6	84	-0.9	17	72	991.1	NA	0.0000	RA	2000	2130	0	0	0
2016/11/22 23:40:00	BASE	4.70	149	7.25	84	1.5	84	-0.9	16	72	990.9	NA	0.0000	RA	1900	2330	3280	0	0
2016/11/22 23:41:00	BASE	3.99	159	7.25	84	1.3	85	-0.9	16	71	991.0	NA	0.0000	RA BR	2000	2300	3280	0	0
2016/11/22 23:42:00	BASE	2.96	149	7.25	84	1.1	87	-0.8	15	68	991.0	NA	0.0000	RA BR	2200	2330	2920	0	0
2016/11/22 23:43:00	BASE	2.19	141	7.25	84	1.0	88	-0.8	16	68	991.0	NA	0.0000	RA BR	2200	2200	0	0	0
2016/11/22 23:44:00	BASE	2.28	143	7.25	84	1.0	89	-0.7	16	68	991.0	NA	0.0000	-RA BR	2200	2260	0	0	0
2016/11/22 23:45:00	BASE	3.39	136	7.25	84	1.0	89	-0.6	15	65	990.9	NA	0.0000	-RA BR	2000	2260	3180	0	0
2016/11/22 23:46:00	BASE	4.32	134	6.02	140	1.1	89	-0.5	15	67	990.9	NA	0.0000	-RA BR	2700	2170	0	0	0
2016/11/22 23:47:00	BASE	5.44	114	6.94	102	1.1	89	-0.5	15	67	991.0	NA	0.0000	-RA BR	2700	2230	0	0	0
2016/11/22 23:48:00	BASE	5.60	97	6.94	102	1.2	89	-0.5	15	67	990.9	NA	0.0000	-RA BR	3000	1150	0	0	0
2016/11/22 23:49:00	BASE	4.79	109	6.94	102	1.1	89	-0.5	15	65	990.9	NA	0.0000	-RA BR	3000	2100	0	0	0
2016/11/22 23:50:00	BASE	4.14	124	6.94	102	1.1	89	-0.6	15	64	990.9	NA	0.0000	-RA BR	3000	2200	0	0	0
2016/11/22 23:51:00	BASE	2.28	123	6.94	102	1.0	89	-0.6	15	64	991.0	NA	0.0000	-RA BR	3000	2200	0	0	0
2016/11/22 23:52:00	BASE	1.61	107	6.94	102	1.0	89	-0.6	15	64	991.0	NA	0.0000	-RA BR	2900	2170	0	0	0
2016/11/22 23:53:00	BASE	2.00	131	6.94	102	1.0	89	-0.5	14	63	990.8	NA	0.0000	-RA BR	2900	2100	0	0	0
2016/11/22 23:54:00	BASE	2.40	158	6.94	102	1.0	89	-0.5	14	63	990.7	NA	0.0000	-RA BR	2900	2260	0	0	0
2016/11/22 23:55:00	BASE	2.99	147	6.94	102	1.1	89	-0.5	14	62	990.8	NA	0.2540	BR	2900	2300	0	0	0
2016/11/22 23:56:00	BASE	2.87	161	6.94	102	1.1	89	-0.5	14	62	990.8	NA	0.0000	BR	2900	2130	0	0	0
2016/11/22 23:57:00	BASE	2.79	184	6.28	85	1.1	89	-0.4	13	59	990.8	NA	0.0000	BR	2900	2070	0	0	0
2016/11/22 23:58:00	BASE	2.85	190	5.71	139	1.2	89	-0.5	13	56	990.8	NA	0.0000	-RA BR	2600	2200	0	0	0
2016/11/22 23:59:00	BASE	3.00	191	4.63	118	1.2	89	-0.5	12	55	990.8	NA	0.0000	-RA BR	2100	2260	0	0	0